<?xml version="1.0" encoding="UTF-8" standalone="no" ?>
<gpx xmlns="http://www.topografix.com/GPX/1/1" xmlns:xsi="http://www.w3.org/2001/XMLSchema-instance" xsi:schemaLocation="http://www.topografix.com/GPX/1/1 http://www.topografix.com/GPX/1/1/gpx.xsd" version="1.1" creator="VisuGPX - https://www.visugpx.com">
  <metadata>
    <name>Nistos cimetiere anglo canadien</name>
    <desc><![CDATA[Mené par Roland 12 participants
Nistos cimetière anglo canadien 
Pic de Douly Pic de  Belloc
sur la carte à la plus grande échelle au dessus de Douly il y a une croix Chrétienne et inscrit Cim pour localiser le cimetière
14km 900m cumulé]]></desc>
  </metadata>
  <trk>
    <name><![CDATA[2015-06-09 Nistos Cimetière ]]></name>
    <desc><![CDATA[<h1>OruxMaps</h1><br /><hr align="center" width="480" style="height: 2px; width: 517px"/><h2>Nom: 2015-06-09 Nistos Cimetière </h2><br /><p>Temps de départ: 06/09/2015 08:32</p><p>Temps d'arrivée: 06/09/2015 14:59</p><p>Distance: 14,1km (06:27)</p><p>Temps déplacement: 03:30</p><p>Vitesse moyenne: 2,2km/h</p><p>Vitesse moyenne: 4km/h</p><p>Vitess Max.: 13,6km/h</p><p>Altitude minimale: 1226m</p><p>Altitude maximale: 1643m</p><p>Vitesse d'élévation: 393,9m/h</p><p>Vitesse de descente: -245,5m/h</p><p>Gain Altitude: 914m</p><p>Perte Altitude: -904m</p><p>Temps d'élévation: 02:19</p><p>Temps de descente: 03:41</p><hr align="center" width="480" style="height: 2px; width: 517px"/>]]></desc>
    <trkseg>
      <trkpt lat="42.9714" lon="0.48396">
        <ele>1228.56</ele>
        <time>2015-06-09T06:32:17Z</time>
      </trkpt>
      <trkpt lat="42.97146" lon="0.48387">
        <ele>1226.81</ele>
        <time>2015-06-09T06:33:55Z</time>
      </trkpt>
      <trkpt lat="42.97138" lon="0.48393">
        <ele>1226.64</ele>
        <time>2015-06-09T06:35:40Z</time>
      </trkpt>
      <trkpt lat="42.97129" lon="0.48398">
        <ele>1227.31</ele>
        <time>2015-06-09T06:35:45Z</time>
      </trkpt>
      <trkpt lat="42.97121" lon="0.48405">
        <ele>1227.99</ele>
        <time>2015-06-09T06:35:51Z</time>
      </trkpt>
      <trkpt lat="42.97116" lon="0.48415">
        <ele>1231.14</ele>
        <time>2015-06-09T06:36:01Z</time>
      </trkpt>
      <trkpt lat="42.97111" lon="0.48426">
        <ele>1232.26</ele>
        <time>2015-06-09T06:36:11Z</time>
      </trkpt>
      <trkpt lat="42.97106" lon="0.48438">
        <ele>1235.01</ele>
        <time>2015-06-09T06:36:21Z</time>
      </trkpt>
      <trkpt lat="42.97101" lon="0.48449">
        <ele>1234.23</ele>
        <time>2015-06-09T06:36:30Z</time>
      </trkpt>
      <trkpt lat="42.97097" lon="0.48461">
        <ele>1230.21</ele>
        <time>2015-06-09T06:36:40Z</time>
      </trkpt>
      <trkpt lat="42.97093" lon="0.48473">
        <ele>1235.93</ele>
        <time>2015-06-09T06:36:51Z</time>
      </trkpt>
      <trkpt lat="42.9709" lon="0.48486">
        <ele>1238.24</ele>
        <time>2015-06-09T06:37:00Z</time>
      </trkpt>
      <trkpt lat="42.97096" lon="0.48496">
        <ele>1239.73</ele>
        <time>2015-06-09T06:37:10Z</time>
      </trkpt>
      <trkpt lat="42.97099" lon="0.48509">
        <ele>1235.52</ele>
        <time>2015-06-09T06:37:20Z</time>
      </trkpt>
      <trkpt lat="42.97103" lon="0.48521">
        <ele>1237.06</ele>
        <time>2015-06-09T06:37:27Z</time>
      </trkpt>
      <trkpt lat="42.97111" lon="0.4853">
        <ele>1228.85</ele>
        <time>2015-06-09T06:37:36Z</time>
      </trkpt>
      <trkpt lat="42.97118" lon="0.48538">
        <ele>1232.91</ele>
        <time>2015-06-09T06:37:44Z</time>
      </trkpt>
      <trkpt lat="42.97126" lon="0.48545">
        <ele>1233.32</ele>
        <time>2015-06-09T06:37:54Z</time>
      </trkpt>
      <trkpt lat="42.97127" lon="0.48557">
        <ele>1232.07</ele>
        <time>2015-06-09T06:38:04Z</time>
      </trkpt>
      <trkpt lat="42.97134" lon="0.48566">
        <ele>1235.91</ele>
        <time>2015-06-09T06:38:15Z</time>
      </trkpt>
      <trkpt lat="42.97141" lon="0.48576">
        <ele>1242.77</ele>
        <time>2015-06-09T06:38:25Z</time>
      </trkpt>
      <trkpt lat="42.97147" lon="0.48585">
        <ele>1240.69</ele>
        <time>2015-06-09T06:38:39Z</time>
      </trkpt>
      <trkpt lat="42.97153" lon="0.48595">
        <ele>1250.01</ele>
        <time>2015-06-09T06:38:47Z</time>
      </trkpt>
      <trkpt lat="42.97155" lon="0.48607">
        <ele>1247.49</ele>
        <time>2015-06-09T06:38:56Z</time>
      </trkpt>
      <trkpt lat="42.9716" lon="0.48618">
        <ele>1241.87</ele>
        <time>2015-06-09T06:39:06Z</time>
      </trkpt>
      <trkpt lat="42.97159" lon="0.4863">
        <ele>1244.67</ele>
        <time>2015-06-09T06:39:20Z</time>
      </trkpt>
      <trkpt lat="42.97162" lon="0.48642">
        <ele>1237.24</ele>
        <time>2015-06-09T06:39:33Z</time>
      </trkpt>
      <trkpt lat="42.97162" lon="0.48654">
        <ele>1237.75</ele>
        <time>2015-06-09T06:39:42Z</time>
      </trkpt>
      <trkpt lat="42.97163" lon="0.48668">
        <ele>1238.01</ele>
        <time>2015-06-09T06:39:52Z</time>
      </trkpt>
      <trkpt lat="42.97165" lon="0.4868">
        <ele>1251.03</ele>
        <time>2015-06-09T06:40:11Z</time>
      </trkpt>
      <trkpt lat="42.97168" lon="0.48692">
        <ele>1250.09</ele>
        <time>2015-06-09T06:40:18Z</time>
      </trkpt>
      <trkpt lat="42.9717" lon="0.48706">
        <ele>1249.45</ele>
        <time>2015-06-09T06:40:25Z</time>
      </trkpt>
      <trkpt lat="42.97171" lon="0.48718">
        <ele>1251.63</ele>
        <time>2015-06-09T06:40:32Z</time>
      </trkpt>
      <trkpt lat="42.97169" lon="0.4873">
        <ele>1256.41</ele>
        <time>2015-06-09T06:40:40Z</time>
      </trkpt>
      <trkpt lat="42.9717" lon="0.48744">
        <ele>1255.14</ele>
        <time>2015-06-09T06:40:51Z</time>
      </trkpt>
      <trkpt lat="42.97176" lon="0.48756">
        <ele>1252.85</ele>
        <time>2015-06-09T06:40:58Z</time>
      </trkpt>
      <trkpt lat="42.9718" lon="0.48768">
        <ele>1253.55</ele>
        <time>2015-06-09T06:41:05Z</time>
      </trkpt>
      <trkpt lat="42.97188" lon="0.48775">
        <ele>1253.37</ele>
        <time>2015-06-09T06:41:10Z</time>
      </trkpt>
      <trkpt lat="42.97192" lon="0.48786">
        <ele>1253.56</ele>
        <time>2015-06-09T06:41:17Z</time>
      </trkpt>
      <trkpt lat="42.97198" lon="0.48796">
        <ele>1249.92</ele>
        <time>2015-06-09T06:41:30Z</time>
      </trkpt>
      <trkpt lat="42.97207" lon="0.48802">
        <ele>1263.58</ele>
        <time>2015-06-09T06:41:38Z</time>
      </trkpt>
      <trkpt lat="42.97216" lon="0.48804">
        <ele>1261.58</ele>
        <time>2015-06-09T06:41:44Z</time>
      </trkpt>
      <trkpt lat="42.97225" lon="0.48803">
        <ele>1274.77</ele>
        <time>2015-06-09T06:42:15Z</time>
      </trkpt>
      <trkpt lat="42.97236" lon="0.48803">
        <ele>1269.32</ele>
        <time>2015-06-09T06:42:22Z</time>
      </trkpt>
      <trkpt lat="42.97245" lon="0.48801">
        <ele>1274.46</ele>
        <time>2015-06-09T06:42:28Z</time>
      </trkpt>
      <trkpt lat="42.97256" lon="0.48804">
        <ele>1283.93</ele>
        <time>2015-06-09T06:42:34Z</time>
      </trkpt>
      <trkpt lat="42.97265" lon="0.48808">
        <ele>1284.07</ele>
        <time>2015-06-09T06:42:39Z</time>
      </trkpt>
      <trkpt lat="42.97275" lon="0.4881">
        <ele>1286.08</ele>
        <time>2015-06-09T06:42:45Z</time>
      </trkpt>
      <trkpt lat="42.97277" lon="0.48798">
        <ele>1290.36</ele>
        <time>2015-06-09T06:43:15Z</time>
      </trkpt>
      <trkpt lat="42.97283" lon="0.48787">
        <ele>1284.81</ele>
        <time>2015-06-09T06:43:26Z</time>
      </trkpt>
      <trkpt lat="42.97293" lon="0.48784">
        <ele>1284.27</ele>
        <time>2015-06-09T06:43:49Z</time>
      </trkpt>
      <trkpt lat="42.97303" lon="0.4879">
        <ele>1278.03</ele>
        <time>2015-06-09T06:43:55Z</time>
      </trkpt>
      <trkpt lat="42.97313" lon="0.4879">
        <ele>1283.09</ele>
        <time>2015-06-09T06:44:01Z</time>
      </trkpt>
      <trkpt lat="42.97322" lon="0.48787">
        <ele>1281.01</ele>
        <time>2015-06-09T06:44:06Z</time>
      </trkpt>
      <trkpt lat="42.9733" lon="0.48782">
        <ele>1277.63</ele>
        <time>2015-06-09T06:44:11Z</time>
      </trkpt>
      <trkpt lat="42.97339" lon="0.48777">
        <ele>1277.97</ele>
        <time>2015-06-09T06:44:16Z</time>
      </trkpt>
      <trkpt lat="42.97349" lon="0.48775">
        <ele>1277.42</ele>
        <time>2015-06-09T06:44:33Z</time>
      </trkpt>
      <trkpt lat="42.97358" lon="0.48774">
        <ele>1273.68</ele>
        <time>2015-06-09T06:44:38Z</time>
      </trkpt>
      <trkpt lat="42.97367" lon="0.48771">
        <ele>1278.72</ele>
        <time>2015-06-09T06:44:43Z</time>
      </trkpt>
      <trkpt lat="42.97377" lon="0.48765">
        <ele>1277.29</ele>
        <time>2015-06-09T06:44:50Z</time>
      </trkpt>
      <trkpt lat="42.97386" lon="0.48763">
        <ele>1282.66</ele>
        <time>2015-06-09T06:44:59Z</time>
      </trkpt>
      <trkpt lat="42.97396" lon="0.4876">
        <ele>1281.09</ele>
        <time>2015-06-09T06:45:05Z</time>
      </trkpt>
      <trkpt lat="42.97404" lon="0.48756">
        <ele>1286.82</ele>
        <time>2015-06-09T06:45:13Z</time>
      </trkpt>
      <trkpt lat="42.97414" lon="0.48754">
        <ele>1290.16</ele>
        <time>2015-06-09T06:45:23Z</time>
      </trkpt>
      <trkpt lat="42.97423" lon="0.48756">
        <ele>1290.87</ele>
        <time>2015-06-09T06:45:29Z</time>
      </trkpt>
      <trkpt lat="42.9743" lon="0.48747">
        <ele>1292.66</ele>
        <time>2015-06-09T06:45:37Z</time>
      </trkpt>
      <trkpt lat="42.9744" lon="0.48743">
        <ele>1286.16</ele>
        <time>2015-06-09T06:45:49Z</time>
      </trkpt>
      <trkpt lat="42.97449" lon="0.48743">
        <ele>1288.34</ele>
        <time>2015-06-09T06:45:57Z</time>
      </trkpt>
      <trkpt lat="42.97458" lon="0.48744">
        <ele>1295.2</ele>
        <time>2015-06-09T06:46:07Z</time>
      </trkpt>
      <trkpt lat="42.97468" lon="0.48749">
        <ele>1295.85</ele>
        <time>2015-06-09T06:46:19Z</time>
      </trkpt>
      <trkpt lat="42.97478" lon="0.48747">
        <ele>1301.47</ele>
        <time>2015-06-09T06:46:28Z</time>
      </trkpt>
      <trkpt lat="42.97486" lon="0.48751">
        <ele>1297.11</ele>
        <time>2015-06-09T06:46:41Z</time>
      </trkpt>
      <trkpt lat="42.97496" lon="0.48755">
        <ele>1299.98</ele>
        <time>2015-06-09T06:46:49Z</time>
      </trkpt>
      <trkpt lat="42.97503" lon="0.48763">
        <ele>1299.99</ele>
        <time>2015-06-09T06:46:56Z</time>
      </trkpt>
      <trkpt lat="42.97512" lon="0.48763">
        <ele>1298.77</ele>
        <time>2015-06-09T06:47:06Z</time>
      </trkpt>
      <trkpt lat="42.97521" lon="0.48763">
        <ele>1291.38</ele>
        <time>2015-06-09T06:47:14Z</time>
      </trkpt>
      <trkpt lat="42.97531" lon="0.48765">
        <ele>1290.96</ele>
        <time>2015-06-09T06:47:26Z</time>
      </trkpt>
      <trkpt lat="42.9754" lon="0.48769">
        <ele>1297.1</ele>
        <time>2015-06-09T06:47:37Z</time>
      </trkpt>
      <trkpt lat="42.97549" lon="0.48771">
        <ele>1307.89</ele>
        <time>2015-06-09T06:47:47Z</time>
      </trkpt>
      <trkpt lat="42.97558" lon="0.48777">
        <ele>1296.65</ele>
        <time>2015-06-09T06:48:01Z</time>
      </trkpt>
      <trkpt lat="42.97567" lon="0.48783">
        <ele>1286.44</ele>
        <time>2015-06-09T06:48:10Z</time>
      </trkpt>
      <trkpt lat="42.97575" lon="0.4879">
        <ele>1287.62</ele>
        <time>2015-06-09T06:48:15Z</time>
      </trkpt>
      <trkpt lat="42.97584" lon="0.48791">
        <ele>1291.01</ele>
        <time>2015-06-09T06:48:36Z</time>
      </trkpt>
      <trkpt lat="42.97593" lon="0.48792">
        <ele>1290.7</ele>
        <time>2015-06-09T06:48:41Z</time>
      </trkpt>
      <trkpt lat="42.97602" lon="0.48791">
        <ele>1296.45</ele>
        <time>2015-06-09T06:48:51Z</time>
      </trkpt>
      <trkpt lat="42.97611" lon="0.48798">
        <ele>1293.24</ele>
        <time>2015-06-09T06:48:57Z</time>
      </trkpt>
      <trkpt lat="42.9762" lon="0.48805">
        <ele>1289.14</ele>
        <time>2015-06-09T06:49:05Z</time>
      </trkpt>
      <trkpt lat="42.97628" lon="0.48811">
        <ele>1284.98</ele>
        <time>2015-06-09T06:49:14Z</time>
      </trkpt>
      <trkpt lat="42.97637" lon="0.48818">
        <ele>1287.47</ele>
        <time>2015-06-09T06:49:24Z</time>
      </trkpt>
      <trkpt lat="42.97644" lon="0.48826">
        <ele>1284.31</ele>
        <time>2015-06-09T06:49:35Z</time>
      </trkpt>
      <trkpt lat="42.97652" lon="0.4883">
        <ele>1287.43</ele>
        <time>2015-06-09T06:49:45Z</time>
      </trkpt>
      <trkpt lat="42.97656" lon="0.48843">
        <ele>1284.24</ele>
        <time>2015-06-09T06:49:55Z</time>
      </trkpt>
      <trkpt lat="42.97659" lon="0.48856">
        <ele>1282.5</ele>
        <time>2015-06-09T06:50:04Z</time>
      </trkpt>
      <trkpt lat="42.97666" lon="0.48864">
        <ele>1291.39</ele>
        <time>2015-06-09T06:50:14Z</time>
      </trkpt>
      <trkpt lat="42.97674" lon="0.48873">
        <ele>1293.84</ele>
        <time>2015-06-09T06:50:24Z</time>
      </trkpt>
      <trkpt lat="42.97682" lon="0.48879">
        <ele>1295.98</ele>
        <time>2015-06-09T06:50:33Z</time>
      </trkpt>
      <trkpt lat="42.97686" lon="0.4889">
        <ele>1291.97</ele>
        <time>2015-06-09T06:50:43Z</time>
      </trkpt>
      <trkpt lat="42.97692" lon="0.48899">
        <ele>1288.26</ele>
        <time>2015-06-09T06:50:53Z</time>
      </trkpt>
      <trkpt lat="42.977" lon="0.48905">
        <ele>1289.57</ele>
        <time>2015-06-09T06:51:03Z</time>
      </trkpt>
      <trkpt lat="42.97706" lon="0.48914">
        <ele>1290.18</ele>
        <time>2015-06-09T06:51:17Z</time>
      </trkpt>
      <trkpt lat="42.97715" lon="0.4891">
        <ele>1298.27</ele>
        <time>2015-06-09T06:51:41Z</time>
      </trkpt>
      <trkpt lat="42.97725" lon="0.48915">
        <ele>1299.2</ele>
        <time>2015-06-09T06:51:46Z</time>
      </trkpt>
      <trkpt lat="42.97734" lon="0.48919">
        <ele>1299.89</ele>
        <time>2015-06-09T06:51:51Z</time>
      </trkpt>
      <trkpt lat="42.97743" lon="0.48922">
        <ele>1304.54</ele>
        <time>2015-06-09T06:51:56Z</time>
      </trkpt>
      <trkpt lat="42.97752" lon="0.48926">
        <ele>1304.7</ele>
        <time>2015-06-09T06:52:03Z</time>
      </trkpt>
      <trkpt lat="42.97762" lon="0.48927">
        <ele>1300.9</ele>
        <time>2015-06-09T06:52:10Z</time>
      </trkpt>
      <trkpt lat="42.97772" lon="0.48925">
        <ele>1301.95</ele>
        <time>2015-06-09T06:52:16Z</time>
      </trkpt>
      <trkpt lat="42.97782" lon="0.48926">
        <ele>1305.41</ele>
        <time>2015-06-09T06:52:23Z</time>
      </trkpt>
      <trkpt lat="42.97792" lon="0.48924">
        <ele>1299.58</ele>
        <time>2015-06-09T06:52:31Z</time>
      </trkpt>
      <trkpt lat="42.97801" lon="0.48926">
        <ele>1305.54</ele>
        <time>2015-06-09T06:52:38Z</time>
      </trkpt>
      <trkpt lat="42.9781" lon="0.48924">
        <ele>1308.21</ele>
        <time>2015-06-09T06:52:45Z</time>
      </trkpt>
      <trkpt lat="42.97819" lon="0.48925">
        <ele>1306.22</ele>
        <time>2015-06-09T06:52:55Z</time>
      </trkpt>
      <trkpt lat="42.97828" lon="0.48928">
        <ele>1309.67</ele>
        <time>2015-06-09T06:53:01Z</time>
      </trkpt>
      <trkpt lat="42.97837" lon="0.48928">
        <ele>1309.65</ele>
        <time>2015-06-09T06:53:09Z</time>
      </trkpt>
      <trkpt lat="42.97847" lon="0.48928">
        <ele>1309.07</ele>
        <time>2015-06-09T06:53:17Z</time>
      </trkpt>
      <trkpt lat="42.97855" lon="0.48934">
        <ele>1307.51</ele>
        <time>2015-06-09T06:53:27Z</time>
      </trkpt>
      <trkpt lat="42.97864" lon="0.4894">
        <ele>1305.77</ele>
        <time>2015-06-09T06:53:37Z</time>
      </trkpt>
      <trkpt lat="42.97872" lon="0.48944">
        <ele>1304.06</ele>
        <time>2015-06-09T06:53:46Z</time>
      </trkpt>
      <trkpt lat="42.97878" lon="0.48953">
        <ele>1300.72</ele>
        <time>2015-06-09T06:54:00Z</time>
      </trkpt>
      <trkpt lat="42.97879" lon="0.48966">
        <ele>1301.67</ele>
        <time>2015-06-09T06:54:13Z</time>
      </trkpt>
      <trkpt lat="42.97874" lon="0.48977">
        <ele>1303.77</ele>
        <time>2015-06-09T06:54:43Z</time>
      </trkpt>
      <trkpt lat="42.97865" lon="0.48984">
        <ele>1301.13</ele>
        <time>2015-06-09T06:54:49Z</time>
      </trkpt>
      <trkpt lat="42.97858" lon="0.48991">
        <ele>1300.23</ele>
        <time>2015-06-09T06:54:54Z</time>
      </trkpt>
      <trkpt lat="42.97856" lon="0.49004">
        <ele>1298.84</ele>
        <time>2015-06-09T06:55:02Z</time>
      </trkpt>
      <trkpt lat="42.9785" lon="0.49012">
        <ele>1303</ele>
        <time>2015-06-09T06:55:09Z</time>
      </trkpt>
      <trkpt lat="42.97843" lon="0.49021">
        <ele>1303.54</ele>
        <time>2015-06-09T06:55:17Z</time>
      </trkpt>
      <trkpt lat="42.97835" lon="0.49029">
        <ele>1300.15</ele>
        <time>2015-06-09T06:55:25Z</time>
      </trkpt>
      <trkpt lat="42.97831" lon="0.49041">
        <ele>1303.72</ele>
        <time>2015-06-09T06:55:32Z</time>
      </trkpt>
      <trkpt lat="42.97829" lon="0.49053">
        <ele>1303.9</ele>
        <time>2015-06-09T06:55:42Z</time>
      </trkpt>
      <trkpt lat="42.97824" lon="0.49065">
        <ele>1300.71</ele>
        <time>2015-06-09T06:55:50Z</time>
      </trkpt>
      <trkpt lat="42.97821" lon="0.49078">
        <ele>1299.82</ele>
        <time>2015-06-09T06:55:58Z</time>
      </trkpt>
      <trkpt lat="42.9782" lon="0.4909">
        <ele>1300.69</ele>
        <time>2015-06-09T06:56:05Z</time>
      </trkpt>
      <trkpt lat="42.97816" lon="0.49103">
        <ele>1298.71</ele>
        <time>2015-06-09T06:56:14Z</time>
      </trkpt>
      <trkpt lat="42.97813" lon="0.49116">
        <ele>1290.02</ele>
        <time>2015-06-09T06:56:52Z</time>
      </trkpt>
      <trkpt lat="42.97807" lon="0.49126">
        <ele>1291.12</ele>
        <time>2015-06-09T06:57:03Z</time>
      </trkpt>
      <trkpt lat="42.97803" lon="0.49139">
        <ele>1294.57</ele>
        <time>2015-06-09T06:57:13Z</time>
      </trkpt>
      <trkpt lat="42.97802" lon="0.49153">
        <ele>1294.87</ele>
        <time>2015-06-09T06:57:21Z</time>
      </trkpt>
      <trkpt lat="42.97798" lon="0.49165">
        <ele>1298.96</ele>
        <time>2015-06-09T06:57:30Z</time>
      </trkpt>
      <trkpt lat="42.97795" lon="0.49178">
        <ele>1290.86</ele>
        <time>2015-06-09T06:57:41Z</time>
      </trkpt>
      <trkpt lat="42.97794" lon="0.49192">
        <ele>1296.15</ele>
        <time>2015-06-09T06:57:50Z</time>
      </trkpt>
      <trkpt lat="42.97792" lon="0.49206">
        <ele>1302.16</ele>
        <time>2015-06-09T06:57:57Z</time>
      </trkpt>
      <trkpt lat="42.97795" lon="0.49219">
        <ele>1307.23</ele>
        <time>2015-06-09T06:58:05Z</time>
      </trkpt>
      <trkpt lat="42.97796" lon="0.49232">
        <ele>1306.88</ele>
        <time>2015-06-09T06:58:16Z</time>
      </trkpt>
      <trkpt lat="42.97801" lon="0.49243">
        <ele>1309.77</ele>
        <time>2015-06-09T06:58:50Z</time>
      </trkpt>
      <trkpt lat="42.97803" lon="0.49257">
        <ele>1307.92</ele>
        <time>2015-06-09T06:58:59Z</time>
      </trkpt>
      <trkpt lat="42.97804" lon="0.49269">
        <ele>1308.77</ele>
        <time>2015-06-09T06:59:09Z</time>
      </trkpt>
      <trkpt lat="42.97804" lon="0.49283">
        <ele>1308.49</ele>
        <time>2015-06-09T06:59:28Z</time>
      </trkpt>
      <trkpt lat="42.97799" lon="0.49294">
        <ele>1304.93</ele>
        <time>2015-06-09T06:59:34Z</time>
      </trkpt>
      <trkpt lat="42.97797" lon="0.49307">
        <ele>1301.54</ele>
        <time>2015-06-09T06:59:40Z</time>
      </trkpt>
      <trkpt lat="42.97798" lon="0.49321">
        <ele>1302.09</ele>
        <time>2015-06-09T06:59:47Z</time>
      </trkpt>
      <trkpt lat="42.97795" lon="0.49332">
        <ele>1303.47</ele>
        <time>2015-06-09T06:59:55Z</time>
      </trkpt>
      <trkpt lat="42.97795" lon="0.49345">
        <ele>1303.1</ele>
        <time>2015-06-09T07:00:04Z</time>
      </trkpt>
      <trkpt lat="42.97797" lon="0.49358">
        <ele>1302.3</ele>
        <time>2015-06-09T07:00:16Z</time>
      </trkpt>
      <trkpt lat="42.97799" lon="0.4937">
        <ele>1309.89</ele>
        <time>2015-06-09T07:00:47Z</time>
      </trkpt>
      <trkpt lat="42.97798" lon="0.49382">
        <ele>1314.49</ele>
        <time>2015-06-09T07:00:55Z</time>
      </trkpt>
      <trkpt lat="42.97796" lon="0.49394">
        <ele>1316.3</ele>
        <time>2015-06-09T07:01:01Z</time>
      </trkpt>
      <trkpt lat="42.97794" lon="0.49407">
        <ele>1318.73</ele>
        <time>2015-06-09T07:01:09Z</time>
      </trkpt>
      <trkpt lat="42.97792" lon="0.49421">
        <ele>1315.87</ele>
        <time>2015-06-09T07:01:15Z</time>
      </trkpt>
      <trkpt lat="42.97791" lon="0.49433">
        <ele>1323.33</ele>
        <time>2015-06-09T07:01:23Z</time>
      </trkpt>
      <trkpt lat="42.97791" lon="0.49447">
        <ele>1323.82</ele>
        <time>2015-06-09T07:01:32Z</time>
      </trkpt>
      <trkpt lat="42.97791" lon="0.49459">
        <ele>1318.37</ele>
        <time>2015-06-09T07:01:44Z</time>
      </trkpt>
      <trkpt lat="42.97791" lon="0.49472">
        <ele>1323.02</ele>
        <time>2015-06-09T07:01:55Z</time>
      </trkpt>
      <trkpt lat="42.97788" lon="0.49483">
        <ele>1324.75</ele>
        <time>2015-06-09T07:02:10Z</time>
      </trkpt>
      <trkpt lat="42.97781" lon="0.49493">
        <ele>1319.04</ele>
        <time>2015-06-09T07:02:25Z</time>
      </trkpt>
      <trkpt lat="42.97777" lon="0.49504">
        <ele>1316.18</ele>
        <time>2015-06-09T07:02:34Z</time>
      </trkpt>
      <trkpt lat="42.97767" lon="0.49507">
        <ele>1308.61</ele>
        <time>2015-06-09T07:02:42Z</time>
      </trkpt>
      <trkpt lat="42.97758" lon="0.49512">
        <ele>1311.71</ele>
        <time>2015-06-09T07:02:52Z</time>
      </trkpt>
      <trkpt lat="42.97748" lon="0.49515">
        <ele>1309.82</ele>
        <time>2015-06-09T07:03:01Z</time>
      </trkpt>
      <trkpt lat="42.97739" lon="0.49518">
        <ele>1308.75</ele>
        <time>2015-06-09T07:03:10Z</time>
      </trkpt>
      <trkpt lat="42.9773" lon="0.49522">
        <ele>1312.71</ele>
        <time>2015-06-09T07:03:20Z</time>
      </trkpt>
      <trkpt lat="42.97721" lon="0.49524">
        <ele>1312.6</ele>
        <time>2015-06-09T07:03:28Z</time>
      </trkpt>
      <trkpt lat="42.97712" lon="0.49524">
        <ele>1313.26</ele>
        <time>2015-06-09T07:03:42Z</time>
      </trkpt>
      <trkpt lat="42.97702" lon="0.49525">
        <ele>1319.26</ele>
        <time>2015-06-09T07:03:52Z</time>
      </trkpt>
      <trkpt lat="42.97693" lon="0.4953">
        <ele>1322.63</ele>
        <time>2015-06-09T07:03:58Z</time>
      </trkpt>
      <trkpt lat="42.97685" lon="0.49534">
        <ele>1322.84</ele>
        <time>2015-06-09T07:04:08Z</time>
      </trkpt>
      <trkpt lat="42.97676" lon="0.49529">
        <ele>1323.99</ele>
        <time>2015-06-09T07:04:17Z</time>
      </trkpt>
      <trkpt lat="42.97667" lon="0.49531">
        <ele>1330.76</ele>
        <time>2015-06-09T07:04:29Z</time>
      </trkpt>
      <trkpt lat="42.97657" lon="0.49531">
        <ele>1330.52</ele>
        <time>2015-06-09T07:04:38Z</time>
      </trkpt>
      <trkpt lat="42.97648" lon="0.49526">
        <ele>1330.07</ele>
        <time>2015-06-09T07:04:45Z</time>
      </trkpt>
      <trkpt lat="42.97638" lon="0.49523">
        <ele>1330.27</ele>
        <time>2015-06-09T07:05:05Z</time>
      </trkpt>
      <trkpt lat="42.97627" lon="0.49521">
        <ele>1329.24</ele>
        <time>2015-06-09T07:05:10Z</time>
      </trkpt>
      <trkpt lat="42.97619" lon="0.49517">
        <ele>1331.97</ele>
        <time>2015-06-09T07:05:20Z</time>
      </trkpt>
      <trkpt lat="42.9761" lon="0.49523">
        <ele>1327.14</ele>
        <time>2015-06-09T07:05:26Z</time>
      </trkpt>
      <trkpt lat="42.97601" lon="0.49525">
        <ele>1315.79</ele>
        <time>2015-06-09T07:05:40Z</time>
      </trkpt>
      <trkpt lat="42.97591" lon="0.49527">
        <ele>1327.71</ele>
        <time>2015-06-09T07:06:07Z</time>
      </trkpt>
      <trkpt lat="42.97582" lon="0.49526">
        <ele>1326.25</ele>
        <time>2015-06-09T07:06:14Z</time>
      </trkpt>
      <trkpt lat="42.97571" lon="0.49529">
        <ele>1331.73</ele>
        <time>2015-06-09T07:06:23Z</time>
      </trkpt>
      <trkpt lat="42.97562" lon="0.49531">
        <ele>1331.55</ele>
        <time>2015-06-09T07:06:27Z</time>
      </trkpt>
      <trkpt lat="42.97552" lon="0.49532">
        <ele>1332.72</ele>
        <time>2015-06-09T07:06:34Z</time>
      </trkpt>
      <trkpt lat="42.97543" lon="0.49533">
        <ele>1331.52</ele>
        <time>2015-06-09T07:06:44Z</time>
      </trkpt>
      <trkpt lat="42.97533" lon="0.4953">
        <ele>1325.58</ele>
        <time>2015-06-09T07:06:52Z</time>
      </trkpt>
      <trkpt lat="42.97524" lon="0.49532">
        <ele>1324.49</ele>
        <time>2015-06-09T07:07:02Z</time>
      </trkpt>
      <trkpt lat="42.97514" lon="0.4953">
        <ele>1325.56</ele>
        <time>2015-06-09T07:07:11Z</time>
      </trkpt>
      <trkpt lat="42.97504" lon="0.49534">
        <ele>1329.03</ele>
        <time>2015-06-09T07:07:19Z</time>
      </trkpt>
      <trkpt lat="42.97495" lon="0.49538">
        <ele>1329.29</ele>
        <time>2015-06-09T07:07:26Z</time>
      </trkpt>
      <trkpt lat="42.97488" lon="0.49546">
        <ele>1327.06</ele>
        <time>2015-06-09T07:07:35Z</time>
      </trkpt>
      <trkpt lat="42.97479" lon="0.49547">
        <ele>1333.01</ele>
        <time>2015-06-09T07:07:47Z</time>
      </trkpt>
      <trkpt lat="42.97469" lon="0.49549">
        <ele>1324.2</ele>
        <time>2015-06-09T07:08:04Z</time>
      </trkpt>
      <trkpt lat="42.97459" lon="0.49553">
        <ele>1325.02</ele>
        <time>2015-06-09T07:08:33Z</time>
      </trkpt>
      <trkpt lat="42.9745" lon="0.49556">
        <ele>1321.25</ele>
        <time>2015-06-09T07:08:37Z</time>
      </trkpt>
      <trkpt lat="42.97441" lon="0.49559">
        <ele>1323.55</ele>
        <time>2015-06-09T07:08:42Z</time>
      </trkpt>
      <trkpt lat="42.97434" lon="0.49568">
        <ele>1320.86</ele>
        <time>2015-06-09T07:08:49Z</time>
      </trkpt>
      <trkpt lat="42.97426" lon="0.49576">
        <ele>1324.24</ele>
        <time>2015-06-09T07:08:56Z</time>
      </trkpt>
      <trkpt lat="42.97419" lon="0.49585">
        <ele>1334.54</ele>
        <time>2015-06-09T07:09:03Z</time>
      </trkpt>
      <trkpt lat="42.97414" lon="0.49597">
        <ele>1334.25</ele>
        <time>2015-06-09T07:09:10Z</time>
      </trkpt>
      <trkpt lat="42.97407" lon="0.49605">
        <ele>1334.91</ele>
        <time>2015-06-09T07:09:16Z</time>
      </trkpt>
      <trkpt lat="42.974" lon="0.49614">
        <ele>1334.02</ele>
        <time>2015-06-09T07:09:24Z</time>
      </trkpt>
      <trkpt lat="42.97393" lon="0.49623">
        <ele>1335.24</ele>
        <time>2015-06-09T07:09:40Z</time>
      </trkpt>
      <trkpt lat="42.97388" lon="0.49634">
        <ele>1339.37</ele>
        <time>2015-06-09T07:09:56Z</time>
      </trkpt>
      <trkpt lat="42.97382" lon="0.49644">
        <ele>1344.35</ele>
        <time>2015-06-09T07:10:03Z</time>
      </trkpt>
      <trkpt lat="42.97374" lon="0.49651">
        <ele>1341.91</ele>
        <time>2015-06-09T07:10:10Z</time>
      </trkpt>
      <trkpt lat="42.97366" lon="0.49659">
        <ele>1338.25</ele>
        <time>2015-06-09T07:10:18Z</time>
      </trkpt>
      <trkpt lat="42.9736" lon="0.49669">
        <ele>1341.14</ele>
        <time>2015-06-09T07:10:46Z</time>
      </trkpt>
      <trkpt lat="42.97353" lon="0.49677">
        <ele>1338.51</ele>
        <time>2015-06-09T07:10:51Z</time>
      </trkpt>
      <trkpt lat="42.97348" lon="0.49687">
        <ele>1341.09</ele>
        <time>2015-06-09T07:10:56Z</time>
      </trkpt>
      <trkpt lat="42.97343" lon="0.49698">
        <ele>1338.42</ele>
        <time>2015-06-09T07:11:01Z</time>
      </trkpt>
      <trkpt lat="42.97339" lon="0.4971">
        <ele>1340.02</ele>
        <time>2015-06-09T07:11:08Z</time>
      </trkpt>
      <trkpt lat="42.97334" lon="0.49721">
        <ele>1338.44</ele>
        <time>2015-06-09T07:11:16Z</time>
      </trkpt>
      <trkpt lat="42.97328" lon="0.49731">
        <ele>1341.7</ele>
        <time>2015-06-09T07:11:25Z</time>
      </trkpt>
      <trkpt lat="42.97321" lon="0.4974">
        <ele>1344.51</ele>
        <time>2015-06-09T07:11:34Z</time>
      </trkpt>
      <trkpt lat="42.97316" lon="0.49751">
        <ele>1343.51</ele>
        <time>2015-06-09T07:11:48Z</time>
      </trkpt>
      <trkpt lat="42.97308" lon="0.49759">
        <ele>1343.58</ele>
        <time>2015-06-09T07:12:05Z</time>
      </trkpt>
      <trkpt lat="42.97299" lon="0.49765">
        <ele>1341.93</ele>
        <time>2015-06-09T07:12:13Z</time>
      </trkpt>
      <trkpt lat="42.97291" lon="0.49773">
        <ele>1341.89</ele>
        <time>2015-06-09T07:12:21Z</time>
      </trkpt>
      <trkpt lat="42.97283" lon="0.4978">
        <ele>1347.43</ele>
        <time>2015-06-09T07:12:29Z</time>
      </trkpt>
      <trkpt lat="42.97279" lon="0.4979">
        <ele>1336.86</ele>
        <time>2015-06-09T07:12:38Z</time>
      </trkpt>
      <trkpt lat="42.9727" lon="0.49796">
        <ele>1341.94</ele>
        <time>2015-06-09T07:12:48Z</time>
      </trkpt>
      <trkpt lat="42.97261" lon="0.498">
        <ele>1342.57</ele>
        <time>2015-06-09T07:12:54Z</time>
      </trkpt>
      <trkpt lat="42.97253" lon="0.49807">
        <ele>1344.14</ele>
        <time>2015-06-09T07:13:02Z</time>
      </trkpt>
      <trkpt lat="42.97245" lon="0.49813">
        <ele>1339.14</ele>
        <time>2015-06-09T07:13:10Z</time>
      </trkpt>
      <trkpt lat="42.97236" lon="0.49812">
        <ele>1340.17</ele>
        <time>2015-06-09T07:14:04Z</time>
      </trkpt>
      <trkpt lat="42.97227" lon="0.49814">
        <ele>1335.98</ele>
        <time>2015-06-09T07:14:09Z</time>
      </trkpt>
      <trkpt lat="42.97219" lon="0.49808">
        <ele>1333.64</ele>
        <time>2015-06-09T07:14:22Z</time>
      </trkpt>
      <trkpt lat="42.9721" lon="0.49805">
        <ele>1335.14</ele>
        <time>2015-06-09T07:16:40Z</time>
      </trkpt>
      <trkpt lat="42.97201" lon="0.49802">
        <ele>1336.38</ele>
        <time>2015-06-09T07:16:44Z</time>
      </trkpt>
      <trkpt lat="42.97191" lon="0.49799">
        <ele>1339.31</ele>
        <time>2015-06-09T07:16:51Z</time>
      </trkpt>
      <trkpt lat="42.97182" lon="0.49798">
        <ele>1342.91</ele>
        <time>2015-06-09T07:16:58Z</time>
      </trkpt>
      <trkpt lat="42.97172" lon="0.49798">
        <ele>1354.77</ele>
        <time>2015-06-09T07:17:07Z</time>
      </trkpt>
      <trkpt lat="42.97163" lon="0.49798">
        <ele>1358.74</ele>
        <time>2015-06-09T07:17:20Z</time>
      </trkpt>
      <trkpt lat="42.97153" lon="0.498">
        <ele>1362.77</ele>
        <time>2015-06-09T07:17:58Z</time>
      </trkpt>
      <trkpt lat="42.97144" lon="0.49801">
        <ele>1360.8</ele>
        <time>2015-06-09T07:18:02Z</time>
      </trkpt>
      <trkpt lat="42.97134" lon="0.49802">
        <ele>1362.74</ele>
        <time>2015-06-09T07:18:08Z</time>
      </trkpt>
      <trkpt lat="42.97125" lon="0.49806">
        <ele>1359.77</ele>
        <time>2015-06-09T07:18:15Z</time>
      </trkpt>
      <trkpt lat="42.97115" lon="0.4981">
        <ele>1358.06</ele>
        <time>2015-06-09T07:18:23Z</time>
      </trkpt>
      <trkpt lat="42.97109" lon="0.49819">
        <ele>1367.93</ele>
        <time>2015-06-09T07:18:31Z</time>
      </trkpt>
      <trkpt lat="42.97102" lon="0.49827">
        <ele>1361.12</ele>
        <time>2015-06-09T07:18:42Z</time>
      </trkpt>
      <trkpt lat="42.97091" lon="0.49831">
        <ele>1360.14</ele>
        <time>2015-06-09T07:19:05Z</time>
      </trkpt>
      <trkpt lat="42.97082" lon="0.49834">
        <ele>1358.7</ele>
        <time>2015-06-09T07:19:10Z</time>
      </trkpt>
      <trkpt lat="42.97073" lon="0.4984">
        <ele>1363.6</ele>
        <time>2015-06-09T07:19:18Z</time>
      </trkpt>
      <trkpt lat="42.97065" lon="0.49848">
        <ele>1366.49</ele>
        <time>2015-06-09T07:19:26Z</time>
      </trkpt>
      <trkpt lat="42.97057" lon="0.49854">
        <ele>1368.82</ele>
        <time>2015-06-09T07:19:36Z</time>
      </trkpt>
      <trkpt lat="42.97048" lon="0.49861">
        <ele>1365.42</ele>
        <time>2015-06-09T07:20:09Z</time>
      </trkpt>
      <trkpt lat="42.97038" lon="0.49862">
        <ele>1361.4</ele>
        <time>2015-06-09T07:20:14Z</time>
      </trkpt>
      <trkpt lat="42.97029" lon="0.49866">
        <ele>1363.15</ele>
        <time>2015-06-09T07:20:23Z</time>
      </trkpt>
      <trkpt lat="42.9702" lon="0.49865">
        <ele>1365.39</ele>
        <time>2015-06-09T07:20:52Z</time>
      </trkpt>
      <trkpt lat="42.9701" lon="0.49865">
        <ele>1360.63</ele>
        <time>2015-06-09T07:20:58Z</time>
      </trkpt>
      <trkpt lat="42.97" lon="0.49865">
        <ele>1364.48</ele>
        <time>2015-06-09T07:21:02Z</time>
      </trkpt>
      <trkpt lat="42.96992" lon="0.4987">
        <ele>1365.35</ele>
        <time>2015-06-09T07:21:13Z</time>
      </trkpt>
      <trkpt lat="42.96983" lon="0.49866">
        <ele>1370.17</ele>
        <time>2015-06-09T07:21:27Z</time>
      </trkpt>
      <trkpt lat="42.96976" lon="0.49857">
        <ele>1369.46</ele>
        <time>2015-06-09T07:21:35Z</time>
      </trkpt>
      <trkpt lat="42.96971" lon="0.49846">
        <ele>1371.19</ele>
        <time>2015-06-09T07:21:47Z</time>
      </trkpt>
      <trkpt lat="42.96968" lon="0.49833">
        <ele>1375.67</ele>
        <time>2015-06-09T07:22:05Z</time>
      </trkpt>
      <trkpt lat="42.96967" lon="0.49821">
        <ele>1378.79</ele>
        <time>2015-06-09T07:22:16Z</time>
      </trkpt>
      <trkpt lat="42.96966" lon="0.49808">
        <ele>1379.14</ele>
        <time>2015-06-09T07:22:28Z</time>
      </trkpt>
      <trkpt lat="42.96966" lon="0.49794">
        <ele>1384.3</ele>
        <time>2015-06-09T07:22:39Z</time>
      </trkpt>
      <trkpt lat="42.96954" lon="0.49763">
        <ele>1376.32</ele>
        <time>2015-06-09T07:23:20Z</time>
      </trkpt>
      <trkpt lat="42.96955" lon="0.4975">
        <ele>1384.02</ele>
        <time>2015-06-09T07:23:30Z</time>
      </trkpt>
      <trkpt lat="42.96955" lon="0.49738">
        <ele>1388.89</ele>
        <time>2015-06-09T07:23:37Z</time>
      </trkpt>
      <trkpt lat="42.96953" lon="0.49725">
        <ele>1387.92</ele>
        <time>2015-06-09T07:23:46Z</time>
      </trkpt>
      <trkpt lat="42.96951" lon="0.49713">
        <ele>1392.28</ele>
        <time>2015-06-09T07:23:57Z</time>
      </trkpt>
      <trkpt lat="42.96953" lon="0.49701">
        <ele>1396.65</ele>
        <time>2015-06-09T07:24:10Z</time>
      </trkpt>
      <trkpt lat="42.96951" lon="0.49688">
        <ele>1394.35</ele>
        <time>2015-06-09T07:24:46Z</time>
      </trkpt>
      <trkpt lat="42.96949" lon="0.49675">
        <ele>1399.11</ele>
        <time>2015-06-09T07:24:54Z</time>
      </trkpt>
      <trkpt lat="42.96946" lon="0.49662">
        <ele>1401.73</ele>
        <time>2015-06-09T07:25:06Z</time>
      </trkpt>
      <trkpt lat="42.96944" lon="0.4965">
        <ele>1407.9</ele>
        <time>2015-06-09T07:25:20Z</time>
      </trkpt>
      <trkpt lat="42.9694" lon="0.49638">
        <ele>1411.42</ele>
        <time>2015-06-09T07:25:33Z</time>
      </trkpt>
      <trkpt lat="42.96931" lon="0.49633">
        <ele>1409.92</ele>
        <time>2015-06-09T07:26:04Z</time>
      </trkpt>
      <trkpt lat="42.96923" lon="0.49626">
        <ele>1408.87</ele>
        <time>2015-06-09T07:26:14Z</time>
      </trkpt>
      <trkpt lat="42.96914" lon="0.49624">
        <ele>1406.05</ele>
        <time>2015-06-09T07:27:13Z</time>
      </trkpt>
      <trkpt lat="42.96917" lon="0.49636">
        <ele>1401.63</ele>
        <time>2015-06-09T07:32:37Z</time>
      </trkpt>
      <trkpt lat="42.96921" lon="0.49647">
        <ele>1398.75</ele>
        <time>2015-06-09T07:32:54Z</time>
      </trkpt>
      <trkpt lat="42.96923" lon="0.4966">
        <ele>1400.27</ele>
        <time>2015-06-09T07:33:04Z</time>
      </trkpt>
      <trkpt lat="42.96931" lon="0.49668">
        <ele>1396.79</ele>
        <time>2015-06-09T07:33:16Z</time>
      </trkpt>
      <trkpt lat="42.96938" lon="0.49677">
        <ele>1398.65</ele>
        <time>2015-06-09T07:33:33Z</time>
      </trkpt>
      <trkpt lat="42.96942" lon="0.49689">
        <ele>1398.47</ele>
        <time>2015-06-09T07:34:44Z</time>
      </trkpt>
      <trkpt lat="42.96943" lon="0.49701">
        <ele>1394.53</ele>
        <time>2015-06-09T07:34:52Z</time>
      </trkpt>
      <trkpt lat="42.96946" lon="0.49713">
        <ele>1387.86</ele>
        <time>2015-06-09T07:35:06Z</time>
      </trkpt>
      <trkpt lat="42.96947" lon="0.49726">
        <ele>1383.51</ele>
        <time>2015-06-09T07:35:14Z</time>
      </trkpt>
      <trkpt lat="42.96949" lon="0.49739">
        <ele>1377.87</ele>
        <time>2015-06-09T07:35:24Z</time>
      </trkpt>
      <trkpt lat="42.96953" lon="0.4975">
        <ele>1374.19</ele>
        <time>2015-06-09T07:35:33Z</time>
      </trkpt>
      <trkpt lat="42.96957" lon="0.49761">
        <ele>1367.63</ele>
        <time>2015-06-09T07:35:45Z</time>
      </trkpt>
      <trkpt lat="42.96958" lon="0.49774">
        <ele>1368.1</ele>
        <time>2015-06-09T07:36:03Z</time>
      </trkpt>
      <trkpt lat="42.96959" lon="0.49787">
        <ele>1366.09</ele>
        <time>2015-06-09T07:36:15Z</time>
      </trkpt>
      <trkpt lat="42.96959" lon="0.49799">
        <ele>1365.18</ele>
        <time>2015-06-09T07:36:26Z</time>
      </trkpt>
      <trkpt lat="42.9696" lon="0.49812">
        <ele>1356.56</ele>
        <time>2015-06-09T07:36:37Z</time>
      </trkpt>
      <trkpt lat="42.96965" lon="0.49823">
        <ele>1353.21</ele>
        <time>2015-06-09T07:36:49Z</time>
      </trkpt>
      <trkpt lat="42.96965" lon="0.49836">
        <ele>1353.39</ele>
        <time>2015-06-09T07:37:00Z</time>
      </trkpt>
      <trkpt lat="42.96964" lon="0.49848">
        <ele>1349.34</ele>
        <time>2015-06-09T07:37:10Z</time>
      </trkpt>
      <trkpt lat="42.96966" lon="0.4986">
        <ele>1350.36</ele>
        <time>2015-06-09T07:37:20Z</time>
      </trkpt>
      <trkpt lat="42.96975" lon="0.49863">
        <ele>1350.93</ele>
        <time>2015-06-09T07:37:28Z</time>
      </trkpt>
      <trkpt lat="42.9698" lon="0.49875">
        <ele>1353.12</ele>
        <time>2015-06-09T07:37:37Z</time>
      </trkpt>
      <trkpt lat="42.96989" lon="0.49882">
        <ele>1358.49</ele>
        <time>2015-06-09T07:37:56Z</time>
      </trkpt>
      <trkpt lat="42.96998" lon="0.49884">
        <ele>1355.14</ele>
        <time>2015-06-09T07:38:04Z</time>
      </trkpt>
      <trkpt lat="42.97007" lon="0.49886">
        <ele>1356.51</ele>
        <time>2015-06-09T07:38:11Z</time>
      </trkpt>
      <trkpt lat="42.97017" lon="0.49886">
        <ele>1359.22</ele>
        <time>2015-06-09T07:38:19Z</time>
      </trkpt>
      <trkpt lat="42.97025" lon="0.4988">
        <ele>1361.03</ele>
        <time>2015-06-09T07:38:31Z</time>
      </trkpt>
      <trkpt lat="42.9702" lon="0.49891">
        <ele>1352.75</ele>
        <time>2015-06-09T07:40:23Z</time>
      </trkpt>
      <trkpt lat="42.97024" lon="0.49903">
        <ele>1349.27</ele>
        <time>2015-06-09T07:41:07Z</time>
      </trkpt>
      <trkpt lat="42.97029" lon="0.49915">
        <ele>1341.33</ele>
        <time>2015-06-09T07:41:17Z</time>
      </trkpt>
      <trkpt lat="42.97032" lon="0.49927">
        <ele>1347.63</ele>
        <time>2015-06-09T07:41:29Z</time>
      </trkpt>
      <trkpt lat="42.97028" lon="0.49939">
        <ele>1344.85</ele>
        <time>2015-06-09T07:42:29Z</time>
      </trkpt>
      <trkpt lat="42.9702" lon="0.49944">
        <ele>1343.31</ele>
        <time>2015-06-09T07:42:35Z</time>
      </trkpt>
      <trkpt lat="42.97011" lon="0.49949">
        <ele>1340.13</ele>
        <time>2015-06-09T07:42:43Z</time>
      </trkpt>
      <trkpt lat="42.97002" lon="0.49953">
        <ele>1339.25</ele>
        <time>2015-06-09T07:42:51Z</time>
      </trkpt>
      <trkpt lat="42.96994" lon="0.4996">
        <ele>1335.19</ele>
        <time>2015-06-09T07:43:05Z</time>
      </trkpt>
      <trkpt lat="42.96986" lon="0.49967">
        <ele>1330.98</ele>
        <time>2015-06-09T07:43:17Z</time>
      </trkpt>
      <trkpt lat="42.96978" lon="0.49972">
        <ele>1332.9</ele>
        <time>2015-06-09T07:43:26Z</time>
      </trkpt>
      <trkpt lat="42.96968" lon="0.49973">
        <ele>1329.59</ele>
        <time>2015-06-09T07:43:39Z</time>
      </trkpt>
      <trkpt lat="42.96959" lon="0.49974">
        <ele>1330.74</ele>
        <time>2015-06-09T07:43:52Z</time>
      </trkpt>
      <trkpt lat="42.96951" lon="0.49967">
        <ele>1328.29</ele>
        <time>2015-06-09T07:44:08Z</time>
      </trkpt>
      <trkpt lat="42.96945" lon="0.49959">
        <ele>1329.86</ele>
        <time>2015-06-09T07:44:20Z</time>
      </trkpt>
      <trkpt lat="42.96937" lon="0.4995">
        <ele>1330.52</ele>
        <time>2015-06-09T07:44:30Z</time>
      </trkpt>
      <trkpt lat="42.9693" lon="0.49942">
        <ele>1332.29</ele>
        <time>2015-06-09T07:44:42Z</time>
      </trkpt>
      <trkpt lat="42.96921" lon="0.49935">
        <ele>1330.56</ele>
        <time>2015-06-09T07:44:53Z</time>
      </trkpt>
      <trkpt lat="42.96915" lon="0.49926">
        <ele>1327.3</ele>
        <time>2015-06-09T07:45:08Z</time>
      </trkpt>
      <trkpt lat="42.96907" lon="0.49917">
        <ele>1323.02</ele>
        <time>2015-06-09T07:45:19Z</time>
      </trkpt>
      <trkpt lat="42.969" lon="0.4991">
        <ele>1321.77</ele>
        <time>2015-06-09T07:45:43Z</time>
      </trkpt>
      <trkpt lat="42.96892" lon="0.49916">
        <ele>1326.04</ele>
        <time>2015-06-09T07:45:51Z</time>
      </trkpt>
      <trkpt lat="42.96883" lon="0.49922">
        <ele>1330.07</ele>
        <time>2015-06-09T07:46:14Z</time>
      </trkpt>
      <trkpt lat="42.96875" lon="0.49927">
        <ele>1338.17</ele>
        <time>2015-06-09T07:46:23Z</time>
      </trkpt>
      <trkpt lat="42.96867" lon="0.49934">
        <ele>1339.98</ele>
        <time>2015-06-09T07:46:33Z</time>
      </trkpt>
      <trkpt lat="42.96857" lon="0.49935">
        <ele>1335.91</ele>
        <time>2015-06-09T07:46:43Z</time>
      </trkpt>
      <trkpt lat="42.96851" lon="0.49944">
        <ele>1341.31</ele>
        <time>2015-06-09T07:46:55Z</time>
      </trkpt>
      <trkpt lat="42.96842" lon="0.4995">
        <ele>1341.96</ele>
        <time>2015-06-09T07:47:07Z</time>
      </trkpt>
      <trkpt lat="42.96837" lon="0.49961">
        <ele>1343.39</ele>
        <time>2015-06-09T07:47:44Z</time>
      </trkpt>
      <trkpt lat="42.9683" lon="0.4997">
        <ele>1345.96</ele>
        <time>2015-06-09T07:47:50Z</time>
      </trkpt>
      <trkpt lat="42.96823" lon="0.49981">
        <ele>1343.73</ele>
        <time>2015-06-09T07:47:56Z</time>
      </trkpt>
      <trkpt lat="42.96819" lon="0.49992">
        <ele>1346.79</ele>
        <time>2015-06-09T07:48:02Z</time>
      </trkpt>
      <trkpt lat="42.96814" lon="0.50002">
        <ele>1346.27</ele>
        <time>2015-06-09T07:48:28Z</time>
      </trkpt>
      <trkpt lat="42.96805" lon="0.50008">
        <ele>1345.89</ele>
        <time>2015-06-09T07:48:35Z</time>
      </trkpt>
      <trkpt lat="42.968" lon="0.50019">
        <ele>1342.54</ele>
        <time>2015-06-09T07:48:40Z</time>
      </trkpt>
      <trkpt lat="42.96792" lon="0.50026">
        <ele>1339.49</ele>
        <time>2015-06-09T07:48:46Z</time>
      </trkpt>
      <trkpt lat="42.96786" lon="0.50035">
        <ele>1333.59</ele>
        <time>2015-06-09T07:49:13Z</time>
      </trkpt>
      <trkpt lat="42.96778" lon="0.50044">
        <ele>1343.81</ele>
        <time>2015-06-09T07:49:30Z</time>
      </trkpt>
      <trkpt lat="42.96775" lon="0.50056">
        <ele>1349.92</ele>
        <time>2015-06-09T07:50:02Z</time>
      </trkpt>
      <trkpt lat="42.96773" lon="0.50068">
        <ele>1353.23</ele>
        <time>2015-06-09T07:50:15Z</time>
      </trkpt>
      <trkpt lat="42.96769" lon="0.50079">
        <ele>1356.93</ele>
        <time>2015-06-09T07:50:25Z</time>
      </trkpt>
      <trkpt lat="42.96765" lon="0.50091">
        <ele>1361.05</ele>
        <time>2015-06-09T07:50:37Z</time>
      </trkpt>
      <trkpt lat="42.96765" lon="0.50104">
        <ele>1357.86</ele>
        <time>2015-06-09T07:50:51Z</time>
      </trkpt>
      <trkpt lat="42.96758" lon="0.50115">
        <ele>1356.52</ele>
        <time>2015-06-09T07:51:23Z</time>
      </trkpt>
      <trkpt lat="42.96753" lon="0.50126">
        <ele>1358.71</ele>
        <time>2015-06-09T07:51:43Z</time>
      </trkpt>
      <trkpt lat="42.96748" lon="0.50136">
        <ele>1363.04</ele>
        <time>2015-06-09T07:51:50Z</time>
      </trkpt>
      <trkpt lat="42.96746" lon="0.50149">
        <ele>1368.98</ele>
        <time>2015-06-09T07:51:58Z</time>
      </trkpt>
      <trkpt lat="42.96744" lon="0.50163">
        <ele>1375.49</ele>
        <time>2015-06-09T07:52:05Z</time>
      </trkpt>
      <trkpt lat="42.96743" lon="0.50176">
        <ele>1386.14</ele>
        <time>2015-06-09T07:52:12Z</time>
      </trkpt>
      <trkpt lat="42.96739" lon="0.50188">
        <ele>1386.1</ele>
        <time>2015-06-09T07:52:21Z</time>
      </trkpt>
      <trkpt lat="42.96735" lon="0.50199">
        <ele>1386.85</ele>
        <time>2015-06-09T07:52:36Z</time>
      </trkpt>
      <trkpt lat="42.96733" lon="0.50212">
        <ele>1381.62</ele>
        <time>2015-06-09T07:52:48Z</time>
      </trkpt>
      <trkpt lat="42.9673" lon="0.50224">
        <ele>1376.46</ele>
        <time>2015-06-09T07:52:58Z</time>
      </trkpt>
      <trkpt lat="42.96727" lon="0.50236">
        <ele>1372.19</ele>
        <time>2015-06-09T07:53:07Z</time>
      </trkpt>
      <trkpt lat="42.96726" lon="0.50248">
        <ele>1372.68</ele>
        <time>2015-06-09T07:53:40Z</time>
      </trkpt>
      <trkpt lat="42.96726" lon="0.50262">
        <ele>1371.43</ele>
        <time>2015-06-09T07:53:46Z</time>
      </trkpt>
      <trkpt lat="42.96726" lon="0.50275">
        <ele>1372.02</ele>
        <time>2015-06-09T07:54:18Z</time>
      </trkpt>
      <trkpt lat="42.9673" lon="0.50286">
        <ele>1376.68</ele>
        <time>2015-06-09T07:54:24Z</time>
      </trkpt>
      <trkpt lat="42.96729" lon="0.50299">
        <ele>1378.59</ele>
        <time>2015-06-09T07:54:32Z</time>
      </trkpt>
      <trkpt lat="42.96726" lon="0.50311">
        <ele>1379.02</ele>
        <time>2015-06-09T07:54:58Z</time>
      </trkpt>
      <trkpt lat="42.96724" lon="0.50324">
        <ele>1379.77</ele>
        <time>2015-06-09T07:55:22Z</time>
      </trkpt>
      <trkpt lat="42.96722" lon="0.50337">
        <ele>1375.09</ele>
        <time>2015-06-09T07:55:30Z</time>
      </trkpt>
      <trkpt lat="42.96721" lon="0.50349">
        <ele>1374.11</ele>
        <time>2015-06-09T07:55:36Z</time>
      </trkpt>
      <trkpt lat="42.9672" lon="0.50361">
        <ele>1376.71</ele>
        <time>2015-06-09T07:55:43Z</time>
      </trkpt>
      <trkpt lat="42.96721" lon="0.50374">
        <ele>1381.07</ele>
        <time>2015-06-09T07:55:54Z</time>
      </trkpt>
      <trkpt lat="42.96721" lon="0.50387">
        <ele>1380.12</ele>
        <time>2015-06-09T07:56:03Z</time>
      </trkpt>
      <trkpt lat="42.96719" lon="0.504">
        <ele>1372.88</ele>
        <time>2015-06-09T07:56:17Z</time>
      </trkpt>
      <trkpt lat="42.96715" lon="0.5041">
        <ele>1374.26</ele>
        <time>2015-06-09T07:56:28Z</time>
      </trkpt>
      <trkpt lat="42.96711" lon="0.50422">
        <ele>1375.75</ele>
        <time>2015-06-09T07:56:46Z</time>
      </trkpt>
      <trkpt lat="42.96714" lon="0.50435">
        <ele>1372.46</ele>
        <time>2015-06-09T07:56:54Z</time>
      </trkpt>
      <trkpt lat="42.96707" lon="0.50444">
        <ele>1368.06</ele>
        <time>2015-06-09T07:58:50Z</time>
      </trkpt>
      <trkpt lat="42.96701" lon="0.50454">
        <ele>1368.33</ele>
        <time>2015-06-09T07:59:03Z</time>
      </trkpt>
      <trkpt lat="42.96696" lon="0.50465">
        <ele>1357.33</ele>
        <time>2015-06-09T07:59:28Z</time>
      </trkpt>
      <trkpt lat="42.9669" lon="0.50475">
        <ele>1353.3</ele>
        <time>2015-06-09T07:59:46Z</time>
      </trkpt>
      <trkpt lat="42.96684" lon="0.50485">
        <ele>1354.52</ele>
        <time>2015-06-09T08:00:05Z</time>
      </trkpt>
      <trkpt lat="42.96678" lon="0.50496">
        <ele>1353.89</ele>
        <time>2015-06-09T08:00:28Z</time>
      </trkpt>
      <trkpt lat="42.9667" lon="0.50504">
        <ele>1354.6</ele>
        <time>2015-06-09T08:00:33Z</time>
      </trkpt>
      <trkpt lat="42.96661" lon="0.50512">
        <ele>1352.49</ele>
        <time>2015-06-09T08:00:39Z</time>
      </trkpt>
      <trkpt lat="42.96653" lon="0.50519">
        <ele>1350.29</ele>
        <time>2015-06-09T08:00:46Z</time>
      </trkpt>
      <trkpt lat="42.96646" lon="0.50526">
        <ele>1346.8</ele>
        <time>2015-06-09T08:00:56Z</time>
      </trkpt>
      <trkpt lat="42.96638" lon="0.50532">
        <ele>1346.79</ele>
        <time>2015-06-09T08:01:09Z</time>
      </trkpt>
      <trkpt lat="42.96629" lon="0.50534">
        <ele>1349.47</ele>
        <time>2015-06-09T08:01:35Z</time>
      </trkpt>
      <trkpt lat="42.9662" lon="0.5053">
        <ele>1349.61</ele>
        <time>2015-06-09T08:01:45Z</time>
      </trkpt>
      <trkpt lat="42.96611" lon="0.50526">
        <ele>1352.54</ele>
        <time>2015-06-09T08:01:57Z</time>
      </trkpt>
      <trkpt lat="42.96603" lon="0.5052">
        <ele>1349.27</ele>
        <time>2015-06-09T08:02:13Z</time>
      </trkpt>
      <trkpt lat="42.96593" lon="0.50516">
        <ele>1347.06</ele>
        <time>2015-06-09T08:02:19Z</time>
      </trkpt>
      <trkpt lat="42.96584" lon="0.50515">
        <ele>1353.31</ele>
        <time>2015-06-09T08:02:30Z</time>
      </trkpt>
      <trkpt lat="42.96575" lon="0.50508">
        <ele>1350.83</ele>
        <time>2015-06-09T08:02:47Z</time>
      </trkpt>
      <trkpt lat="42.96567" lon="0.50504">
        <ele>1356</ele>
        <time>2015-06-09T08:02:52Z</time>
      </trkpt>
      <trkpt lat="42.96558" lon="0.50501">
        <ele>1350.34</ele>
        <time>2015-06-09T08:02:59Z</time>
      </trkpt>
      <trkpt lat="42.96549" lon="0.50501">
        <ele>1350.35</ele>
        <time>2015-06-09T08:03:05Z</time>
      </trkpt>
      <trkpt lat="42.96539" lon="0.50498">
        <ele>1351.53</ele>
        <time>2015-06-09T08:03:12Z</time>
      </trkpt>
      <trkpt lat="42.9653" lon="0.50498">
        <ele>1351.1</ele>
        <time>2015-06-09T08:03:24Z</time>
      </trkpt>
      <trkpt lat="42.96523" lon="0.50489">
        <ele>1345.42</ele>
        <time>2015-06-09T08:03:42Z</time>
      </trkpt>
      <trkpt lat="42.96517" lon="0.50479">
        <ele>1344.82</ele>
        <time>2015-06-09T08:03:53Z</time>
      </trkpt>
      <trkpt lat="42.96514" lon="0.50468">
        <ele>1348.25</ele>
        <time>2015-06-09T08:04:09Z</time>
      </trkpt>
      <trkpt lat="42.96506" lon="0.5046">
        <ele>1342.94</ele>
        <time>2015-06-09T08:04:32Z</time>
      </trkpt>
      <trkpt lat="42.96497" lon="0.50455">
        <ele>1342.37</ele>
        <time>2015-06-09T08:04:38Z</time>
      </trkpt>
      <trkpt lat="42.96488" lon="0.5045">
        <ele>1343.3</ele>
        <time>2015-06-09T08:04:43Z</time>
      </trkpt>
      <trkpt lat="42.96479" lon="0.5044">
        <ele>1342.8</ele>
        <time>2015-06-09T08:04:48Z</time>
      </trkpt>
      <trkpt lat="42.96472" lon="0.5043">
        <ele>1343.7</ele>
        <time>2015-06-09T08:04:54Z</time>
      </trkpt>
      <trkpt lat="42.96463" lon="0.50428">
        <ele>1347.47</ele>
        <time>2015-06-09T08:05:01Z</time>
      </trkpt>
      <trkpt lat="42.96453" lon="0.50425">
        <ele>1352.08</ele>
        <time>2015-06-09T08:05:08Z</time>
      </trkpt>
      <trkpt lat="42.96444" lon="0.50429">
        <ele>1352.13</ele>
        <time>2015-06-09T08:05:18Z</time>
      </trkpt>
      <trkpt lat="42.96434" lon="0.50431">
        <ele>1345.96</ele>
        <time>2015-06-09T08:05:28Z</time>
      </trkpt>
      <trkpt lat="42.96425" lon="0.50428">
        <ele>1351.02</ele>
        <time>2015-06-09T08:05:36Z</time>
      </trkpt>
      <trkpt lat="42.96416" lon="0.50427">
        <ele>1349.44</ele>
        <time>2015-06-09T08:05:52Z</time>
      </trkpt>
      <trkpt lat="42.96409" lon="0.50435">
        <ele>1351.37</ele>
        <time>2015-06-09T08:06:19Z</time>
      </trkpt>
      <trkpt lat="42.96399" lon="0.50438">
        <ele>1350.03</ele>
        <time>2015-06-09T08:06:47Z</time>
      </trkpt>
      <trkpt lat="42.96389" lon="0.5044">
        <ele>1352.53</ele>
        <time>2015-06-09T08:06:53Z</time>
      </trkpt>
      <trkpt lat="42.9638" lon="0.50443">
        <ele>1353.15</ele>
        <time>2015-06-09T08:06:59Z</time>
      </trkpt>
      <trkpt lat="42.96371" lon="0.50451">
        <ele>1355.86</ele>
        <time>2015-06-09T08:07:19Z</time>
      </trkpt>
      <trkpt lat="42.96364" lon="0.50462">
        <ele>1357.89</ele>
        <time>2015-06-09T08:07:27Z</time>
      </trkpt>
      <trkpt lat="42.9636" lon="0.50475">
        <ele>1359.61</ele>
        <time>2015-06-09T08:07:35Z</time>
      </trkpt>
      <trkpt lat="42.96354" lon="0.50484">
        <ele>1357.08</ele>
        <time>2015-06-09T08:07:42Z</time>
      </trkpt>
      <trkpt lat="42.96348" lon="0.50494">
        <ele>1361.26</ele>
        <time>2015-06-09T08:07:58Z</time>
      </trkpt>
      <trkpt lat="42.96344" lon="0.50505">
        <ele>1363.61</ele>
        <time>2015-06-09T08:08:07Z</time>
      </trkpt>
      <trkpt lat="42.9634" lon="0.50517">
        <ele>1364.33</ele>
        <time>2015-06-09T08:08:16Z</time>
      </trkpt>
      <trkpt lat="42.96337" lon="0.50529">
        <ele>1364.5</ele>
        <time>2015-06-09T08:08:32Z</time>
      </trkpt>
      <trkpt lat="42.96333" lon="0.5054">
        <ele>1370.39</ele>
        <time>2015-06-09T08:08:39Z</time>
      </trkpt>
      <trkpt lat="42.96328" lon="0.50551">
        <ele>1366.64</ele>
        <time>2015-06-09T08:08:46Z</time>
      </trkpt>
      <trkpt lat="42.96324" lon="0.50564">
        <ele>1365.24</ele>
        <time>2015-06-09T08:08:52Z</time>
      </trkpt>
      <trkpt lat="42.96318" lon="0.50577">
        <ele>1365.23</ele>
        <time>2015-06-09T08:08:57Z</time>
      </trkpt>
      <trkpt lat="42.96316" lon="0.50592">
        <ele>1365.14</ele>
        <time>2015-06-09T08:09:00Z</time>
      </trkpt>
      <trkpt lat="42.96312" lon="0.50604">
        <ele>1367.01</ele>
        <time>2015-06-09T08:09:05Z</time>
      </trkpt>
      <trkpt lat="42.96309" lon="0.50616">
        <ele>1371.08</ele>
        <time>2015-06-09T08:09:14Z</time>
      </trkpt>
      <trkpt lat="42.96309" lon="0.50628">
        <ele>1368.79</ele>
        <time>2015-06-09T08:09:25Z</time>
      </trkpt>
      <trkpt lat="42.96308" lon="0.50641">
        <ele>1368.4</ele>
        <time>2015-06-09T08:09:39Z</time>
      </trkpt>
      <trkpt lat="42.96303" lon="0.50652">
        <ele>1371.84</ele>
        <time>2015-06-09T08:09:50Z</time>
      </trkpt>
      <trkpt lat="42.963" lon="0.50664">
        <ele>1372.29</ele>
        <time>2015-06-09T08:10:00Z</time>
      </trkpt>
      <trkpt lat="42.963" lon="0.50678">
        <ele>1371.55</ele>
        <time>2015-06-09T08:10:10Z</time>
      </trkpt>
      <trkpt lat="42.96296" lon="0.5069">
        <ele>1369.21</ele>
        <time>2015-06-09T08:10:20Z</time>
      </trkpt>
      <trkpt lat="42.96296" lon="0.50703">
        <ele>1366.49</ele>
        <time>2015-06-09T08:10:31Z</time>
      </trkpt>
      <trkpt lat="42.96291" lon="0.50713">
        <ele>1371.25</ele>
        <time>2015-06-09T08:10:41Z</time>
      </trkpt>
      <trkpt lat="42.96288" lon="0.50726">
        <ele>1373</ele>
        <time>2015-06-09T08:10:51Z</time>
      </trkpt>
      <trkpt lat="42.96285" lon="0.50738">
        <ele>1374.03</ele>
        <time>2015-06-09T08:11:02Z</time>
      </trkpt>
      <trkpt lat="42.96278" lon="0.50745">
        <ele>1375.52</ele>
        <time>2015-06-09T08:11:17Z</time>
      </trkpt>
      <trkpt lat="42.96274" lon="0.50757">
        <ele>1373.22</ele>
        <time>2015-06-09T08:11:25Z</time>
      </trkpt>
      <trkpt lat="42.96273" lon="0.5077">
        <ele>1372.82</ele>
        <time>2015-06-09T08:11:33Z</time>
      </trkpt>
      <trkpt lat="42.96271" lon="0.50783">
        <ele>1370.36</ele>
        <time>2015-06-09T08:11:43Z</time>
      </trkpt>
      <trkpt lat="42.96269" lon="0.50796">
        <ele>1370.45</ele>
        <time>2015-06-09T08:11:54Z</time>
      </trkpt>
      <trkpt lat="42.96269" lon="0.50808">
        <ele>1374.15</ele>
        <time>2015-06-09T08:12:02Z</time>
      </trkpt>
      <trkpt lat="42.96265" lon="0.5082">
        <ele>1366.36</ele>
        <time>2015-06-09T08:12:08Z</time>
      </trkpt>
      <trkpt lat="42.96261" lon="0.50831">
        <ele>1368.55</ele>
        <time>2015-06-09T08:12:20Z</time>
      </trkpt>
      <trkpt lat="42.96256" lon="0.50842">
        <ele>1373.34</ele>
        <time>2015-06-09T08:12:34Z</time>
      </trkpt>
      <trkpt lat="42.96254" lon="0.50854">
        <ele>1378.83</ele>
        <time>2015-06-09T08:12:45Z</time>
      </trkpt>
      <trkpt lat="42.96253" lon="0.50867">
        <ele>1374.86</ele>
        <time>2015-06-09T08:12:54Z</time>
      </trkpt>
      <trkpt lat="42.96251" lon="0.5088">
        <ele>1373.44</ele>
        <time>2015-06-09T08:13:03Z</time>
      </trkpt>
      <trkpt lat="42.96248" lon="0.50892">
        <ele>1369.05</ele>
        <time>2015-06-09T08:13:12Z</time>
      </trkpt>
      <trkpt lat="42.96244" lon="0.50904">
        <ele>1373.47</ele>
        <time>2015-06-09T08:13:44Z</time>
      </trkpt>
      <trkpt lat="42.96235" lon="0.5091">
        <ele>1373.72</ele>
        <time>2015-06-09T08:13:52Z</time>
      </trkpt>
      <trkpt lat="42.96227" lon="0.50916">
        <ele>1373.49</ele>
        <time>2015-06-09T08:14:01Z</time>
      </trkpt>
      <trkpt lat="42.96218" lon="0.50922">
        <ele>1375.86</ele>
        <time>2015-06-09T08:14:12Z</time>
      </trkpt>
      <trkpt lat="42.96209" lon="0.50926">
        <ele>1379</ele>
        <time>2015-06-09T08:14:22Z</time>
      </trkpt>
      <trkpt lat="42.96202" lon="0.50934">
        <ele>1383.01</ele>
        <time>2015-06-09T08:14:35Z</time>
      </trkpt>
      <trkpt lat="42.96195" lon="0.50942">
        <ele>1382.99</ele>
        <time>2015-06-09T08:14:49Z</time>
      </trkpt>
      <trkpt lat="42.96186" lon="0.50944">
        <ele>1383.78</ele>
        <time>2015-06-09T08:15:09Z</time>
      </trkpt>
      <trkpt lat="42.96181" lon="0.50955">
        <ele>1391.27</ele>
        <time>2015-06-09T08:22:27Z</time>
      </trkpt>
      <trkpt lat="42.96185" lon="0.50943">
        <ele>1384.31</ele>
        <time>2015-06-09T08:25:12Z</time>
      </trkpt>
      <trkpt lat="42.96183" lon="0.5093">
        <ele>1384.31</ele>
        <time>2015-06-09T08:25:21Z</time>
      </trkpt>
      <trkpt lat="42.96181" lon="0.50917">
        <ele>1386.6</ele>
        <time>2015-06-09T08:25:29Z</time>
      </trkpt>
      <trkpt lat="42.96176" lon="0.50906">
        <ele>1384.36</ele>
        <time>2015-06-09T08:25:37Z</time>
      </trkpt>
      <trkpt lat="42.96173" lon="0.50895">
        <ele>1384.74</ele>
        <time>2015-06-09T08:25:48Z</time>
      </trkpt>
      <trkpt lat="42.96172" lon="0.50883">
        <ele>1385.3</ele>
        <time>2015-06-09T08:26:09Z</time>
      </trkpt>
      <trkpt lat="42.96172" lon="0.5087">
        <ele>1384.37</ele>
        <time>2015-06-09T08:26:22Z</time>
      </trkpt>
      <trkpt lat="42.96168" lon="0.50859">
        <ele>1387.06</ele>
        <time>2015-06-09T08:26:30Z</time>
      </trkpt>
      <trkpt lat="42.96166" lon="0.50847">
        <ele>1381.89</ele>
        <time>2015-06-09T08:26:37Z</time>
      </trkpt>
      <trkpt lat="42.96165" lon="0.50834">
        <ele>1381.11</ele>
        <time>2015-06-09T08:26:45Z</time>
      </trkpt>
      <trkpt lat="42.96164" lon="0.50821">
        <ele>1383.57</ele>
        <time>2015-06-09T08:26:54Z</time>
      </trkpt>
      <trkpt lat="42.9616" lon="0.50809">
        <ele>1384.36</ele>
        <time>2015-06-09T08:27:01Z</time>
      </trkpt>
      <trkpt lat="42.96156" lon="0.50796">
        <ele>1382.66</ele>
        <time>2015-06-09T08:27:11Z</time>
      </trkpt>
      <trkpt lat="42.96152" lon="0.50785">
        <ele>1383.5</ele>
        <time>2015-06-09T08:27:22Z</time>
      </trkpt>
      <trkpt lat="42.96149" lon="0.50773">
        <ele>1387.2</ele>
        <time>2015-06-09T08:27:34Z</time>
      </trkpt>
      <trkpt lat="42.96144" lon="0.50761">
        <ele>1393.21</ele>
        <time>2015-06-09T08:27:52Z</time>
      </trkpt>
      <trkpt lat="42.96141" lon="0.50749">
        <ele>1396.97</ele>
        <time>2015-06-09T08:28:07Z</time>
      </trkpt>
      <trkpt lat="42.96136" lon="0.50738">
        <ele>1397.27</ele>
        <time>2015-06-09T08:28:19Z</time>
      </trkpt>
      <trkpt lat="42.96134" lon="0.50726">
        <ele>1398.32</ele>
        <time>2015-06-09T08:28:33Z</time>
      </trkpt>
      <trkpt lat="42.9613" lon="0.50714">
        <ele>1398.4</ele>
        <time>2015-06-09T08:28:48Z</time>
      </trkpt>
      <trkpt lat="42.96124" lon="0.50703">
        <ele>1399.24</ele>
        <time>2015-06-09T08:29:01Z</time>
      </trkpt>
      <trkpt lat="42.96119" lon="0.50692">
        <ele>1400.52</ele>
        <time>2015-06-09T08:29:16Z</time>
      </trkpt>
      <trkpt lat="42.96119" lon="0.50679">
        <ele>1404.95</ele>
        <time>2015-06-09T08:29:31Z</time>
      </trkpt>
      <trkpt lat="42.96122" lon="0.50666">
        <ele>1406.26</ele>
        <time>2015-06-09T08:29:47Z</time>
      </trkpt>
      <trkpt lat="42.9612" lon="0.50654">
        <ele>1411.88</ele>
        <time>2015-06-09T08:30:10Z</time>
      </trkpt>
      <trkpt lat="42.96116" lon="0.50642">
        <ele>1415.11</ele>
        <time>2015-06-09T08:30:23Z</time>
      </trkpt>
      <trkpt lat="42.96116" lon="0.50628">
        <ele>1417.23</ele>
        <time>2015-06-09T08:30:36Z</time>
      </trkpt>
      <trkpt lat="42.96119" lon="0.50616">
        <ele>1419.47</ele>
        <time>2015-06-09T08:30:48Z</time>
      </trkpt>
      <trkpt lat="42.96123" lon="0.50604">
        <ele>1419.27</ele>
        <time>2015-06-09T08:31:00Z</time>
      </trkpt>
      <trkpt lat="42.96128" lon="0.50593">
        <ele>1421.16</ele>
        <time>2015-06-09T08:31:14Z</time>
      </trkpt>
      <trkpt lat="42.96132" lon="0.50581">
        <ele>1422.44</ele>
        <time>2015-06-09T08:31:31Z</time>
      </trkpt>
      <trkpt lat="42.96135" lon="0.50569">
        <ele>1417.02</ele>
        <time>2015-06-09T08:31:44Z</time>
      </trkpt>
      <trkpt lat="42.96139" lon="0.50557">
        <ele>1420.2</ele>
        <time>2015-06-09T08:31:54Z</time>
      </trkpt>
      <trkpt lat="42.96142" lon="0.50546">
        <ele>1423.01</ele>
        <time>2015-06-09T08:32:06Z</time>
      </trkpt>
      <trkpt lat="42.96149" lon="0.50536">
        <ele>1422.81</ele>
        <time>2015-06-09T08:32:15Z</time>
      </trkpt>
      <trkpt lat="42.96151" lon="0.50523">
        <ele>1424.14</ele>
        <time>2015-06-09T08:32:26Z</time>
      </trkpt>
      <trkpt lat="42.96154" lon="0.50511">
        <ele>1424.17</ele>
        <time>2015-06-09T08:32:35Z</time>
      </trkpt>
      <trkpt lat="42.96154" lon="0.50497">
        <ele>1427.25</ele>
        <time>2015-06-09T08:32:44Z</time>
      </trkpt>
      <trkpt lat="42.96152" lon="0.50484">
        <ele>1429.23</ele>
        <time>2015-06-09T08:32:54Z</time>
      </trkpt>
      <trkpt lat="42.9615" lon="0.50471">
        <ele>1430.03</ele>
        <time>2015-06-09T08:33:04Z</time>
      </trkpt>
      <trkpt lat="42.96155" lon="0.50461">
        <ele>1431.71</ele>
        <time>2015-06-09T08:33:16Z</time>
      </trkpt>
      <trkpt lat="42.96161" lon="0.50452">
        <ele>1432.33</ele>
        <time>2015-06-09T08:33:29Z</time>
      </trkpt>
      <trkpt lat="42.96164" lon="0.50439">
        <ele>1434.14</ele>
        <time>2015-06-09T08:33:43Z</time>
      </trkpt>
      <trkpt lat="42.96165" lon="0.50426">
        <ele>1432.33</ele>
        <time>2015-06-09T08:33:57Z</time>
      </trkpt>
      <trkpt lat="42.96166" lon="0.50414">
        <ele>1434.61</ele>
        <time>2015-06-09T08:34:12Z</time>
      </trkpt>
      <trkpt lat="42.96168" lon="0.50401">
        <ele>1436.19</ele>
        <time>2015-06-09T08:34:26Z</time>
      </trkpt>
      <trkpt lat="42.96173" lon="0.5039">
        <ele>1439.14</ele>
        <time>2015-06-09T08:34:44Z</time>
      </trkpt>
      <trkpt lat="42.96176" lon="0.50378">
        <ele>1440.99</ele>
        <time>2015-06-09T08:34:56Z</time>
      </trkpt>
      <trkpt lat="42.96181" lon="0.50366">
        <ele>1437.52</ele>
        <time>2015-06-09T08:35:05Z</time>
      </trkpt>
      <trkpt lat="42.96185" lon="0.50355">
        <ele>1434.8</ele>
        <time>2015-06-09T08:35:14Z</time>
      </trkpt>
      <trkpt lat="42.96188" lon="0.50343">
        <ele>1436.01</ele>
        <time>2015-06-09T08:35:29Z</time>
      </trkpt>
      <trkpt lat="42.96192" lon="0.50331">
        <ele>1437.8</ele>
        <time>2015-06-09T08:35:42Z</time>
      </trkpt>
      <trkpt lat="42.96195" lon="0.50318">
        <ele>1437.96</ele>
        <time>2015-06-09T08:35:52Z</time>
      </trkpt>
      <trkpt lat="42.96197" lon="0.50306">
        <ele>1436.53</ele>
        <time>2015-06-09T08:36:00Z</time>
      </trkpt>
      <trkpt lat="42.96199" lon="0.50294">
        <ele>1433.9</ele>
        <time>2015-06-09T08:36:09Z</time>
      </trkpt>
      <trkpt lat="42.962" lon="0.50281">
        <ele>1433.51</ele>
        <time>2015-06-09T08:36:20Z</time>
      </trkpt>
      <trkpt lat="42.96203" lon="0.5027">
        <ele>1434.4</ele>
        <time>2015-06-09T08:36:31Z</time>
      </trkpt>
      <trkpt lat="42.96208" lon="0.50258">
        <ele>1440.97</ele>
        <time>2015-06-09T08:36:42Z</time>
      </trkpt>
      <trkpt lat="42.96212" lon="0.50246">
        <ele>1445.22</ele>
        <time>2015-06-09T08:36:54Z</time>
      </trkpt>
      <trkpt lat="42.96216" lon="0.50234">
        <ele>1446.2</ele>
        <time>2015-06-09T08:37:04Z</time>
      </trkpt>
      <trkpt lat="42.96218" lon="0.50222">
        <ele>1449.11</ele>
        <time>2015-06-09T08:37:15Z</time>
      </trkpt>
      <trkpt lat="42.9622" lon="0.5021">
        <ele>1450.02</ele>
        <time>2015-06-09T08:37:30Z</time>
      </trkpt>
      <trkpt lat="42.96222" lon="0.50197">
        <ele>1450.86</ele>
        <time>2015-06-09T08:37:38Z</time>
      </trkpt>
      <trkpt lat="42.96224" lon="0.50185">
        <ele>1449.35</ele>
        <time>2015-06-09T08:37:52Z</time>
      </trkpt>
      <trkpt lat="42.96229" lon="0.50173">
        <ele>1449.84</ele>
        <time>2015-06-09T08:38:05Z</time>
      </trkpt>
      <trkpt lat="42.96234" lon="0.50162">
        <ele>1452.93</ele>
        <time>2015-06-09T08:38:18Z</time>
      </trkpt>
      <trkpt lat="42.96239" lon="0.50152">
        <ele>1453.52</ele>
        <time>2015-06-09T08:38:29Z</time>
      </trkpt>
      <trkpt lat="42.96244" lon="0.50142">
        <ele>1452.77</ele>
        <time>2015-06-09T08:38:42Z</time>
      </trkpt>
      <trkpt lat="42.96248" lon="0.5013">
        <ele>1454.3</ele>
        <time>2015-06-09T08:38:58Z</time>
      </trkpt>
      <trkpt lat="42.96253" lon="0.50119">
        <ele>1455.28</ele>
        <time>2015-06-09T08:39:08Z</time>
      </trkpt>
      <trkpt lat="42.96258" lon="0.50109">
        <ele>1457.62</ele>
        <time>2015-06-09T08:39:22Z</time>
      </trkpt>
      <trkpt lat="42.96265" lon="0.501">
        <ele>1456.65</ele>
        <time>2015-06-09T08:39:35Z</time>
      </trkpt>
      <trkpt lat="42.9627" lon="0.50089">
        <ele>1460.26</ele>
        <time>2015-06-09T08:40:46Z</time>
      </trkpt>
      <trkpt lat="42.96274" lon="0.50078">
        <ele>1464.03</ele>
        <time>2015-06-09T08:41:01Z</time>
      </trkpt>
      <trkpt lat="42.96278" lon="0.50066">
        <ele>1464.77</ele>
        <time>2015-06-09T08:41:14Z</time>
      </trkpt>
      <trkpt lat="42.96283" lon="0.50055">
        <ele>1464.15</ele>
        <time>2015-06-09T08:41:26Z</time>
      </trkpt>
      <trkpt lat="42.9629" lon="0.50046">
        <ele>1468.45</ele>
        <time>2015-06-09T08:41:56Z</time>
      </trkpt>
      <trkpt lat="42.96294" lon="0.50035">
        <ele>1469.02</ele>
        <time>2015-06-09T08:42:10Z</time>
      </trkpt>
      <trkpt lat="42.96299" lon="0.50024">
        <ele>1473.33</ele>
        <time>2015-06-09T08:42:25Z</time>
      </trkpt>
      <trkpt lat="42.96304" lon="0.50013">
        <ele>1473.25</ele>
        <time>2015-06-09T08:42:39Z</time>
      </trkpt>
      <trkpt lat="42.96309" lon="0.50003">
        <ele>1477.98</ele>
        <time>2015-06-09T08:42:57Z</time>
      </trkpt>
      <trkpt lat="42.96314" lon="0.49992">
        <ele>1479.1</ele>
        <time>2015-06-09T08:44:47Z</time>
      </trkpt>
      <trkpt lat="42.96319" lon="0.4998">
        <ele>1480.01</ele>
        <time>2015-06-09T08:44:58Z</time>
      </trkpt>
      <trkpt lat="42.96324" lon="0.49969">
        <ele>1482.88</ele>
        <time>2015-06-09T08:45:18Z</time>
      </trkpt>
      <trkpt lat="42.96329" lon="0.49957">
        <ele>1482.02</ele>
        <time>2015-06-09T08:45:47Z</time>
      </trkpt>
      <trkpt lat="42.96333" lon="0.49946">
        <ele>1490.62</ele>
        <time>2015-06-09T08:46:02Z</time>
      </trkpt>
      <trkpt lat="42.96337" lon="0.49935">
        <ele>1493.97</ele>
        <time>2015-06-09T08:46:18Z</time>
      </trkpt>
      <trkpt lat="42.96341" lon="0.49924">
        <ele>1494.11</ele>
        <time>2015-06-09T08:46:35Z</time>
      </trkpt>
      <trkpt lat="42.96347" lon="0.49914">
        <ele>1497.6</ele>
        <time>2015-06-09T08:46:57Z</time>
      </trkpt>
      <trkpt lat="42.96352" lon="0.49903">
        <ele>1495.66</ele>
        <time>2015-06-09T08:47:12Z</time>
      </trkpt>
      <trkpt lat="42.96356" lon="0.49892">
        <ele>1497.52</ele>
        <time>2015-06-09T08:47:40Z</time>
      </trkpt>
      <trkpt lat="42.96363" lon="0.49882">
        <ele>1498</ele>
        <time>2015-06-09T08:48:07Z</time>
      </trkpt>
      <trkpt lat="42.96369" lon="0.49871">
        <ele>1505.13</ele>
        <time>2015-06-09T08:48:28Z</time>
      </trkpt>
      <trkpt lat="42.96374" lon="0.4986">
        <ele>1504.58</ele>
        <time>2015-06-09T08:48:35Z</time>
      </trkpt>
      <trkpt lat="42.96379" lon="0.49849">
        <ele>1508.37</ele>
        <time>2015-06-09T08:49:20Z</time>
      </trkpt>
      <trkpt lat="42.96382" lon="0.49836">
        <ele>1505.5</ele>
        <time>2015-06-09T08:49:28Z</time>
      </trkpt>
      <trkpt lat="42.96387" lon="0.49826">
        <ele>1506.98</ele>
        <time>2015-06-09T08:49:53Z</time>
      </trkpt>
      <trkpt lat="42.96392" lon="0.49815">
        <ele>1515.14</ele>
        <time>2015-06-09T08:50:30Z</time>
      </trkpt>
      <trkpt lat="42.96396" lon="0.49804">
        <ele>1514.52</ele>
        <time>2015-06-09T08:50:47Z</time>
      </trkpt>
      <trkpt lat="42.96401" lon="0.49792">
        <ele>1512.67</ele>
        <time>2015-06-09T08:51:12Z</time>
      </trkpt>
      <trkpt lat="42.96407" lon="0.49783">
        <ele>1518.86</ele>
        <time>2015-06-09T08:51:23Z</time>
      </trkpt>
      <trkpt lat="42.96414" lon="0.49774">
        <ele>1527.35</ele>
        <time>2015-06-09T08:51:35Z</time>
      </trkpt>
      <trkpt lat="42.96416" lon="0.49761">
        <ele>1531.22</ele>
        <time>2015-06-09T08:51:53Z</time>
      </trkpt>
      <trkpt lat="42.96418" lon="0.49749">
        <ele>1530.57</ele>
        <time>2015-06-09T08:52:00Z</time>
      </trkpt>
      <trkpt lat="42.96419" lon="0.49736">
        <ele>1532.11</ele>
        <time>2015-06-09T08:52:09Z</time>
      </trkpt>
      <trkpt lat="42.96423" lon="0.49724">
        <ele>1527.96</ele>
        <time>2015-06-09T08:52:28Z</time>
      </trkpt>
      <trkpt lat="42.96425" lon="0.49712">
        <ele>1528.74</ele>
        <time>2015-06-09T08:52:39Z</time>
      </trkpt>
      <trkpt lat="42.96428" lon="0.497">
        <ele>1530.98</ele>
        <time>2015-06-09T08:52:58Z</time>
      </trkpt>
      <trkpt lat="42.96435" lon="0.49693">
        <ele>1533.05</ele>
        <time>2015-06-09T08:53:19Z</time>
      </trkpt>
      <trkpt lat="42.96437" lon="0.49681">
        <ele>1535.24</ele>
        <time>2015-06-09T08:53:33Z</time>
      </trkpt>
      <trkpt lat="42.96435" lon="0.49668">
        <ele>1539.76</ele>
        <time>2015-06-09T08:53:46Z</time>
      </trkpt>
      <trkpt lat="42.96438" lon="0.49656">
        <ele>1540.11</ele>
        <time>2015-06-09T08:53:58Z</time>
      </trkpt>
      <trkpt lat="42.9644" lon="0.49644">
        <ele>1543.18</ele>
        <time>2015-06-09T08:54:15Z</time>
      </trkpt>
      <trkpt lat="42.96441" lon="0.49631">
        <ele>1544.23</ele>
        <time>2015-06-09T08:54:31Z</time>
      </trkpt>
      <trkpt lat="42.96442" lon="0.49619">
        <ele>1540.81</ele>
        <time>2015-06-09T08:54:41Z</time>
      </trkpt>
      <trkpt lat="42.96442" lon="0.49606">
        <ele>1543.2</ele>
        <time>2015-06-09T08:54:51Z</time>
      </trkpt>
      <trkpt lat="42.96446" lon="0.49595">
        <ele>1544.69</ele>
        <time>2015-06-09T08:55:09Z</time>
      </trkpt>
      <trkpt lat="42.96448" lon="0.49582">
        <ele>1544.24</ele>
        <time>2015-06-09T08:55:23Z</time>
      </trkpt>
      <trkpt lat="42.96454" lon="0.49573">
        <ele>1551.19</ele>
        <time>2015-06-09T08:55:44Z</time>
      </trkpt>
      <trkpt lat="42.96458" lon="0.49561">
        <ele>1551.96</ele>
        <time>2015-06-09T08:55:58Z</time>
      </trkpt>
      <trkpt lat="42.96465" lon="0.49552">
        <ele>1554.4</ele>
        <time>2015-06-09T08:56:15Z</time>
      </trkpt>
      <trkpt lat="42.9647" lon="0.49542">
        <ele>1557.19</ele>
        <time>2015-06-09T08:56:36Z</time>
      </trkpt>
      <trkpt lat="42.96475" lon="0.49531">
        <ele>1555.79</ele>
        <time>2015-06-09T08:56:50Z</time>
      </trkpt>
      <trkpt lat="42.9648" lon="0.49521">
        <ele>1557.97</ele>
        <time>2015-06-09T08:57:12Z</time>
      </trkpt>
      <trkpt lat="42.96484" lon="0.4951">
        <ele>1557.01</ele>
        <time>2015-06-09T08:57:27Z</time>
      </trkpt>
      <trkpt lat="42.96489" lon="0.49499">
        <ele>1558.39</ele>
        <time>2015-06-09T08:57:45Z</time>
      </trkpt>
      <trkpt lat="42.96494" lon="0.49488">
        <ele>1560.48</ele>
        <time>2015-06-09T08:58:01Z</time>
      </trkpt>
      <trkpt lat="42.96501" lon="0.49481">
        <ele>1566.01</ele>
        <time>2015-06-09T08:58:21Z</time>
      </trkpt>
      <trkpt lat="42.96506" lon="0.49471">
        <ele>1570.27</ele>
        <time>2015-06-09T08:58:46Z</time>
      </trkpt>
      <trkpt lat="42.96514" lon="0.49463">
        <ele>1573.21</ele>
        <time>2015-06-09T08:59:08Z</time>
      </trkpt>
      <trkpt lat="42.96519" lon="0.49453">
        <ele>1578.22</ele>
        <time>2015-06-09T08:59:30Z</time>
      </trkpt>
      <trkpt lat="42.96523" lon="0.49441">
        <ele>1581.01</ele>
        <time>2015-06-09T08:59:45Z</time>
      </trkpt>
      <trkpt lat="42.96524" lon="0.49429">
        <ele>1583.64</ele>
        <time>2015-06-09T08:59:58Z</time>
      </trkpt>
      <trkpt lat="42.96527" lon="0.49416">
        <ele>1586</ele>
        <time>2015-06-09T09:00:10Z</time>
      </trkpt>
      <trkpt lat="42.9653" lon="0.49405">
        <ele>1587.42</ele>
        <time>2015-06-09T09:00:19Z</time>
      </trkpt>
      <trkpt lat="42.96533" lon="0.49392">
        <ele>1583.83</ele>
        <time>2015-06-09T09:00:36Z</time>
      </trkpt>
      <trkpt lat="42.96536" lon="0.4938">
        <ele>1585.9</ele>
        <time>2015-06-09T09:00:49Z</time>
      </trkpt>
      <trkpt lat="42.96544" lon="0.49372">
        <ele>1595.33</ele>
        <time>2015-06-09T09:01:13Z</time>
      </trkpt>
      <trkpt lat="42.96546" lon="0.4936">
        <ele>1596.23</ele>
        <time>2015-06-09T09:01:34Z</time>
      </trkpt>
      <trkpt lat="42.96551" lon="0.49348">
        <ele>1597.02</ele>
        <time>2015-06-09T09:01:55Z</time>
      </trkpt>
      <trkpt lat="42.96555" lon="0.49336">
        <ele>1600.87</ele>
        <time>2015-06-09T09:02:06Z</time>
      </trkpt>
      <trkpt lat="42.96558" lon="0.49324">
        <ele>1600.77</ele>
        <time>2015-06-09T09:02:18Z</time>
      </trkpt>
      <trkpt lat="42.96559" lon="0.49311">
        <ele>1600.38</ele>
        <time>2015-06-09T09:02:31Z</time>
      </trkpt>
      <trkpt lat="42.96563" lon="0.493">
        <ele>1601.11</ele>
        <time>2015-06-09T09:02:44Z</time>
      </trkpt>
      <trkpt lat="42.9657" lon="0.4929">
        <ele>1608.22</ele>
        <time>2015-06-09T09:02:58Z</time>
      </trkpt>
      <trkpt lat="42.96571" lon="0.49278">
        <ele>1608.02</ele>
        <time>2015-06-09T09:03:11Z</time>
      </trkpt>
      <trkpt lat="42.96575" lon="0.49267">
        <ele>1605.27</ele>
        <time>2015-06-09T09:03:26Z</time>
      </trkpt>
      <trkpt lat="42.96581" lon="0.49257">
        <ele>1606.01</ele>
        <time>2015-06-09T09:03:40Z</time>
      </trkpt>
      <trkpt lat="42.96586" lon="0.49246">
        <ele>1608.95</ele>
        <time>2015-06-09T09:03:54Z</time>
      </trkpt>
      <trkpt lat="42.96589" lon="0.49234">
        <ele>1610.96</ele>
        <time>2015-06-09T09:04:14Z</time>
      </trkpt>
      <trkpt lat="42.96597" lon="0.49227">
        <ele>1613.24</ele>
        <time>2015-06-09T09:04:35Z</time>
      </trkpt>
      <trkpt lat="42.96602" lon="0.49217">
        <ele>1618.12</ele>
        <time>2015-06-09T09:06:25Z</time>
      </trkpt>
      <trkpt lat="42.96611" lon="0.49213">
        <ele>1619.98</ele>
        <time>2015-06-09T09:06:42Z</time>
      </trkpt>
      <trkpt lat="42.96618" lon="0.49206">
        <ele>1622.08</ele>
        <time>2015-06-09T09:07:04Z</time>
      </trkpt>
      <trkpt lat="42.96624" lon="0.49196">
        <ele>1622.01</ele>
        <time>2015-06-09T09:07:14Z</time>
      </trkpt>
      <trkpt lat="42.96631" lon="0.49189">
        <ele>1619.03</ele>
        <time>2015-06-09T09:07:27Z</time>
      </trkpt>
      <trkpt lat="42.9664" lon="0.49192">
        <ele>1619.28</ele>
        <time>2015-06-09T09:07:57Z</time>
      </trkpt>
      <trkpt lat="42.96646" lon="0.49181">
        <ele>1624.52</ele>
        <time>2015-06-09T09:10:12Z</time>
      </trkpt>
      <trkpt lat="42.96652" lon="0.49171">
        <ele>1624.12</ele>
        <time>2015-06-09T09:10:24Z</time>
      </trkpt>
      <trkpt lat="42.96652" lon="0.49158">
        <ele>1619.52</ele>
        <time>2015-06-09T09:10:51Z</time>
      </trkpt>
      <trkpt lat="42.96656" lon="0.49147">
        <ele>1616.75</ele>
        <time>2015-06-09T09:12:12Z</time>
      </trkpt>
      <trkpt lat="42.96653" lon="0.49135">
        <ele>1614.23</ele>
        <time>2015-06-09T09:12:30Z</time>
      </trkpt>
      <trkpt lat="42.96654" lon="0.49123">
        <ele>1616.76</ele>
        <time>2015-06-09T09:12:53Z</time>
      </trkpt>
      <trkpt lat="42.96651" lon="0.49112">
        <ele>1610.48</ele>
        <time>2015-06-09T09:13:13Z</time>
      </trkpt>
      <trkpt lat="42.96651" lon="0.49099">
        <ele>1608.4</ele>
        <time>2015-06-09T09:13:25Z</time>
      </trkpt>
      <trkpt lat="42.96651" lon="0.49086">
        <ele>1607.62</ele>
        <time>2015-06-09T09:13:38Z</time>
      </trkpt>
      <trkpt lat="42.96646" lon="0.49074">
        <ele>1604.28</ele>
        <time>2015-06-09T09:13:54Z</time>
      </trkpt>
      <trkpt lat="42.9664" lon="0.49065">
        <ele>1598.15</ele>
        <time>2015-06-09T09:14:18Z</time>
      </trkpt>
      <trkpt lat="42.96631" lon="0.49062">
        <ele>1595.15</ele>
        <time>2015-06-09T09:14:33Z</time>
      </trkpt>
      <trkpt lat="42.96621" lon="0.49062">
        <ele>1593.38</ele>
        <time>2015-06-09T09:14:46Z</time>
      </trkpt>
      <trkpt lat="42.96613" lon="0.49066">
        <ele>1594.79</ele>
        <time>2015-06-09T09:14:58Z</time>
      </trkpt>
      <trkpt lat="42.96603" lon="0.49065">
        <ele>1594.25</ele>
        <time>2015-06-09T09:15:18Z</time>
      </trkpt>
      <trkpt lat="42.96595" lon="0.49058">
        <ele>1587.49</ele>
        <time>2015-06-09T09:15:28Z</time>
      </trkpt>
      <trkpt lat="42.96587" lon="0.49054">
        <ele>1588.95</ele>
        <time>2015-06-09T09:15:41Z</time>
      </trkpt>
      <trkpt lat="42.96578" lon="0.49049">
        <ele>1580.59</ele>
        <time>2015-06-09T09:15:57Z</time>
      </trkpt>
      <trkpt lat="42.96569" lon="0.49044">
        <ele>1576.97</ele>
        <time>2015-06-09T09:16:13Z</time>
      </trkpt>
      <trkpt lat="42.96561" lon="0.49038">
        <ele>1575.38</ele>
        <time>2015-06-09T09:16:24Z</time>
      </trkpt>
      <trkpt lat="42.96553" lon="0.49034">
        <ele>1580.7</ele>
        <time>2015-06-09T09:16:39Z</time>
      </trkpt>
      <trkpt lat="42.96544" lon="0.49028">
        <ele>1576.11</ele>
        <time>2015-06-09T09:16:59Z</time>
      </trkpt>
      <trkpt lat="42.96535" lon="0.49022">
        <ele>1577.6</ele>
        <time>2015-06-09T09:17:08Z</time>
      </trkpt>
      <trkpt lat="42.96528" lon="0.49014">
        <ele>1577.27</ele>
        <time>2015-06-09T09:17:17Z</time>
      </trkpt>
      <trkpt lat="42.96519" lon="0.4901">
        <ele>1574.8</ele>
        <time>2015-06-09T09:17:27Z</time>
      </trkpt>
      <trkpt lat="42.96511" lon="0.49003">
        <ele>1571.5</ele>
        <time>2015-06-09T09:17:35Z</time>
      </trkpt>
      <trkpt lat="42.96504" lon="0.48995">
        <ele>1572.23</ele>
        <time>2015-06-09T09:17:45Z</time>
      </trkpt>
      <trkpt lat="42.96496" lon="0.48989">
        <ele>1572.41</ele>
        <time>2015-06-09T09:17:53Z</time>
      </trkpt>
      <trkpt lat="42.96487" lon="0.48981">
        <ele>1570.35</ele>
        <time>2015-06-09T09:18:03Z</time>
      </trkpt>
      <trkpt lat="42.96481" lon="0.4897">
        <ele>1571.09</ele>
        <time>2015-06-09T09:18:11Z</time>
      </trkpt>
      <trkpt lat="42.96476" lon="0.48959">
        <ele>1572.28</ele>
        <time>2015-06-09T09:18:19Z</time>
      </trkpt>
      <trkpt lat="42.96469" lon="0.48951">
        <ele>1558.02</ele>
        <time>2015-06-09T09:20:29Z</time>
      </trkpt>
      <trkpt lat="42.96462" lon="0.48941">
        <ele>1558.33</ele>
        <time>2015-06-09T09:20:39Z</time>
      </trkpt>
      <trkpt lat="42.96457" lon="0.48932">
        <ele>1559.76</ele>
        <time>2015-06-09T09:20:49Z</time>
      </trkpt>
      <trkpt lat="42.96452" lon="0.4892">
        <ele>1558.14</ele>
        <time>2015-06-09T09:20:59Z</time>
      </trkpt>
      <trkpt lat="42.96446" lon="0.4891">
        <ele>1557.74</ele>
        <time>2015-06-09T09:21:09Z</time>
      </trkpt>
      <trkpt lat="42.96444" lon="0.48897">
        <ele>1563.11</ele>
        <time>2015-06-09T09:21:21Z</time>
      </trkpt>
      <trkpt lat="42.9644" lon="0.48886">
        <ele>1565.84</ele>
        <time>2015-06-09T09:21:32Z</time>
      </trkpt>
      <trkpt lat="42.96435" lon="0.48875">
        <ele>1566.72</ele>
        <time>2015-06-09T09:21:42Z</time>
      </trkpt>
      <trkpt lat="42.96431" lon="0.48864">
        <ele>1568.06</ele>
        <time>2015-06-09T09:21:53Z</time>
      </trkpt>
      <trkpt lat="42.96426" lon="0.48852">
        <ele>1566.4</ele>
        <time>2015-06-09T09:22:03Z</time>
      </trkpt>
      <trkpt lat="42.96421" lon="0.4884">
        <ele>1566.94</ele>
        <time>2015-06-09T09:22:14Z</time>
      </trkpt>
      <trkpt lat="42.96418" lon="0.48828">
        <ele>1566.83</ele>
        <time>2015-06-09T09:22:28Z</time>
      </trkpt>
      <trkpt lat="42.96416" lon="0.48816">
        <ele>1570.18</ele>
        <time>2015-06-09T09:22:41Z</time>
      </trkpt>
      <trkpt lat="42.96411" lon="0.48805">
        <ele>1566.87</ele>
        <time>2015-06-09T09:22:51Z</time>
      </trkpt>
      <trkpt lat="42.96407" lon="0.48793">
        <ele>1567.02</ele>
        <time>2015-06-09T09:23:03Z</time>
      </trkpt>
      <trkpt lat="42.96405" lon="0.48781">
        <ele>1567.23</ele>
        <time>2015-06-09T09:23:19Z</time>
      </trkpt>
      <trkpt lat="42.96409" lon="0.48769">
        <ele>1568.94</ele>
        <time>2015-06-09T09:23:39Z</time>
      </trkpt>
      <trkpt lat="42.96414" lon="0.48758">
        <ele>1568.91</ele>
        <time>2015-06-09T09:23:49Z</time>
      </trkpt>
      <trkpt lat="42.96417" lon="0.48747">
        <ele>1569.64</ele>
        <time>2015-06-09T09:24:06Z</time>
      </trkpt>
      <trkpt lat="42.96418" lon="0.48734">
        <ele>1572.57</ele>
        <time>2015-06-09T09:24:19Z</time>
      </trkpt>
      <trkpt lat="42.96419" lon="0.48721">
        <ele>1572.22</ele>
        <time>2015-06-09T09:24:38Z</time>
      </trkpt>
      <trkpt lat="42.96418" lon="0.48709">
        <ele>1576.52</ele>
        <time>2015-06-09T09:24:55Z</time>
      </trkpt>
      <trkpt lat="42.96418" lon="0.48696">
        <ele>1575.21</ele>
        <time>2015-06-09T09:25:15Z</time>
      </trkpt>
      <trkpt lat="42.96418" lon="0.48684">
        <ele>1575.7</ele>
        <time>2015-06-09T09:25:29Z</time>
      </trkpt>
      <trkpt lat="42.96421" lon="0.48671">
        <ele>1591.08</ele>
        <time>2015-06-09T09:25:44Z</time>
      </trkpt>
      <trkpt lat="42.96421" lon="0.48658">
        <ele>1588.83</ele>
        <time>2015-06-09T09:25:58Z</time>
      </trkpt>
      <trkpt lat="42.96421" lon="0.48646">
        <ele>1584.28</ele>
        <time>2015-06-09T09:26:15Z</time>
      </trkpt>
      <trkpt lat="42.96422" lon="0.48633">
        <ele>1585.43</ele>
        <time>2015-06-09T09:26:26Z</time>
      </trkpt>
      <trkpt lat="42.96421" lon="0.4862">
        <ele>1587.54</ele>
        <time>2015-06-09T09:26:39Z</time>
      </trkpt>
      <trkpt lat="42.96418" lon="0.48607">
        <ele>1589.16</ele>
        <time>2015-06-09T09:27:12Z</time>
      </trkpt>
      <trkpt lat="42.96417" lon="0.48594">
        <ele>1586.98</ele>
        <time>2015-06-09T09:27:24Z</time>
      </trkpt>
      <trkpt lat="42.96416" lon="0.48582">
        <ele>1590.93</ele>
        <time>2015-06-09T09:27:35Z</time>
      </trkpt>
      <trkpt lat="42.96416" lon="0.48569">
        <ele>1598.86</ele>
        <time>2015-06-09T09:27:51Z</time>
      </trkpt>
      <trkpt lat="42.96415" lon="0.48556">
        <ele>1599.61</ele>
        <time>2015-06-09T09:28:03Z</time>
      </trkpt>
      <trkpt lat="42.9641" lon="0.48545">
        <ele>1597.88</ele>
        <time>2015-06-09T09:28:22Z</time>
      </trkpt>
      <trkpt lat="42.9641" lon="0.48532">
        <ele>1598.53</ele>
        <time>2015-06-09T09:28:47Z</time>
      </trkpt>
      <trkpt lat="42.96408" lon="0.48519">
        <ele>1598.22</ele>
        <time>2015-06-09T09:28:58Z</time>
      </trkpt>
      <trkpt lat="42.96406" lon="0.48506">
        <ele>1598.77</ele>
        <time>2015-06-09T09:29:08Z</time>
      </trkpt>
      <trkpt lat="42.96403" lon="0.48494">
        <ele>1600.21</ele>
        <time>2015-06-09T09:29:18Z</time>
      </trkpt>
      <trkpt lat="42.96399" lon="0.48482">
        <ele>1598.56</ele>
        <time>2015-06-09T09:29:28Z</time>
      </trkpt>
      <trkpt lat="42.96396" lon="0.4847">
        <ele>1601.44</ele>
        <time>2015-06-09T09:29:38Z</time>
      </trkpt>
      <trkpt lat="42.96393" lon="0.48458">
        <ele>1603.27</ele>
        <time>2015-06-09T09:29:49Z</time>
      </trkpt>
      <trkpt lat="42.96386" lon="0.48449">
        <ele>1604.22</ele>
        <time>2015-06-09T09:29:59Z</time>
      </trkpt>
      <trkpt lat="42.96381" lon="0.48438">
        <ele>1601.23</ele>
        <time>2015-06-09T09:30:10Z</time>
      </trkpt>
      <trkpt lat="42.96372" lon="0.48434">
        <ele>1597.58</ele>
        <time>2015-06-09T09:30:20Z</time>
      </trkpt>
      <trkpt lat="42.96363" lon="0.48431">
        <ele>1593.07</ele>
        <time>2015-06-09T09:30:30Z</time>
      </trkpt>
      <trkpt lat="42.96354" lon="0.48429">
        <ele>1591.64</ele>
        <time>2015-06-09T09:30:41Z</time>
      </trkpt>
      <trkpt lat="42.96345" lon="0.48427">
        <ele>1591.31</ele>
        <time>2015-06-09T09:30:53Z</time>
      </trkpt>
      <trkpt lat="42.96336" lon="0.48426">
        <ele>1590.46</ele>
        <time>2015-06-09T09:31:03Z</time>
      </trkpt>
      <trkpt lat="42.96326" lon="0.48426">
        <ele>1588.9</ele>
        <time>2015-06-09T09:31:14Z</time>
      </trkpt>
      <trkpt lat="42.96317" lon="0.48425">
        <ele>1588.3</ele>
        <time>2015-06-09T09:31:24Z</time>
      </trkpt>
      <trkpt lat="42.96308" lon="0.48422">
        <ele>1586.76</ele>
        <time>2015-06-09T09:31:34Z</time>
      </trkpt>
      <trkpt lat="42.96299" lon="0.4842">
        <ele>1587.02</ele>
        <time>2015-06-09T09:31:47Z</time>
      </trkpt>
      <trkpt lat="42.9629" lon="0.4842">
        <ele>1586.83</ele>
        <time>2015-06-09T09:31:58Z</time>
      </trkpt>
      <trkpt lat="42.9628" lon="0.48418">
        <ele>1587.06</ele>
        <time>2015-06-09T09:32:09Z</time>
      </trkpt>
      <trkpt lat="42.9627" lon="0.48419">
        <ele>1586.25</ele>
        <time>2015-06-09T09:32:22Z</time>
      </trkpt>
      <trkpt lat="42.96261" lon="0.48419">
        <ele>1588.23</ele>
        <time>2015-06-09T09:32:33Z</time>
      </trkpt>
      <trkpt lat="42.96251" lon="0.4842">
        <ele>1586.34</ele>
        <time>2015-06-09T09:32:42Z</time>
      </trkpt>
      <trkpt lat="42.96242" lon="0.4842">
        <ele>1585.52</ele>
        <time>2015-06-09T09:32:54Z</time>
      </trkpt>
      <trkpt lat="42.96233" lon="0.48423">
        <ele>1585.47</ele>
        <time>2015-06-09T09:33:05Z</time>
      </trkpt>
      <trkpt lat="42.96223" lon="0.48423">
        <ele>1586.93</ele>
        <time>2015-06-09T09:33:18Z</time>
      </trkpt>
      <trkpt lat="42.96215" lon="0.48418">
        <ele>1588.64</ele>
        <time>2015-06-09T09:33:29Z</time>
      </trkpt>
      <trkpt lat="42.96207" lon="0.48412">
        <ele>1587.53</ele>
        <time>2015-06-09T09:33:39Z</time>
      </trkpt>
      <trkpt lat="42.96199" lon="0.48404">
        <ele>1590.02</ele>
        <time>2015-06-09T09:33:49Z</time>
      </trkpt>
      <trkpt lat="42.96192" lon="0.48396">
        <ele>1588.02</ele>
        <time>2015-06-09T09:33:59Z</time>
      </trkpt>
      <trkpt lat="42.96186" lon="0.48387">
        <ele>1592.31</ele>
        <time>2015-06-09T09:34:13Z</time>
      </trkpt>
      <trkpt lat="42.96179" lon="0.48378">
        <ele>1590.93</ele>
        <time>2015-06-09T09:34:25Z</time>
      </trkpt>
      <trkpt lat="42.96173" lon="0.48368">
        <ele>1589.31</ele>
        <time>2015-06-09T09:34:37Z</time>
      </trkpt>
      <trkpt lat="42.96166" lon="0.4836">
        <ele>1590.29</ele>
        <time>2015-06-09T09:34:49Z</time>
      </trkpt>
      <trkpt lat="42.96158" lon="0.48352">
        <ele>1590.77</ele>
        <time>2015-06-09T09:35:00Z</time>
      </trkpt>
      <trkpt lat="42.96153" lon="0.48341">
        <ele>1594.77</ele>
        <time>2015-06-09T09:35:13Z</time>
      </trkpt>
      <trkpt lat="42.96146" lon="0.48333">
        <ele>1597.22</ele>
        <time>2015-06-09T09:35:23Z</time>
      </trkpt>
      <trkpt lat="42.96139" lon="0.48324">
        <ele>1593.82</ele>
        <time>2015-06-09T09:35:34Z</time>
      </trkpt>
      <trkpt lat="42.96134" lon="0.48313">
        <ele>1593.7</ele>
        <time>2015-06-09T09:35:45Z</time>
      </trkpt>
      <trkpt lat="42.96129" lon="0.48303">
        <ele>1595.11</ele>
        <time>2015-06-09T09:35:57Z</time>
      </trkpt>
      <trkpt lat="42.96121" lon="0.48295">
        <ele>1594.37</ele>
        <time>2015-06-09T09:36:08Z</time>
      </trkpt>
      <trkpt lat="42.96114" lon="0.48286">
        <ele>1591.66</ele>
        <time>2015-06-09T09:36:18Z</time>
      </trkpt>
      <trkpt lat="42.96107" lon="0.48278">
        <ele>1589.09</ele>
        <time>2015-06-09T09:36:27Z</time>
      </trkpt>
      <trkpt lat="42.961" lon="0.48269">
        <ele>1590.63</ele>
        <time>2015-06-09T09:36:37Z</time>
      </trkpt>
      <trkpt lat="42.96093" lon="0.48261">
        <ele>1591.77</ele>
        <time>2015-06-09T09:36:48Z</time>
      </trkpt>
      <trkpt lat="42.96086" lon="0.48252">
        <ele>1593.02</ele>
        <time>2015-06-09T09:37:01Z</time>
      </trkpt>
      <trkpt lat="42.96081" lon="0.48241">
        <ele>1594.2</ele>
        <time>2015-06-09T09:37:12Z</time>
      </trkpt>
      <trkpt lat="42.96075" lon="0.48232">
        <ele>1595.14</ele>
        <time>2015-06-09T09:37:22Z</time>
      </trkpt>
      <trkpt lat="42.96069" lon="0.48222">
        <ele>1593.13</ele>
        <time>2015-06-09T09:37:31Z</time>
      </trkpt>
      <trkpt lat="42.96064" lon="0.48212">
        <ele>1593.67</ele>
        <time>2015-06-09T09:37:45Z</time>
      </trkpt>
      <trkpt lat="42.96059" lon="0.48201">
        <ele>1593.51</ele>
        <time>2015-06-09T09:37:58Z</time>
      </trkpt>
      <trkpt lat="42.96054" lon="0.4819">
        <ele>1590.52</ele>
        <time>2015-06-09T09:38:11Z</time>
      </trkpt>
      <trkpt lat="42.96048" lon="0.4818">
        <ele>1589.48</ele>
        <time>2015-06-09T09:38:22Z</time>
      </trkpt>
      <trkpt lat="42.96043" lon="0.4817">
        <ele>1589.23</ele>
        <time>2015-06-09T09:38:34Z</time>
      </trkpt>
      <trkpt lat="42.96039" lon="0.48158">
        <ele>1594.55</ele>
        <time>2015-06-09T09:38:47Z</time>
      </trkpt>
      <trkpt lat="42.96037" lon="0.48145">
        <ele>1600.62</ele>
        <time>2015-06-09T09:39:00Z</time>
      </trkpt>
      <trkpt lat="42.96031" lon="0.48136">
        <ele>1601.14</ele>
        <time>2015-06-09T09:39:14Z</time>
      </trkpt>
      <trkpt lat="42.96024" lon="0.48126">
        <ele>1600.39</ele>
        <time>2015-06-09T09:39:29Z</time>
      </trkpt>
      <trkpt lat="42.96018" lon="0.48117">
        <ele>1603.25</ele>
        <time>2015-06-09T09:39:39Z</time>
      </trkpt>
      <trkpt lat="42.96014" lon="0.48106">
        <ele>1587.81</ele>
        <time>2015-06-09T09:40:39Z</time>
      </trkpt>
      <trkpt lat="42.96008" lon="0.48096">
        <ele>1591.88</ele>
        <time>2015-06-09T09:40:49Z</time>
      </trkpt>
      <trkpt lat="42.96003" lon="0.48085">
        <ele>1582.69</ele>
        <time>2015-06-09T09:41:02Z</time>
      </trkpt>
      <trkpt lat="42.95997" lon="0.48076">
        <ele>1592.07</ele>
        <time>2015-06-09T09:41:18Z</time>
      </trkpt>
      <trkpt lat="42.95991" lon="0.48065">
        <ele>1594.38</ele>
        <time>2015-06-09T09:41:28Z</time>
      </trkpt>
      <trkpt lat="42.95987" lon="0.48052">
        <ele>1595.97</ele>
        <time>2015-06-09T09:41:38Z</time>
      </trkpt>
      <trkpt lat="42.95979" lon="0.48045">
        <ele>1593.27</ele>
        <time>2015-06-09T09:41:53Z</time>
      </trkpt>
      <trkpt lat="42.95972" lon="0.48036">
        <ele>1595.21</ele>
        <time>2015-06-09T09:42:05Z</time>
      </trkpt>
      <trkpt lat="42.95967" lon="0.48025">
        <ele>1595.05</ele>
        <time>2015-06-09T09:42:16Z</time>
      </trkpt>
      <trkpt lat="42.95963" lon="0.48013">
        <ele>1593.51</ele>
        <time>2015-06-09T09:42:26Z</time>
      </trkpt>
      <trkpt lat="42.95959" lon="0.48002">
        <ele>1595.86</ele>
        <time>2015-06-09T09:42:37Z</time>
      </trkpt>
      <trkpt lat="42.95952" lon="0.47991">
        <ele>1594.91</ele>
        <time>2015-06-09T09:42:47Z</time>
      </trkpt>
      <trkpt lat="42.95948" lon="0.47981">
        <ele>1597.62</ele>
        <time>2015-06-09T09:43:04Z</time>
      </trkpt>
      <trkpt lat="42.95944" lon="0.47968">
        <ele>1600.98</ele>
        <time>2015-06-09T09:43:16Z</time>
      </trkpt>
      <trkpt lat="42.9594" lon="0.47956">
        <ele>1601.02</ele>
        <time>2015-06-09T09:43:31Z</time>
      </trkpt>
      <trkpt lat="42.95936" lon="0.47945">
        <ele>1602.1</ele>
        <time>2015-06-09T09:43:41Z</time>
      </trkpt>
      <trkpt lat="42.95935" lon="0.47932">
        <ele>1600.12</ele>
        <time>2015-06-09T09:43:51Z</time>
      </trkpt>
      <trkpt lat="42.95933" lon="0.4792">
        <ele>1604.48</ele>
        <time>2015-06-09T09:44:06Z</time>
      </trkpt>
      <trkpt lat="42.95932" lon="0.47908">
        <ele>1609.41</ele>
        <time>2015-06-09T09:44:17Z</time>
      </trkpt>
      <trkpt lat="42.95934" lon="0.47895">
        <ele>1609.75</ele>
        <time>2015-06-09T09:44:28Z</time>
      </trkpt>
      <trkpt lat="42.9593" lon="0.47883">
        <ele>1609.79</ele>
        <time>2015-06-09T09:44:40Z</time>
      </trkpt>
      <trkpt lat="42.95929" lon="0.4787">
        <ele>1611.49</ele>
        <time>2015-06-09T09:44:52Z</time>
      </trkpt>
      <trkpt lat="42.95926" lon="0.47858">
        <ele>1615.02</ele>
        <time>2015-06-09T09:45:08Z</time>
      </trkpt>
      <trkpt lat="42.95921" lon="0.47847">
        <ele>1619.5</ele>
        <time>2015-06-09T09:45:46Z</time>
      </trkpt>
      <trkpt lat="42.9592" lon="0.47834">
        <ele>1619.7</ele>
        <time>2015-06-09T09:46:00Z</time>
      </trkpt>
      <trkpt lat="42.95915" lon="0.47824">
        <ele>1619.24</ele>
        <time>2015-06-09T09:46:16Z</time>
      </trkpt>
      <trkpt lat="42.95908" lon="0.47815">
        <ele>1624.2</ele>
        <time>2015-06-09T09:46:54Z</time>
      </trkpt>
      <trkpt lat="42.959" lon="0.47807">
        <ele>1626.27</ele>
        <time>2015-06-09T09:47:27Z</time>
      </trkpt>
      <trkpt lat="42.95892" lon="0.47802">
        <ele>1630.24</ele>
        <time>2015-06-09T09:47:52Z</time>
      </trkpt>
      <trkpt lat="42.95889" lon="0.4779">
        <ele>1634.44</ele>
        <time>2015-06-09T09:48:54Z</time>
      </trkpt>
      <trkpt lat="42.95885" lon="0.47778">
        <ele>1634.58</ele>
        <time>2015-06-09T09:49:15Z</time>
      </trkpt>
      <trkpt lat="42.95885" lon="0.47765">
        <ele>1635.23</ele>
        <time>2015-06-09T09:49:44Z</time>
      </trkpt>
      <trkpt lat="42.95882" lon="0.47753">
        <ele>1641.99</ele>
        <time>2015-06-09T09:49:57Z</time>
      </trkpt>
      <trkpt lat="42.95881" lon="0.4774">
        <ele>1638.08</ele>
        <time>2015-06-09T09:50:26Z</time>
      </trkpt>
      <trkpt lat="42.95882" lon="0.47727">
        <ele>1643.24</ele>
        <time>2015-06-09T09:51:11Z</time>
      </trkpt>
      <trkpt lat="42.95881" lon="0.47715">
        <ele>1626.91</ele>
        <time>2015-06-09T10:15:25Z</time>
      </trkpt>
      <trkpt lat="42.95876" lon="0.47726">
        <ele>1636.64</ele>
        <time>2015-06-09T10:35:40Z</time>
      </trkpt>
      <trkpt lat="42.95876" lon="0.47739">
        <ele>1633.27</ele>
        <time>2015-06-09T10:42:13Z</time>
      </trkpt>
      <trkpt lat="42.95876" lon="0.47751">
        <ele>1631.49</ele>
        <time>2015-06-09T10:42:22Z</time>
      </trkpt>
      <trkpt lat="42.95877" lon="0.47764">
        <ele>1632.01</ele>
        <time>2015-06-09T10:42:32Z</time>
      </trkpt>
      <trkpt lat="42.95876" lon="0.47777">
        <ele>1630.44</ele>
        <time>2015-06-09T10:42:44Z</time>
      </trkpt>
      <trkpt lat="42.95874" lon="0.4779">
        <ele>1627.57</ele>
        <time>2015-06-09T10:42:55Z</time>
      </trkpt>
      <trkpt lat="42.95878" lon="0.47801">
        <ele>1628.24</ele>
        <time>2015-06-09T10:43:08Z</time>
      </trkpt>
      <trkpt lat="42.95883" lon="0.47813">
        <ele>1628.89</ele>
        <time>2015-06-09T10:43:16Z</time>
      </trkpt>
      <trkpt lat="42.95886" lon="0.47825">
        <ele>1624.41</ele>
        <time>2015-06-09T10:43:24Z</time>
      </trkpt>
      <trkpt lat="42.95886" lon="0.47838">
        <ele>1619.74</ele>
        <time>2015-06-09T10:43:34Z</time>
      </trkpt>
      <trkpt lat="42.95886" lon="0.47851">
        <ele>1617.52</ele>
        <time>2015-06-09T10:43:45Z</time>
      </trkpt>
      <trkpt lat="42.95888" lon="0.47863">
        <ele>1615.4</ele>
        <time>2015-06-09T10:43:54Z</time>
      </trkpt>
      <trkpt lat="42.95888" lon="0.47877">
        <ele>1613.92</ele>
        <time>2015-06-09T10:44:05Z</time>
      </trkpt>
      <trkpt lat="42.95886" lon="0.47889">
        <ele>1611.33</ele>
        <time>2015-06-09T10:44:14Z</time>
      </trkpt>
      <trkpt lat="42.95886" lon="0.47901">
        <ele>1610.3</ele>
        <time>2015-06-09T10:44:23Z</time>
      </trkpt>
      <trkpt lat="42.95891" lon="0.47911">
        <ele>1607.56</ele>
        <time>2015-06-09T10:44:32Z</time>
      </trkpt>
      <trkpt lat="42.95896" lon="0.47922">
        <ele>1606.9</ele>
        <time>2015-06-09T10:44:41Z</time>
      </trkpt>
      <trkpt lat="42.95901" lon="0.47933">
        <ele>1605.4</ele>
        <time>2015-06-09T10:44:51Z</time>
      </trkpt>
      <trkpt lat="42.95905" lon="0.47944">
        <ele>1602.53</ele>
        <time>2015-06-09T10:45:02Z</time>
      </trkpt>
      <trkpt lat="42.9591" lon="0.47956">
        <ele>1601.52</ele>
        <time>2015-06-09T10:45:14Z</time>
      </trkpt>
      <trkpt lat="42.95915" lon="0.47966">
        <ele>1599.35</ele>
        <time>2015-06-09T10:45:23Z</time>
      </trkpt>
      <trkpt lat="42.9592" lon="0.47977">
        <ele>1599.25</ele>
        <time>2015-06-09T10:45:30Z</time>
      </trkpt>
      <trkpt lat="42.95925" lon="0.47988">
        <ele>1598.28</ele>
        <time>2015-06-09T10:45:39Z</time>
      </trkpt>
      <trkpt lat="42.9593" lon="0.47999">
        <ele>1599.07</ele>
        <time>2015-06-09T10:45:49Z</time>
      </trkpt>
      <trkpt lat="42.95938" lon="0.48007">
        <ele>1596.43</ele>
        <time>2015-06-09T10:45:56Z</time>
      </trkpt>
      <trkpt lat="42.95944" lon="0.48017">
        <ele>1595.75</ele>
        <time>2015-06-09T10:46:05Z</time>
      </trkpt>
      <trkpt lat="42.95951" lon="0.48026">
        <ele>1595.06</ele>
        <time>2015-06-09T10:46:14Z</time>
      </trkpt>
      <trkpt lat="42.95957" lon="0.48036">
        <ele>1593.83</ele>
        <time>2015-06-09T10:46:24Z</time>
      </trkpt>
      <trkpt lat="42.95963" lon="0.48046">
        <ele>1592.2</ele>
        <time>2015-06-09T10:46:38Z</time>
      </trkpt>
      <trkpt lat="42.9597" lon="0.48056">
        <ele>1593.27</ele>
        <time>2015-06-09T10:46:46Z</time>
      </trkpt>
      <trkpt lat="42.95973" lon="0.48068">
        <ele>1592.47</ele>
        <time>2015-06-09T10:47:16Z</time>
      </trkpt>
      <trkpt lat="42.95978" lon="0.48078">
        <ele>1591.42</ele>
        <time>2015-06-09T10:47:25Z</time>
      </trkpt>
      <trkpt lat="42.95984" lon="0.48089">
        <ele>1595.35</ele>
        <time>2015-06-09T10:47:36Z</time>
      </trkpt>
      <trkpt lat="42.95989" lon="0.481">
        <ele>1591.8</ele>
        <time>2015-06-09T10:47:47Z</time>
      </trkpt>
      <trkpt lat="42.95993" lon="0.48112">
        <ele>1589.52</ele>
        <time>2015-06-09T10:47:55Z</time>
      </trkpt>
      <trkpt lat="42.95998" lon="0.48124">
        <ele>1588.66</ele>
        <time>2015-06-09T10:48:04Z</time>
      </trkpt>
      <trkpt lat="42.96003" lon="0.48135">
        <ele>1588.55</ele>
        <time>2015-06-09T10:48:15Z</time>
      </trkpt>
      <trkpt lat="42.96009" lon="0.48145">
        <ele>1591.87</ele>
        <time>2015-06-09T10:48:27Z</time>
      </trkpt>
      <trkpt lat="42.96015" lon="0.48156">
        <ele>1590.36</ele>
        <time>2015-06-09T10:48:38Z</time>
      </trkpt>
      <trkpt lat="42.96019" lon="0.48168">
        <ele>1589.89</ele>
        <time>2015-06-09T10:48:47Z</time>
      </trkpt>
      <trkpt lat="42.96024" lon="0.4818">
        <ele>1590.01</ele>
        <time>2015-06-09T10:48:55Z</time>
      </trkpt>
      <trkpt lat="42.96031" lon="0.4819">
        <ele>1593.26</ele>
        <time>2015-06-09T10:49:14Z</time>
      </trkpt>
      <trkpt lat="42.96035" lon="0.48201">
        <ele>1591.35</ele>
        <time>2015-06-09T10:49:27Z</time>
      </trkpt>
      <trkpt lat="42.96039" lon="0.48212">
        <ele>1586.87</ele>
        <time>2015-06-09T10:49:37Z</time>
      </trkpt>
      <trkpt lat="42.96044" lon="0.48224">
        <ele>1587.22</ele>
        <time>2015-06-09T10:49:45Z</time>
      </trkpt>
      <trkpt lat="42.96051" lon="0.48233">
        <ele>1586.27</ele>
        <time>2015-06-09T10:49:53Z</time>
      </trkpt>
      <trkpt lat="42.96059" lon="0.48242">
        <ele>1585.51</ele>
        <time>2015-06-09T10:50:03Z</time>
      </trkpt>
      <trkpt lat="42.96066" lon="0.4825">
        <ele>1586.76</ele>
        <time>2015-06-09T10:50:10Z</time>
      </trkpt>
      <trkpt lat="42.96071" lon="0.48261">
        <ele>1586.71</ele>
        <time>2015-06-09T10:50:18Z</time>
      </trkpt>
      <trkpt lat="42.96077" lon="0.4827">
        <ele>1585.33</ele>
        <time>2015-06-09T10:50:32Z</time>
      </trkpt>
      <trkpt lat="42.96083" lon="0.4828">
        <ele>1582.6</ele>
        <time>2015-06-09T10:50:41Z</time>
      </trkpt>
      <trkpt lat="42.9609" lon="0.48288">
        <ele>1584.73</ele>
        <time>2015-06-09T10:50:51Z</time>
      </trkpt>
      <trkpt lat="42.96096" lon="0.48299">
        <ele>1585.99</ele>
        <time>2015-06-09T10:51:03Z</time>
      </trkpt>
      <trkpt lat="42.96102" lon="0.48309">
        <ele>1587.24</ele>
        <time>2015-06-09T10:51:13Z</time>
      </trkpt>
      <trkpt lat="42.96108" lon="0.48319">
        <ele>1588.63</ele>
        <time>2015-06-09T10:51:22Z</time>
      </trkpt>
      <trkpt lat="42.96114" lon="0.4833">
        <ele>1589.79</ele>
        <time>2015-06-09T10:51:31Z</time>
      </trkpt>
      <trkpt lat="42.9612" lon="0.4834">
        <ele>1590.25</ele>
        <time>2015-06-09T10:51:40Z</time>
      </trkpt>
      <trkpt lat="42.96128" lon="0.48348">
        <ele>1591.09</ele>
        <time>2015-06-09T10:51:50Z</time>
      </trkpt>
      <trkpt lat="42.96135" lon="0.48357">
        <ele>1591.4</ele>
        <time>2015-06-09T10:52:00Z</time>
      </trkpt>
      <trkpt lat="42.9614" lon="0.48368">
        <ele>1591.29</ele>
        <time>2015-06-09T10:52:10Z</time>
      </trkpt>
      <trkpt lat="42.96145" lon="0.4838">
        <ele>1587.37</ele>
        <time>2015-06-09T10:52:19Z</time>
      </trkpt>
      <trkpt lat="42.9615" lon="0.48391">
        <ele>1591.87</ele>
        <time>2015-06-09T10:52:27Z</time>
      </trkpt>
      <trkpt lat="42.96157" lon="0.484">
        <ele>1593.02</ele>
        <time>2015-06-09T10:52:35Z</time>
      </trkpt>
      <trkpt lat="42.96162" lon="0.48411">
        <ele>1592.7</ele>
        <time>2015-06-09T10:52:45Z</time>
      </trkpt>
      <trkpt lat="42.96167" lon="0.48423">
        <ele>1591.36</ele>
        <time>2015-06-09T10:52:55Z</time>
      </trkpt>
      <trkpt lat="42.96171" lon="0.48435">
        <ele>1593.42</ele>
        <time>2015-06-09T10:53:05Z</time>
      </trkpt>
      <trkpt lat="42.96177" lon="0.48444">
        <ele>1587.84</ele>
        <time>2015-06-09T10:53:14Z</time>
      </trkpt>
      <trkpt lat="42.96182" lon="0.48454">
        <ele>1587.78</ele>
        <time>2015-06-09T10:53:22Z</time>
      </trkpt>
      <trkpt lat="42.96189" lon="0.48464">
        <ele>1588.58</ele>
        <time>2015-06-09T10:53:31Z</time>
      </trkpt>
      <trkpt lat="42.96196" lon="0.48472">
        <ele>1593.31</ele>
        <time>2015-06-09T10:53:42Z</time>
      </trkpt>
      <trkpt lat="42.96203" lon="0.48481">
        <ele>1597.42</ele>
        <time>2015-06-09T10:53:52Z</time>
      </trkpt>
      <trkpt lat="42.9621" lon="0.4849">
        <ele>1599.64</ele>
        <time>2015-06-09T10:54:01Z</time>
      </trkpt>
      <trkpt lat="42.96217" lon="0.48498">
        <ele>1600.45</ele>
        <time>2015-06-09T10:54:12Z</time>
      </trkpt>
      <trkpt lat="42.96223" lon="0.48508">
        <ele>1594.81</ele>
        <time>2015-06-09T10:54:30Z</time>
      </trkpt>
      <trkpt lat="42.96231" lon="0.48515">
        <ele>1598.6</ele>
        <time>2015-06-09T10:54:39Z</time>
      </trkpt>
      <trkpt lat="42.96239" lon="0.48523">
        <ele>1597.32</ele>
        <time>2015-06-09T10:54:55Z</time>
      </trkpt>
      <trkpt lat="42.96246" lon="0.48531">
        <ele>1586.55</ele>
        <time>2015-06-09T10:55:08Z</time>
      </trkpt>
      <trkpt lat="42.96254" lon="0.48537">
        <ele>1597.88</ele>
        <time>2015-06-09T10:55:20Z</time>
      </trkpt>
      <trkpt lat="42.96263" lon="0.48541">
        <ele>1602.19</ele>
        <time>2015-06-09T10:55:38Z</time>
      </trkpt>
      <trkpt lat="42.96272" lon="0.48544">
        <ele>1604.67</ele>
        <time>2015-06-09T10:56:09Z</time>
      </trkpt>
      <trkpt lat="42.9628" lon="0.4855">
        <ele>1601.41</ele>
        <time>2015-06-09T10:56:33Z</time>
      </trkpt>
      <trkpt lat="42.96289" lon="0.48552">
        <ele>1612.27</ele>
        <time>2015-06-09T10:56:50Z</time>
      </trkpt>
      <trkpt lat="42.96298" lon="0.48558">
        <ele>1611.83</ele>
        <time>2015-06-09T10:59:51Z</time>
      </trkpt>
      <trkpt lat="42.96306" lon="0.48564">
        <ele>1606.78</ele>
        <time>2015-06-09T11:04:17Z</time>
      </trkpt>
      <trkpt lat="42.9631" lon="0.48575">
        <ele>1604.53</ele>
        <time>2015-06-09T11:04:27Z</time>
      </trkpt>
      <trkpt lat="42.96316" lon="0.48585">
        <ele>1602.44</ele>
        <time>2015-06-09T11:04:38Z</time>
      </trkpt>
      <trkpt lat="42.96318" lon="0.48597">
        <ele>1603.29</ele>
        <time>2015-06-09T11:04:49Z</time>
      </trkpt>
      <trkpt lat="42.96319" lon="0.48609">
        <ele>1601.52</ele>
        <time>2015-06-09T11:05:05Z</time>
      </trkpt>
      <trkpt lat="42.96319" lon="0.48623">
        <ele>1600.55</ele>
        <time>2015-06-09T11:05:15Z</time>
      </trkpt>
      <trkpt lat="42.96319" lon="0.48636">
        <ele>1599.4</ele>
        <time>2015-06-09T11:05:24Z</time>
      </trkpt>
      <trkpt lat="42.96324" lon="0.48648">
        <ele>1597.71</ele>
        <time>2015-06-09T11:05:34Z</time>
      </trkpt>
      <trkpt lat="42.9633" lon="0.48658">
        <ele>1597.05</ele>
        <time>2015-06-09T11:05:42Z</time>
      </trkpt>
      <trkpt lat="42.96336" lon="0.48668">
        <ele>1597.57</ele>
        <time>2015-06-09T11:05:51Z</time>
      </trkpt>
      <trkpt lat="42.96342" lon="0.48678">
        <ele>1593.55</ele>
        <time>2015-06-09T11:06:03Z</time>
      </trkpt>
      <trkpt lat="42.96344" lon="0.4869">
        <ele>1589.34</ele>
        <time>2015-06-09T11:06:14Z</time>
      </trkpt>
      <trkpt lat="42.96349" lon="0.48701">
        <ele>1585.69</ele>
        <time>2015-06-09T11:06:33Z</time>
      </trkpt>
      <trkpt lat="42.96356" lon="0.48711">
        <ele>1580.11</ele>
        <time>2015-06-09T11:06:45Z</time>
      </trkpt>
      <trkpt lat="42.96363" lon="0.4872">
        <ele>1576.77</ele>
        <time>2015-06-09T11:06:58Z</time>
      </trkpt>
      <trkpt lat="42.96366" lon="0.48731">
        <ele>1575.89</ele>
        <time>2015-06-09T11:07:08Z</time>
      </trkpt>
      <trkpt lat="42.9637" lon="0.48743">
        <ele>1572.42</ele>
        <time>2015-06-09T11:07:19Z</time>
      </trkpt>
      <trkpt lat="42.96373" lon="0.48755">
        <ele>1568.66</ele>
        <time>2015-06-09T11:07:33Z</time>
      </trkpt>
      <trkpt lat="42.96378" lon="0.48766">
        <ele>1570.73</ele>
        <time>2015-06-09T11:07:47Z</time>
      </trkpt>
      <trkpt lat="42.96383" lon="0.48778">
        <ele>1566.42</ele>
        <time>2015-06-09T11:08:11Z</time>
      </trkpt>
      <trkpt lat="42.96385" lon="0.48791">
        <ele>1562.7</ele>
        <time>2015-06-09T11:08:21Z</time>
      </trkpt>
      <trkpt lat="42.96388" lon="0.48803">
        <ele>1560.56</ele>
        <time>2015-06-09T11:08:34Z</time>
      </trkpt>
      <trkpt lat="42.9639" lon="0.48815">
        <ele>1558.24</ele>
        <time>2015-06-09T11:08:46Z</time>
      </trkpt>
      <trkpt lat="42.96391" lon="0.48829">
        <ele>1560.97</ele>
        <time>2015-06-09T11:08:58Z</time>
      </trkpt>
      <trkpt lat="42.96397" lon="0.4884">
        <ele>1558.54</ele>
        <time>2015-06-09T11:09:06Z</time>
      </trkpt>
      <trkpt lat="42.96402" lon="0.48851">
        <ele>1554.33</ele>
        <time>2015-06-09T11:09:17Z</time>
      </trkpt>
      <trkpt lat="42.96405" lon="0.48864">
        <ele>1553.42</ele>
        <time>2015-06-09T11:09:27Z</time>
      </trkpt>
      <trkpt lat="42.96409" lon="0.48875">
        <ele>1551.45</ele>
        <time>2015-06-09T11:09:36Z</time>
      </trkpt>
      <trkpt lat="42.96415" lon="0.48887">
        <ele>1549.04</ele>
        <time>2015-06-09T11:09:46Z</time>
      </trkpt>
      <trkpt lat="42.9642" lon="0.48898">
        <ele>1554.22</ele>
        <time>2015-06-09T11:09:55Z</time>
      </trkpt>
      <trkpt lat="42.96425" lon="0.48909">
        <ele>1555.77</ele>
        <time>2015-06-09T11:10:04Z</time>
      </trkpt>
      <trkpt lat="42.96431" lon="0.48917">
        <ele>1554.26</ele>
        <time>2015-06-09T11:10:12Z</time>
      </trkpt>
      <trkpt lat="42.96437" lon="0.48927">
        <ele>1555.56</ele>
        <time>2015-06-09T11:10:21Z</time>
      </trkpt>
      <trkpt lat="42.96445" lon="0.48932">
        <ele>1552.41</ele>
        <time>2015-06-09T11:10:31Z</time>
      </trkpt>
      <trkpt lat="42.96453" lon="0.4894">
        <ele>1549.16</ele>
        <time>2015-06-09T11:10:40Z</time>
      </trkpt>
      <trkpt lat="42.96458" lon="0.48951">
        <ele>1550.04</ele>
        <time>2015-06-09T11:10:49Z</time>
      </trkpt>
      <trkpt lat="42.96461" lon="0.48962">
        <ele>1550.64</ele>
        <time>2015-06-09T11:10:58Z</time>
      </trkpt>
      <trkpt lat="42.96465" lon="0.48975">
        <ele>1552.12</ele>
        <time>2015-06-09T11:11:08Z</time>
      </trkpt>
      <trkpt lat="42.96468" lon="0.48987">
        <ele>1551.4</ele>
        <time>2015-06-09T11:11:18Z</time>
      </trkpt>
      <trkpt lat="42.96473" lon="0.48998">
        <ele>1550.8</ele>
        <time>2015-06-09T11:11:27Z</time>
      </trkpt>
      <trkpt lat="42.96481" lon="0.49006">
        <ele>1553.85</ele>
        <time>2015-06-09T11:11:38Z</time>
      </trkpt>
      <trkpt lat="42.96487" lon="0.49015">
        <ele>1558.71</ele>
        <time>2015-06-09T11:11:52Z</time>
      </trkpt>
      <trkpt lat="42.96494" lon="0.49023">
        <ele>1560.42</ele>
        <time>2015-06-09T11:12:10Z</time>
      </trkpt>
      <trkpt lat="42.965" lon="0.49013">
        <ele>1556.89</ele>
        <time>2015-06-09T11:15:50Z</time>
      </trkpt>
      <trkpt lat="42.96501" lon="0.49">
        <ele>1558.08</ele>
        <time>2015-06-09T11:16:00Z</time>
      </trkpt>
      <trkpt lat="42.96501" lon="0.48988">
        <ele>1559.75</ele>
        <time>2015-06-09T11:16:24Z</time>
      </trkpt>
      <trkpt lat="42.96501" lon="0.48975">
        <ele>1558.22</ele>
        <time>2015-06-09T11:16:33Z</time>
      </trkpt>
      <trkpt lat="42.96504" lon="0.48962">
        <ele>1556.78</ele>
        <time>2015-06-09T11:16:41Z</time>
      </trkpt>
      <trkpt lat="42.96508" lon="0.48951">
        <ele>1549</ele>
        <time>2015-06-09T11:16:49Z</time>
      </trkpt>
      <trkpt lat="42.96507" lon="0.48939">
        <ele>1547.7</ele>
        <time>2015-06-09T11:16:58Z</time>
      </trkpt>
      <trkpt lat="42.96508" lon="0.48925">
        <ele>1543.64</ele>
        <time>2015-06-09T11:17:06Z</time>
      </trkpt>
      <trkpt lat="42.96508" lon="0.48913">
        <ele>1545.18</ele>
        <time>2015-06-09T11:17:14Z</time>
      </trkpt>
      <trkpt lat="42.96507" lon="0.489">
        <ele>1541.91</ele>
        <time>2015-06-09T11:17:23Z</time>
      </trkpt>
      <trkpt lat="42.96503" lon="0.48888">
        <ele>1538.31</ele>
        <time>2015-06-09T11:17:34Z</time>
      </trkpt>
      <trkpt lat="42.96504" lon="0.48875">
        <ele>1542.41</ele>
        <time>2015-06-09T11:17:42Z</time>
      </trkpt>
      <trkpt lat="42.96504" lon="0.48863">
        <ele>1541.76</ele>
        <time>2015-06-09T11:17:50Z</time>
      </trkpt>
      <trkpt lat="42.96504" lon="0.4885">
        <ele>1541.51</ele>
        <time>2015-06-09T11:17:59Z</time>
      </trkpt>
      <trkpt lat="42.96505" lon="0.48837">
        <ele>1538.81</ele>
        <time>2015-06-09T11:18:10Z</time>
      </trkpt>
      <trkpt lat="42.96507" lon="0.48824">
        <ele>1537.39</ele>
        <time>2015-06-09T11:18:17Z</time>
      </trkpt>
      <trkpt lat="42.96508" lon="0.4881">
        <ele>1537.74</ele>
        <time>2015-06-09T11:18:25Z</time>
      </trkpt>
      <trkpt lat="42.96509" lon="0.48797">
        <ele>1544.49</ele>
        <time>2015-06-09T11:18:33Z</time>
      </trkpt>
      <trkpt lat="42.9651" lon="0.48785">
        <ele>1543.6</ele>
        <time>2015-06-09T11:18:40Z</time>
      </trkpt>
      <trkpt lat="42.96512" lon="0.48771">
        <ele>1547.42</ele>
        <time>2015-06-09T11:18:49Z</time>
      </trkpt>
      <trkpt lat="42.96512" lon="0.48759">
        <ele>1546.46</ele>
        <time>2015-06-09T11:19:00Z</time>
      </trkpt>
      <trkpt lat="42.96512" lon="0.48746">
        <ele>1537.11</ele>
        <time>2015-06-09T11:20:14Z</time>
      </trkpt>
      <trkpt lat="42.96507" lon="0.48735">
        <ele>1539.7</ele>
        <time>2015-06-09T11:20:24Z</time>
      </trkpt>
      <trkpt lat="42.96499" lon="0.48727">
        <ele>1545.35</ele>
        <time>2015-06-09T11:20:37Z</time>
      </trkpt>
      <trkpt lat="42.96501" lon="0.48741">
        <ele>1547.65</ele>
        <time>2015-06-09T11:23:59Z</time>
      </trkpt>
      <trkpt lat="42.96507" lon="0.4875">
        <ele>1546.39</ele>
        <time>2015-06-09T11:24:10Z</time>
      </trkpt>
      <trkpt lat="42.96511" lon="0.48762">
        <ele>1546.24</ele>
        <time>2015-06-09T11:24:19Z</time>
      </trkpt>
      <trkpt lat="42.96517" lon="0.48772">
        <ele>1546.27</ele>
        <time>2015-06-09T11:24:26Z</time>
      </trkpt>
      <trkpt lat="42.96521" lon="0.48784">
        <ele>1544.14</ele>
        <time>2015-06-09T11:24:33Z</time>
      </trkpt>
      <trkpt lat="42.96526" lon="0.48795">
        <ele>1542.81</ele>
        <time>2015-06-09T11:24:40Z</time>
      </trkpt>
      <trkpt lat="42.9653" lon="0.48806">
        <ele>1543.73</ele>
        <time>2015-06-09T11:24:49Z</time>
      </trkpt>
      <trkpt lat="42.96535" lon="0.48817">
        <ele>1543.8</ele>
        <time>2015-06-09T11:24:58Z</time>
      </trkpt>
      <trkpt lat="42.96541" lon="0.48827">
        <ele>1541.29</ele>
        <time>2015-06-09T11:25:07Z</time>
      </trkpt>
      <trkpt lat="42.96546" lon="0.48839">
        <ele>1540.89</ele>
        <time>2015-06-09T11:25:16Z</time>
      </trkpt>
      <trkpt lat="42.96553" lon="0.48847">
        <ele>1539.75</ele>
        <time>2015-06-09T11:25:23Z</time>
      </trkpt>
      <trkpt lat="42.96559" lon="0.48857">
        <ele>1543.14</ele>
        <time>2015-06-09T11:25:31Z</time>
      </trkpt>
      <trkpt lat="42.96566" lon="0.48867">
        <ele>1541.79</ele>
        <time>2015-06-09T11:25:41Z</time>
      </trkpt>
      <trkpt lat="42.96573" lon="0.48876">
        <ele>1543.11</ele>
        <time>2015-06-09T11:25:52Z</time>
      </trkpt>
      <trkpt lat="42.96581" lon="0.48883">
        <ele>1544.17</ele>
        <time>2015-06-09T11:26:01Z</time>
      </trkpt>
      <trkpt lat="42.9659" lon="0.48888">
        <ele>1542.86</ele>
        <time>2015-06-09T11:26:09Z</time>
      </trkpt>
      <trkpt lat="42.96598" lon="0.48896">
        <ele>1541.21</ele>
        <time>2015-06-09T11:26:17Z</time>
      </trkpt>
      <trkpt lat="42.96607" lon="0.48901">
        <ele>1544.9</ele>
        <time>2015-06-09T11:26:26Z</time>
      </trkpt>
      <trkpt lat="42.96615" lon="0.48903">
        <ele>1546.1</ele>
        <time>2015-06-09T11:26:38Z</time>
      </trkpt>
      <trkpt lat="42.96623" lon="0.48912">
        <ele>1547.74</ele>
        <time>2015-06-09T11:27:00Z</time>
      </trkpt>
      <trkpt lat="42.96631" lon="0.48918">
        <ele>1550.48</ele>
        <time>2015-06-09T11:27:21Z</time>
      </trkpt>
      <trkpt lat="42.9664" lon="0.48923">
        <ele>1551.31</ele>
        <time>2015-06-09T11:27:32Z</time>
      </trkpt>
      <trkpt lat="42.96648" lon="0.4893">
        <ele>1555.08</ele>
        <time>2015-06-09T11:27:58Z</time>
      </trkpt>
      <trkpt lat="42.96656" lon="0.48936">
        <ele>1554.15</ele>
        <time>2015-06-09T11:28:08Z</time>
      </trkpt>
      <trkpt lat="42.96664" lon="0.48943">
        <ele>1556.02</ele>
        <time>2015-06-09T11:28:18Z</time>
      </trkpt>
      <trkpt lat="42.96672" lon="0.48951">
        <ele>1558.14</ele>
        <time>2015-06-09T11:28:30Z</time>
      </trkpt>
      <trkpt lat="42.96665" lon="0.48961">
        <ele>1562.03</ele>
        <time>2015-06-09T11:28:53Z</time>
      </trkpt>
      <trkpt lat="42.96658" lon="0.48969">
        <ele>1566.39</ele>
        <time>2015-06-09T11:29:07Z</time>
      </trkpt>
      <trkpt lat="42.96669" lon="0.48973">
        <ele>1561.83</ele>
        <time>2015-06-09T11:29:34Z</time>
      </trkpt>
      <trkpt lat="42.96669" lon="0.48986">
        <ele>1572.86</ele>
        <time>2015-06-09T11:30:12Z</time>
      </trkpt>
      <trkpt lat="42.96668" lon="0.48998">
        <ele>1581.86</ele>
        <time>2015-06-09T11:32:35Z</time>
      </trkpt>
      <trkpt lat="42.96673" lon="0.49009">
        <ele>1583.49</ele>
        <time>2015-06-09T11:32:49Z</time>
      </trkpt>
      <trkpt lat="42.96679" lon="0.49019">
        <ele>1580.91</ele>
        <time>2015-06-09T11:33:03Z</time>
      </trkpt>
      <trkpt lat="42.96685" lon="0.49029">
        <ele>1578.99</ele>
        <time>2015-06-09T11:33:36Z</time>
      </trkpt>
      <trkpt lat="42.96692" lon="0.49036">
        <ele>1582.02</ele>
        <time>2015-06-09T11:35:00Z</time>
      </trkpt>
      <trkpt lat="42.96691" lon="0.49051">
        <ele>1582.27</ele>
        <time>2015-06-09T11:35:49Z</time>
      </trkpt>
      <trkpt lat="42.96692" lon="0.49064">
        <ele>1582.61</ele>
        <time>2015-06-09T11:36:42Z</time>
      </trkpt>
      <trkpt lat="42.96696" lon="0.49074">
        <ele>1586.9</ele>
        <time>2015-06-09T11:36:52Z</time>
      </trkpt>
      <trkpt lat="42.967" lon="0.49086">
        <ele>1588.52</ele>
        <time>2015-06-09T11:37:44Z</time>
      </trkpt>
      <trkpt lat="42.96705" lon="0.49097">
        <ele>1584.52</ele>
        <time>2015-06-09T11:38:46Z</time>
      </trkpt>
      <trkpt lat="42.96707" lon="0.4911">
        <ele>1579.73</ele>
        <time>2015-06-09T11:38:53Z</time>
      </trkpt>
      <trkpt lat="42.96711" lon="0.49123">
        <ele>1581.27</ele>
        <time>2015-06-09T11:39:26Z</time>
      </trkpt>
      <trkpt lat="42.96715" lon="0.49134">
        <ele>1579.21</ele>
        <time>2015-06-09T11:39:34Z</time>
      </trkpt>
      <trkpt lat="42.96723" lon="0.49142">
        <ele>1580.53</ele>
        <time>2015-06-09T11:39:40Z</time>
      </trkpt>
      <trkpt lat="42.96731" lon="0.49151">
        <ele>1583.66</ele>
        <time>2015-06-09T11:41:01Z</time>
      </trkpt>
      <trkpt lat="42.96734" lon="0.49163">
        <ele>1582.77</ele>
        <time>2015-06-09T11:42:24Z</time>
      </trkpt>
      <trkpt lat="42.96733" lon="0.49177">
        <ele>1573.4</ele>
        <time>2015-06-09T11:42:31Z</time>
      </trkpt>
      <trkpt lat="42.96739" lon="0.49186">
        <ele>1576.2</ele>
        <time>2015-06-09T11:42:58Z</time>
      </trkpt>
      <trkpt lat="42.96746" lon="0.49193">
        <ele>1573.21</ele>
        <time>2015-06-09T11:43:32Z</time>
      </trkpt>
      <trkpt lat="42.96754" lon="0.49203">
        <ele>1566.23</ele>
        <time>2015-06-09T11:44:07Z</time>
      </trkpt>
      <trkpt lat="42.9676" lon="0.49212">
        <ele>1564.95</ele>
        <time>2015-06-09T11:44:14Z</time>
      </trkpt>
      <trkpt lat="42.96769" lon="0.49217">
        <ele>1564.33</ele>
        <time>2015-06-09T11:45:05Z</time>
      </trkpt>
      <trkpt lat="42.96777" lon="0.49221">
        <ele>1558.52</ele>
        <time>2015-06-09T11:45:10Z</time>
      </trkpt>
      <trkpt lat="42.96784" lon="0.4923">
        <ele>1555.96</ele>
        <time>2015-06-09T11:46:19Z</time>
      </trkpt>
      <trkpt lat="42.96788" lon="0.49241">
        <ele>1554.88</ele>
        <time>2015-06-09T11:46:30Z</time>
      </trkpt>
      <trkpt lat="42.96798" lon="0.49246">
        <ele>1557.35</ele>
        <time>2015-06-09T11:46:39Z</time>
      </trkpt>
      <trkpt lat="42.96807" lon="0.49251">
        <ele>1555.29</ele>
        <time>2015-06-09T11:46:50Z</time>
      </trkpt>
      <trkpt lat="42.96815" lon="0.49257">
        <ele>1550.89</ele>
        <time>2015-06-09T11:48:09Z</time>
      </trkpt>
      <trkpt lat="42.96823" lon="0.49265">
        <ele>1549.47</ele>
        <time>2015-06-09T11:48:42Z</time>
      </trkpt>
      <trkpt lat="42.96832" lon="0.4927">
        <ele>1540.61</ele>
        <time>2015-06-09T11:48:53Z</time>
      </trkpt>
      <trkpt lat="42.96842" lon="0.49271">
        <ele>1535.31</ele>
        <time>2015-06-09T11:49:19Z</time>
      </trkpt>
      <trkpt lat="42.9685" lon="0.49278">
        <ele>1534.29</ele>
        <time>2015-06-09T11:49:51Z</time>
      </trkpt>
      <trkpt lat="42.96856" lon="0.49288">
        <ele>1528.95</ele>
        <time>2015-06-09T11:50:28Z</time>
      </trkpt>
      <trkpt lat="42.96864" lon="0.49293">
        <ele>1527.64</ele>
        <time>2015-06-09T11:50:45Z</time>
      </trkpt>
      <trkpt lat="42.96873" lon="0.49297">
        <ele>1525.47</ele>
        <time>2015-06-09T11:50:50Z</time>
      </trkpt>
      <trkpt lat="42.96881" lon="0.49305">
        <ele>1521.49</ele>
        <time>2015-06-09T11:51:12Z</time>
      </trkpt>
      <trkpt lat="42.96888" lon="0.49313">
        <ele>1520.73</ele>
        <time>2015-06-09T11:51:20Z</time>
      </trkpt>
      <trkpt lat="42.96893" lon="0.49323">
        <ele>1518.3</ele>
        <time>2015-06-09T11:54:02Z</time>
      </trkpt>
      <trkpt lat="42.96902" lon="0.49327">
        <ele>1516.33</ele>
        <time>2015-06-09T11:54:19Z</time>
      </trkpt>
      <trkpt lat="42.96911" lon="0.49332">
        <ele>1515.36</ele>
        <time>2015-06-09T11:54:30Z</time>
      </trkpt>
      <trkpt lat="42.96919" lon="0.49339">
        <ele>1516.27</ele>
        <time>2015-06-09T11:54:38Z</time>
      </trkpt>
      <trkpt lat="42.96928" lon="0.49345">
        <ele>1513.09</ele>
        <time>2015-06-09T11:54:46Z</time>
      </trkpt>
      <trkpt lat="42.96923" lon="0.49357">
        <ele>1505.12</ele>
        <time>2015-06-09T11:55:16Z</time>
      </trkpt>
      <trkpt lat="42.96914" lon="0.49361">
        <ele>1505.82</ele>
        <time>2015-06-09T11:55:30Z</time>
      </trkpt>
      <trkpt lat="42.96905" lon="0.49364">
        <ele>1500.8</ele>
        <time>2015-06-09T11:56:30Z</time>
      </trkpt>
      <trkpt lat="42.96896" lon="0.49367">
        <ele>1499.02</ele>
        <time>2015-06-09T11:56:59Z</time>
      </trkpt>
      <trkpt lat="42.96887" lon="0.49372">
        <ele>1487.89</ele>
        <time>2015-06-09T11:57:05Z</time>
      </trkpt>
      <trkpt lat="42.96879" lon="0.49376">
        <ele>1488.32</ele>
        <time>2015-06-09T11:57:25Z</time>
      </trkpt>
      <trkpt lat="42.96869" lon="0.49382">
        <ele>1490.77</ele>
        <time>2015-06-09T11:58:09Z</time>
      </trkpt>
      <trkpt lat="42.96858" lon="0.49387">
        <ele>1491.58</ele>
        <time>2015-06-09T11:58:12Z</time>
      </trkpt>
      <trkpt lat="42.96845" lon="0.49391">
        <ele>1488.06</ele>
        <time>2015-06-09T11:58:15Z</time>
      </trkpt>
      <trkpt lat="42.96836" lon="0.49394">
        <ele>1485.12</ele>
        <time>2015-06-09T11:58:18Z</time>
      </trkpt>
      <trkpt lat="42.96826" lon="0.49395">
        <ele>1481.76</ele>
        <time>2015-06-09T11:58:22Z</time>
      </trkpt>
      <trkpt lat="42.96825" lon="0.49408">
        <ele>1472.32</ele>
        <time>2015-06-09T11:59:15Z</time>
      </trkpt>
      <trkpt lat="42.96823" lon="0.49421">
        <ele>1474.49</ele>
        <time>2015-06-09T11:59:23Z</time>
      </trkpt>
      <trkpt lat="42.96818" lon="0.49432">
        <ele>1469.48</ele>
        <time>2015-06-09T11:59:32Z</time>
      </trkpt>
      <trkpt lat="42.9681" lon="0.4944">
        <ele>1465.83</ele>
        <time>2015-06-09T11:59:44Z</time>
      </trkpt>
      <trkpt lat="42.96801" lon="0.49443">
        <ele>1460.97</ele>
        <time>2015-06-09T11:59:54Z</time>
      </trkpt>
      <trkpt lat="42.96793" lon="0.49451">
        <ele>1466.67</ele>
        <time>2015-06-09T12:00:10Z</time>
      </trkpt>
      <trkpt lat="42.96785" lon="0.49456">
        <ele>1465.75</ele>
        <time>2015-06-09T12:00:28Z</time>
      </trkpt>
      <trkpt lat="42.9678" lon="0.49466">
        <ele>1468.98</ele>
        <time>2015-06-09T12:00:45Z</time>
      </trkpt>
      <trkpt lat="42.9677" lon="0.49469">
        <ele>1459.53</ele>
        <time>2015-06-09T12:01:11Z</time>
      </trkpt>
      <trkpt lat="42.96762" lon="0.49477">
        <ele>1456.84</ele>
        <time>2015-06-09T12:01:16Z</time>
      </trkpt>
      <trkpt lat="42.96758" lon="0.49488">
        <ele>1460.06</ele>
        <time>2015-06-09T12:01:23Z</time>
      </trkpt>
      <trkpt lat="42.96757" lon="0.49502">
        <ele>1450.6</ele>
        <time>2015-06-09T12:03:17Z</time>
      </trkpt>
      <trkpt lat="42.96757" lon="0.49514">
        <ele>1437.14</ele>
        <time>2015-06-09T12:03:26Z</time>
      </trkpt>
      <trkpt lat="42.9676" lon="0.49527">
        <ele>1441.27</ele>
        <time>2015-06-09T12:03:59Z</time>
      </trkpt>
      <trkpt lat="42.96768" lon="0.49535">
        <ele>1445.89</ele>
        <time>2015-06-09T12:04:03Z</time>
      </trkpt>
      <trkpt lat="42.96773" lon="0.49548">
        <ele>1444.02</ele>
        <time>2015-06-09T12:04:22Z</time>
      </trkpt>
      <trkpt lat="42.96777" lon="0.4956">
        <ele>1438.96</ele>
        <time>2015-06-09T12:04:29Z</time>
      </trkpt>
      <trkpt lat="42.96778" lon="0.49574">
        <ele>1438.53</ele>
        <time>2015-06-09T12:05:03Z</time>
      </trkpt>
      <trkpt lat="42.96784" lon="0.49583">
        <ele>1434.43</ele>
        <time>2015-06-09T12:05:08Z</time>
      </trkpt>
      <trkpt lat="42.96786" lon="0.49596">
        <ele>1425.95</ele>
        <time>2015-06-09T12:05:39Z</time>
      </trkpt>
      <trkpt lat="42.96791" lon="0.49606">
        <ele>1423.33</ele>
        <time>2015-06-09T12:05:46Z</time>
      </trkpt>
      <trkpt lat="42.96798" lon="0.49616">
        <ele>1420.52</ele>
        <time>2015-06-09T12:06:08Z</time>
      </trkpt>
      <trkpt lat="42.96804" lon="0.49627">
        <ele>1416.65</ele>
        <time>2015-06-09T12:06:13Z</time>
      </trkpt>
      <trkpt lat="42.9681" lon="0.49638">
        <ele>1420.67</ele>
        <time>2015-06-09T12:06:17Z</time>
      </trkpt>
      <trkpt lat="42.96818" lon="0.49647">
        <ele>1422.17</ele>
        <time>2015-06-09T12:06:21Z</time>
      </trkpt>
      <trkpt lat="42.96826" lon="0.49654">
        <ele>1421.84</ele>
        <time>2015-06-09T12:06:32Z</time>
      </trkpt>
      <trkpt lat="42.96836" lon="0.49657">
        <ele>1420.39</ele>
        <time>2015-06-09T12:06:44Z</time>
      </trkpt>
      <trkpt lat="42.96845" lon="0.4966">
        <ele>1417.31</ele>
        <time>2015-06-09T12:06:55Z</time>
      </trkpt>
      <trkpt lat="42.96854" lon="0.49661">
        <ele>1421.96</ele>
        <time>2015-06-09T12:07:01Z</time>
      </trkpt>
      <trkpt lat="42.96863" lon="0.49656">
        <ele>1421.39</ele>
        <time>2015-06-09T12:07:36Z</time>
      </trkpt>
      <trkpt lat="42.96871" lon="0.49651">
        <ele>1419.27</ele>
        <time>2015-06-09T12:09:11Z</time>
      </trkpt>
      <trkpt lat="42.96881" lon="0.49651">
        <ele>1416.14</ele>
        <time>2015-06-09T12:09:26Z</time>
      </trkpt>
      <trkpt lat="42.96891" lon="0.49651">
        <ele>1412.7</ele>
        <time>2015-06-09T12:09:42Z</time>
      </trkpt>
      <trkpt lat="42.96901" lon="0.49649">
        <ele>1412.27</ele>
        <time>2015-06-09T12:09:50Z</time>
      </trkpt>
      <trkpt lat="42.96906" lon="0.49638">
        <ele>1409.05</ele>
        <time>2015-06-09T12:10:04Z</time>
      </trkpt>
      <trkpt lat="42.96917" lon="0.49638">
        <ele>1414.77</ele>
        <time>2015-06-09T12:12:05Z</time>
      </trkpt>
      <trkpt lat="42.96926" lon="0.49635">
        <ele>1411.97</ele>
        <time>2015-06-09T12:12:10Z</time>
      </trkpt>
      <trkpt lat="42.96917" lon="0.49636">
        <ele>1411.27</ele>
        <time>2015-06-09T12:12:37Z</time>
      </trkpt>
      <trkpt lat="42.96924" lon="0.49645">
        <ele>1393.9</ele>
        <time>2015-06-09T12:15:56Z</time>
      </trkpt>
      <trkpt lat="42.96929" lon="0.49657">
        <ele>1384.77</ele>
        <time>2015-06-09T12:16:23Z</time>
      </trkpt>
      <trkpt lat="42.96933" lon="0.49669">
        <ele>1389.45</ele>
        <time>2015-06-09T12:16:29Z</time>
      </trkpt>
      <trkpt lat="42.96936" lon="0.49683">
        <ele>1387.99</ele>
        <time>2015-06-09T12:16:36Z</time>
      </trkpt>
      <trkpt lat="42.96936" lon="0.49697">
        <ele>1391.72</ele>
        <time>2015-06-09T12:16:42Z</time>
      </trkpt>
      <trkpt lat="42.96939" lon="0.49708">
        <ele>1394.79</ele>
        <time>2015-06-09T12:16:48Z</time>
      </trkpt>
      <trkpt lat="42.96942" lon="0.4972">
        <ele>1390.37</ele>
        <time>2015-06-09T12:17:02Z</time>
      </trkpt>
      <trkpt lat="42.96946" lon="0.49731">
        <ele>1388.16</ele>
        <time>2015-06-09T12:17:11Z</time>
      </trkpt>
      <trkpt lat="42.96949" lon="0.49744">
        <ele>1377.05</ele>
        <time>2015-06-09T12:17:21Z</time>
      </trkpt>
      <trkpt lat="42.96952" lon="0.49756">
        <ele>1369.27</ele>
        <time>2015-06-09T12:17:31Z</time>
      </trkpt>
      <trkpt lat="42.96954" lon="0.49769">
        <ele>1410.95</ele>
        <time>2015-06-09T12:17:44Z</time>
      </trkpt>
      <trkpt lat="42.96956" lon="0.49781">
        <ele>1375.14</ele>
        <time>2015-06-09T12:17:54Z</time>
      </trkpt>
      <trkpt lat="42.96956" lon="0.49794">
        <ele>1372.24</ele>
        <time>2015-06-09T12:18:09Z</time>
      </trkpt>
      <trkpt lat="42.96958" lon="0.49807">
        <ele>1367.28</ele>
        <time>2015-06-09T12:18:22Z</time>
      </trkpt>
      <trkpt lat="42.96958" lon="0.4982">
        <ele>1366.03</ele>
        <time>2015-06-09T12:18:32Z</time>
      </trkpt>
      <trkpt lat="42.9696" lon="0.49832">
        <ele>1367.96</ele>
        <time>2015-06-09T12:18:48Z</time>
      </trkpt>
      <trkpt lat="42.96964" lon="0.49845">
        <ele>1362.42</ele>
        <time>2015-06-09T12:19:02Z</time>
      </trkpt>
      <trkpt lat="42.96965" lon="0.49859">
        <ele>1354.73</ele>
        <time>2015-06-09T12:19:09Z</time>
      </trkpt>
      <trkpt lat="42.96968" lon="0.49871">
        <ele>1349.86</ele>
        <time>2015-06-09T12:19:16Z</time>
      </trkpt>
      <trkpt lat="42.96976" lon="0.49879">
        <ele>1348.9</ele>
        <time>2015-06-09T12:19:23Z</time>
      </trkpt>
      <trkpt lat="42.96985" lon="0.49883">
        <ele>1365.92</ele>
        <time>2015-06-09T12:19:37Z</time>
      </trkpt>
      <trkpt lat="42.96995" lon="0.49883">
        <ele>1364.25</ele>
        <time>2015-06-09T12:19:46Z</time>
      </trkpt>
      <trkpt lat="42.97004" lon="0.49888">
        <ele>1361.49</ele>
        <time>2015-06-09T12:19:56Z</time>
      </trkpt>
      <trkpt lat="42.97014" lon="0.4989">
        <ele>1353.45</ele>
        <time>2015-06-09T12:20:06Z</time>
      </trkpt>
      <trkpt lat="42.97023" lon="0.49887">
        <ele>1355.84</ele>
        <time>2015-06-09T12:20:17Z</time>
      </trkpt>
      <trkpt lat="42.97032" lon="0.49884">
        <ele>1354.09</ele>
        <time>2015-06-09T12:20:31Z</time>
      </trkpt>
      <trkpt lat="42.97042" lon="0.49884">
        <ele>1353.36</ele>
        <time>2015-06-09T12:20:42Z</time>
      </trkpt>
      <trkpt lat="42.97051" lon="0.49883">
        <ele>1356.27</ele>
        <time>2015-06-09T12:20:50Z</time>
      </trkpt>
      <trkpt lat="42.97061" lon="0.4988">
        <ele>1359.44</ele>
        <time>2015-06-09T12:21:00Z</time>
      </trkpt>
      <trkpt lat="42.97069" lon="0.49875">
        <ele>1362.14</ele>
        <time>2015-06-09T12:21:08Z</time>
      </trkpt>
      <trkpt lat="42.9708" lon="0.49872">
        <ele>1363.98</ele>
        <time>2015-06-09T12:21:15Z</time>
      </trkpt>
      <trkpt lat="42.97089" lon="0.49866">
        <ele>1360.48</ele>
        <time>2015-06-09T12:21:22Z</time>
      </trkpt>
      <trkpt lat="42.97098" lon="0.4986">
        <ele>1361.17</ele>
        <time>2015-06-09T12:21:31Z</time>
      </trkpt>
      <trkpt lat="42.97107" lon="0.49856">
        <ele>1361.58</ele>
        <time>2015-06-09T12:21:39Z</time>
      </trkpt>
      <trkpt lat="42.97111" lon="0.49845">
        <ele>1357.1</ele>
        <time>2015-06-09T12:21:47Z</time>
      </trkpt>
      <trkpt lat="42.97117" lon="0.49835">
        <ele>1347.81</ele>
        <time>2015-06-09T12:21:57Z</time>
      </trkpt>
      <trkpt lat="42.97126" lon="0.49832">
        <ele>1349.14</ele>
        <time>2015-06-09T12:22:10Z</time>
      </trkpt>
      <trkpt lat="42.97136" lon="0.4983">
        <ele>1351.26</ele>
        <time>2015-06-09T12:22:24Z</time>
      </trkpt>
      <trkpt lat="42.97145" lon="0.49829">
        <ele>1351.81</ele>
        <time>2015-06-09T12:22:32Z</time>
      </trkpt>
      <trkpt lat="42.97155" lon="0.49828">
        <ele>1353.51</ele>
        <time>2015-06-09T12:22:39Z</time>
      </trkpt>
      <trkpt lat="42.97165" lon="0.49826">
        <ele>1351.9</ele>
        <time>2015-06-09T12:22:48Z</time>
      </trkpt>
      <trkpt lat="42.9717" lon="0.49816">
        <ele>1347.49</ele>
        <time>2015-06-09T12:23:10Z</time>
      </trkpt>
      <trkpt lat="42.97179" lon="0.49812">
        <ele>1348.88</ele>
        <time>2015-06-09T12:23:19Z</time>
      </trkpt>
      <trkpt lat="42.97188" lon="0.49816">
        <ele>1346.33</ele>
        <time>2015-06-09T12:23:34Z</time>
      </trkpt>
      <trkpt lat="42.97198" lon="0.49818">
        <ele>1346.02</ele>
        <time>2015-06-09T12:24:00Z</time>
      </trkpt>
      <trkpt lat="42.97207" lon="0.49824">
        <ele>1344.08</ele>
        <time>2015-06-09T12:24:17Z</time>
      </trkpt>
      <trkpt lat="42.97217" lon="0.49829">
        <ele>1338.17</ele>
        <time>2015-06-09T12:24:22Z</time>
      </trkpt>
      <trkpt lat="42.97226" lon="0.4983">
        <ele>1333.55</ele>
        <time>2015-06-09T12:24:27Z</time>
      </trkpt>
      <trkpt lat="42.97236" lon="0.4983">
        <ele>1334.32</ele>
        <time>2015-06-09T12:24:34Z</time>
      </trkpt>
      <trkpt lat="42.97246" lon="0.49828">
        <ele>1335.4</ele>
        <time>2015-06-09T12:24:41Z</time>
      </trkpt>
      <trkpt lat="42.97256" lon="0.49826">
        <ele>1335.26</ele>
        <time>2015-06-09T12:24:49Z</time>
      </trkpt>
      <trkpt lat="42.97266" lon="0.49825">
        <ele>1335.8</ele>
        <time>2015-06-09T12:25:01Z</time>
      </trkpt>
      <trkpt lat="42.97276" lon="0.49824">
        <ele>1336.89</ele>
        <time>2015-06-09T12:25:08Z</time>
      </trkpt>
      <trkpt lat="42.97284" lon="0.49818">
        <ele>1332.19</ele>
        <time>2015-06-09T12:25:15Z</time>
      </trkpt>
      <trkpt lat="42.97293" lon="0.49814">
        <ele>1339.23</ele>
        <time>2015-06-09T12:25:23Z</time>
      </trkpt>
      <trkpt lat="42.973" lon="0.49806">
        <ele>1336.97</ele>
        <time>2015-06-09T12:25:34Z</time>
      </trkpt>
      <trkpt lat="42.97309" lon="0.49801">
        <ele>1334.53</ele>
        <time>2015-06-09T12:25:42Z</time>
      </trkpt>
      <trkpt lat="42.97316" lon="0.49794">
        <ele>1334.61</ele>
        <time>2015-06-09T12:25:51Z</time>
      </trkpt>
      <trkpt lat="42.97322" lon="0.49785">
        <ele>1337.71</ele>
        <time>2015-06-09T12:25:59Z</time>
      </trkpt>
      <trkpt lat="42.9733" lon="0.49777">
        <ele>1338.52</ele>
        <time>2015-06-09T12:26:11Z</time>
      </trkpt>
      <trkpt lat="42.97335" lon="0.49766">
        <ele>1338.36</ele>
        <time>2015-06-09T12:26:24Z</time>
      </trkpt>
      <trkpt lat="42.9734" lon="0.49755">
        <ele>1336.25</ele>
        <time>2015-06-09T12:26:36Z</time>
      </trkpt>
      <trkpt lat="42.97344" lon="0.49744">
        <ele>1333.59</ele>
        <time>2015-06-09T12:26:43Z</time>
      </trkpt>
      <trkpt lat="42.9735" lon="0.49733">
        <ele>1334.24</ele>
        <time>2015-06-09T12:26:50Z</time>
      </trkpt>
      <trkpt lat="42.97357" lon="0.49726">
        <ele>1334.52</ele>
        <time>2015-06-09T12:26:59Z</time>
      </trkpt>
      <trkpt lat="42.97365" lon="0.49717">
        <ele>1338.32</ele>
        <time>2015-06-09T12:27:05Z</time>
      </trkpt>
      <trkpt lat="42.97371" lon="0.49706">
        <ele>1338.13</ele>
        <time>2015-06-09T12:27:13Z</time>
      </trkpt>
      <trkpt lat="42.97374" lon="0.49694">
        <ele>1337</ele>
        <time>2015-06-09T12:27:21Z</time>
      </trkpt>
      <trkpt lat="42.97379" lon="0.49683">
        <ele>1333.4</ele>
        <time>2015-06-09T12:27:29Z</time>
      </trkpt>
      <trkpt lat="42.97385" lon="0.49673">
        <ele>1333.59</ele>
        <time>2015-06-09T12:27:37Z</time>
      </trkpt>
      <trkpt lat="42.97389" lon="0.49661">
        <ele>1327.68</ele>
        <time>2015-06-09T12:27:44Z</time>
      </trkpt>
      <trkpt lat="42.97398" lon="0.49657">
        <ele>1333.98</ele>
        <time>2015-06-09T12:28:04Z</time>
      </trkpt>
      <trkpt lat="42.97406" lon="0.49652">
        <ele>1335.84</ele>
        <time>2015-06-09T12:28:19Z</time>
      </trkpt>
      <trkpt lat="42.97413" lon="0.49644">
        <ele>1333.39</ele>
        <time>2015-06-09T12:28:25Z</time>
      </trkpt>
      <trkpt lat="42.9742" lon="0.49636">
        <ele>1332.76</ele>
        <time>2015-06-09T12:28:32Z</time>
      </trkpt>
      <trkpt lat="42.97427" lon="0.49628">
        <ele>1330.72</ele>
        <time>2015-06-09T12:28:41Z</time>
      </trkpt>
      <trkpt lat="42.97432" lon="0.49617">
        <ele>1326.95</ele>
        <time>2015-06-09T12:28:50Z</time>
      </trkpt>
      <trkpt lat="42.97437" lon="0.49606">
        <ele>1325.2</ele>
        <time>2015-06-09T12:28:56Z</time>
      </trkpt>
      <trkpt lat="42.97445" lon="0.496">
        <ele>1326.34</ele>
        <time>2015-06-09T12:29:03Z</time>
      </trkpt>
      <trkpt lat="42.97454" lon="0.49595">
        <ele>1322.14</ele>
        <time>2015-06-09T12:29:14Z</time>
      </trkpt>
      <trkpt lat="42.97463" lon="0.49588">
        <ele>1322.23</ele>
        <time>2015-06-09T12:29:23Z</time>
      </trkpt>
      <trkpt lat="42.9747" lon="0.49579">
        <ele>1320.62</ele>
        <time>2015-06-09T12:29:31Z</time>
      </trkpt>
      <trkpt lat="42.97478" lon="0.49574">
        <ele>1324.35</ele>
        <time>2015-06-09T12:29:44Z</time>
      </trkpt>
      <trkpt lat="42.97485" lon="0.49567">
        <ele>1324.04</ele>
        <time>2015-06-09T12:29:59Z</time>
      </trkpt>
      <trkpt lat="42.97494" lon="0.49562">
        <ele>1327.6</ele>
        <time>2015-06-09T12:30:08Z</time>
      </trkpt>
      <trkpt lat="42.97504" lon="0.49559">
        <ele>1325.63</ele>
        <time>2015-06-09T12:30:17Z</time>
      </trkpt>
      <trkpt lat="42.97512" lon="0.49556">
        <ele>1321.61</ele>
        <time>2015-06-09T12:30:27Z</time>
      </trkpt>
      <trkpt lat="42.97522" lon="0.49556">
        <ele>1316.51</ele>
        <time>2015-06-09T12:30:37Z</time>
      </trkpt>
      <trkpt lat="42.97531" lon="0.49554">
        <ele>1314.48</ele>
        <time>2015-06-09T12:30:50Z</time>
      </trkpt>
      <trkpt lat="42.9754" lon="0.49548">
        <ele>1316.19</ele>
        <time>2015-06-09T12:30:57Z</time>
      </trkpt>
      <trkpt lat="42.9755" lon="0.49548">
        <ele>1318</ele>
        <time>2015-06-09T12:31:04Z</time>
      </trkpt>
      <trkpt lat="42.97559" lon="0.49547">
        <ele>1318.58</ele>
        <time>2015-06-09T12:31:13Z</time>
      </trkpt>
      <trkpt lat="42.97568" lon="0.4955">
        <ele>1324.66</ele>
        <time>2015-06-09T12:31:21Z</time>
      </trkpt>
      <trkpt lat="42.97577" lon="0.49546">
        <ele>1322.79</ele>
        <time>2015-06-09T12:31:29Z</time>
      </trkpt>
      <trkpt lat="42.97585" lon="0.4954">
        <ele>1323.08</ele>
        <time>2015-06-09T12:31:38Z</time>
      </trkpt>
      <trkpt lat="42.97594" lon="0.49536">
        <ele>1320.86</ele>
        <time>2015-06-09T12:31:47Z</time>
      </trkpt>
      <trkpt lat="42.97604" lon="0.49541">
        <ele>1322.42</ele>
        <time>2015-06-09T12:31:53Z</time>
      </trkpt>
      <trkpt lat="42.97611" lon="0.49532">
        <ele>1317.3</ele>
        <time>2015-06-09T12:32:16Z</time>
      </trkpt>
      <trkpt lat="42.9762" lon="0.49533">
        <ele>1310.83</ele>
        <time>2015-06-09T12:32:21Z</time>
      </trkpt>
      <trkpt lat="42.97629" lon="0.49534">
        <ele>1307.39</ele>
        <time>2015-06-09T12:32:27Z</time>
      </trkpt>
      <trkpt lat="42.97638" lon="0.49539">
        <ele>1308.36</ele>
        <time>2015-06-09T12:32:37Z</time>
      </trkpt>
      <trkpt lat="42.97647" lon="0.49541">
        <ele>1309.18</ele>
        <time>2015-06-09T12:32:47Z</time>
      </trkpt>
      <trkpt lat="42.97655" lon="0.49547">
        <ele>1316.68</ele>
        <time>2015-06-09T12:33:01Z</time>
      </trkpt>
      <trkpt lat="42.97665" lon="0.49548">
        <ele>1315.98</ele>
        <time>2015-06-09T12:33:09Z</time>
      </trkpt>
      <trkpt lat="42.97674" lon="0.49549">
        <ele>1317.04</ele>
        <time>2015-06-09T12:33:23Z</time>
      </trkpt>
      <trkpt lat="42.97684" lon="0.49547">
        <ele>1308.46</ele>
        <time>2015-06-09T12:33:35Z</time>
      </trkpt>
      <trkpt lat="42.97693" lon="0.49548">
        <ele>1305.12</ele>
        <time>2015-06-09T12:33:43Z</time>
      </trkpt>
      <trkpt lat="42.97703" lon="0.49548">
        <ele>1309.43</ele>
        <time>2015-06-09T12:33:53Z</time>
      </trkpt>
      <trkpt lat="42.97713" lon="0.49551">
        <ele>1314.46</ele>
        <time>2015-06-09T12:33:59Z</time>
      </trkpt>
      <trkpt lat="42.97722" lon="0.49551">
        <ele>1308.19</ele>
        <time>2015-06-09T12:34:08Z</time>
      </trkpt>
      <trkpt lat="42.97731" lon="0.49544">
        <ele>1308.4</ele>
        <time>2015-06-09T12:34:17Z</time>
      </trkpt>
      <trkpt lat="42.97739" lon="0.4954">
        <ele>1308</ele>
        <time>2015-06-09T12:34:24Z</time>
      </trkpt>
      <trkpt lat="42.97749" lon="0.49541">
        <ele>1307.95</ele>
        <time>2015-06-09T12:34:44Z</time>
      </trkpt>
      <trkpt lat="42.97759" lon="0.49541">
        <ele>1307.92</ele>
        <time>2015-06-09T12:34:51Z</time>
      </trkpt>
      <trkpt lat="42.97768" lon="0.49532">
        <ele>1307.56</ele>
        <time>2015-06-09T12:34:57Z</time>
      </trkpt>
      <trkpt lat="42.97774" lon="0.49523">
        <ele>1307.74</ele>
        <time>2015-06-09T12:35:02Z</time>
      </trkpt>
      <trkpt lat="42.97781" lon="0.49513">
        <ele>1309.68</ele>
        <time>2015-06-09T12:35:10Z</time>
      </trkpt>
      <trkpt lat="42.97787" lon="0.49501">
        <ele>1305.95</ele>
        <time>2015-06-09T12:35:19Z</time>
      </trkpt>
      <trkpt lat="42.97795" lon="0.49495">
        <ele>1308.19</ele>
        <time>2015-06-09T12:35:26Z</time>
      </trkpt>
      <trkpt lat="42.97802" lon="0.49486">
        <ele>1312</ele>
        <time>2015-06-09T12:35:35Z</time>
      </trkpt>
      <trkpt lat="42.97806" lon="0.49475">
        <ele>1313.79</ele>
        <time>2015-06-09T12:35:43Z</time>
      </trkpt>
      <trkpt lat="42.97807" lon="0.49462">
        <ele>1313.15</ele>
        <time>2015-06-09T12:35:50Z</time>
      </trkpt>
      <trkpt lat="42.97809" lon="0.49449">
        <ele>1315.75</ele>
        <time>2015-06-09T12:35:59Z</time>
      </trkpt>
      <trkpt lat="42.97811" lon="0.49437">
        <ele>1312.45</ele>
        <time>2015-06-09T12:36:09Z</time>
      </trkpt>
      <trkpt lat="42.97814" lon="0.49425">
        <ele>1317.63</ele>
        <time>2015-06-09T12:36:20Z</time>
      </trkpt>
      <trkpt lat="42.97817" lon="0.49413">
        <ele>1317.72</ele>
        <time>2015-06-09T12:36:29Z</time>
      </trkpt>
      <trkpt lat="42.97816" lon="0.494">
        <ele>1316.15</ele>
        <time>2015-06-09T12:36:38Z</time>
      </trkpt>
      <trkpt lat="42.97819" lon="0.49388">
        <ele>1317.14</ele>
        <time>2015-06-09T12:36:45Z</time>
      </trkpt>
      <trkpt lat="42.97821" lon="0.49376">
        <ele>1316.24</ele>
        <time>2015-06-09T12:36:53Z</time>
      </trkpt>
      <trkpt lat="42.97825" lon="0.49365">
        <ele>1317.14</ele>
        <time>2015-06-09T12:37:03Z</time>
      </trkpt>
      <trkpt lat="42.97824" lon="0.49352">
        <ele>1313.58</ele>
        <time>2015-06-09T12:37:12Z</time>
      </trkpt>
      <trkpt lat="42.97821" lon="0.4934">
        <ele>1312.1</ele>
        <time>2015-06-09T12:37:20Z</time>
      </trkpt>
      <trkpt lat="42.97818" lon="0.49327">
        <ele>1313.39</ele>
        <time>2015-06-09T12:37:42Z</time>
      </trkpt>
      <trkpt lat="42.97816" lon="0.49314">
        <ele>1311.02</ele>
        <time>2015-06-09T12:38:05Z</time>
      </trkpt>
      <trkpt lat="42.97822" lon="0.49304">
        <ele>1314.34</ele>
        <time>2015-06-09T12:38:13Z</time>
      </trkpt>
      <trkpt lat="42.97821" lon="0.49292">
        <ele>1313.95</ele>
        <time>2015-06-09T12:38:22Z</time>
      </trkpt>
      <trkpt lat="42.97824" lon="0.49279">
        <ele>1313.86</ele>
        <time>2015-06-09T12:38:30Z</time>
      </trkpt>
      <trkpt lat="42.97823" lon="0.49266">
        <ele>1313.91</ele>
        <time>2015-06-09T12:38:38Z</time>
      </trkpt>
      <trkpt lat="42.97825" lon="0.49252">
        <ele>1314.93</ele>
        <time>2015-06-09T12:38:44Z</time>
      </trkpt>
      <trkpt lat="42.97819" lon="0.49242">
        <ele>1312.68</ele>
        <time>2015-06-09T12:38:50Z</time>
      </trkpt>
      <trkpt lat="42.97813" lon="0.49232">
        <ele>1314.94</ele>
        <time>2015-06-09T12:38:55Z</time>
      </trkpt>
      <trkpt lat="42.97805" lon="0.49226">
        <ele>1313.81</ele>
        <time>2015-06-09T12:38:59Z</time>
      </trkpt>
      <trkpt lat="42.97799" lon="0.49216">
        <ele>1315.07</ele>
        <time>2015-06-09T12:39:05Z</time>
      </trkpt>
      <trkpt lat="42.97807" lon="0.49207">
        <ele>1315.88</ele>
        <time>2015-06-09T12:39:09Z</time>
      </trkpt>
      <trkpt lat="42.97816" lon="0.492">
        <ele>1317.22</ele>
        <time>2015-06-09T12:39:13Z</time>
      </trkpt>
      <trkpt lat="42.97815" lon="0.49188">
        <ele>1309.55</ele>
        <time>2015-06-09T12:39:24Z</time>
      </trkpt>
      <trkpt lat="42.97815" lon="0.49175">
        <ele>1307.79</ele>
        <time>2015-06-09T12:39:37Z</time>
      </trkpt>
      <trkpt lat="42.97818" lon="0.49163">
        <ele>1315.68</ele>
        <time>2015-06-09T12:39:48Z</time>
      </trkpt>
      <trkpt lat="42.97824" lon="0.49154">
        <ele>1314</ele>
        <time>2015-06-09T12:39:57Z</time>
      </trkpt>
      <trkpt lat="42.97823" lon="0.49141">
        <ele>1309.36</ele>
        <time>2015-06-09T12:40:10Z</time>
      </trkpt>
      <trkpt lat="42.97823" lon="0.49128">
        <ele>1306.15</ele>
        <time>2015-06-09T12:40:29Z</time>
      </trkpt>
      <trkpt lat="42.97828" lon="0.49116">
        <ele>1310.56</ele>
        <time>2015-06-09T12:40:39Z</time>
      </trkpt>
      <trkpt lat="42.9783" lon="0.49103">
        <ele>1365.67</ele>
        <time>2015-06-09T12:40:54Z</time>
      </trkpt>
      <trkpt lat="42.9783" lon="0.49089">
        <ele>1323.37</ele>
        <time>2015-06-09T12:41:01Z</time>
      </trkpt>
      <trkpt lat="42.97832" lon="0.49077">
        <ele>1308.49</ele>
        <time>2015-06-09T12:41:07Z</time>
      </trkpt>
      <trkpt lat="42.97837" lon="0.49066">
        <ele>1305.13</ele>
        <time>2015-06-09T12:41:35Z</time>
      </trkpt>
      <trkpt lat="42.97842" lon="0.49054">
        <ele>1304.42</ele>
        <time>2015-06-09T12:41:40Z</time>
      </trkpt>
      <trkpt lat="42.97846" lon="0.4904">
        <ele>1304.08</ele>
        <time>2015-06-09T12:41:45Z</time>
      </trkpt>
      <trkpt lat="42.97852" lon="0.49029">
        <ele>1304.91</ele>
        <time>2015-06-09T12:41:52Z</time>
      </trkpt>
      <trkpt lat="42.97858" lon="0.4902">
        <ele>1304.46</ele>
        <time>2015-06-09T12:42:01Z</time>
      </trkpt>
      <trkpt lat="42.97865" lon="0.49011">
        <ele>1304.32</ele>
        <time>2015-06-09T12:42:12Z</time>
      </trkpt>
      <trkpt lat="42.97872" lon="0.49003">
        <ele>1305.18</ele>
        <time>2015-06-09T12:42:29Z</time>
      </trkpt>
      <trkpt lat="42.97876" lon="0.48991">
        <ele>1305.31</ele>
        <time>2015-06-09T12:42:45Z</time>
      </trkpt>
      <trkpt lat="42.97881" lon="0.48981">
        <ele>1304.35</ele>
        <time>2015-06-09T12:42:55Z</time>
      </trkpt>
      <trkpt lat="42.97884" lon="0.48968">
        <ele>1306.75</ele>
        <time>2015-06-09T12:43:05Z</time>
      </trkpt>
      <trkpt lat="42.97883" lon="0.48956">
        <ele>1304.3</ele>
        <time>2015-06-09T12:43:21Z</time>
      </trkpt>
      <trkpt lat="42.97879" lon="0.48943">
        <ele>1309.89</ele>
        <time>2015-06-09T12:43:33Z</time>
      </trkpt>
      <trkpt lat="42.97871" lon="0.48935">
        <ele>1312.73</ele>
        <time>2015-06-09T12:43:41Z</time>
      </trkpt>
      <trkpt lat="42.97863" lon="0.48927">
        <ele>1318.92</ele>
        <time>2015-06-09T12:43:48Z</time>
      </trkpt>
      <trkpt lat="42.97854" lon="0.48924">
        <ele>1320.08</ele>
        <time>2015-06-09T12:43:57Z</time>
      </trkpt>
      <trkpt lat="42.97845" lon="0.48924">
        <ele>1319.28</ele>
        <time>2015-06-09T12:44:10Z</time>
      </trkpt>
      <trkpt lat="42.97835" lon="0.48923">
        <ele>1316.6</ele>
        <time>2015-06-09T12:44:17Z</time>
      </trkpt>
      <trkpt lat="42.97826" lon="0.48921">
        <ele>1315.74</ele>
        <time>2015-06-09T12:44:25Z</time>
      </trkpt>
      <trkpt lat="42.97817" lon="0.48918">
        <ele>1312.48</ele>
        <time>2015-06-09T12:44:33Z</time>
      </trkpt>
      <trkpt lat="42.97808" lon="0.48918">
        <ele>1308.78</ele>
        <time>2015-06-09T12:44:46Z</time>
      </trkpt>
      <trkpt lat="42.97799" lon="0.48921">
        <ele>1309.14</ele>
        <time>2015-06-09T12:44:59Z</time>
      </trkpt>
      <trkpt lat="42.97789" lon="0.48919">
        <ele>1311.7</ele>
        <time>2015-06-09T12:45:09Z</time>
      </trkpt>
      <trkpt lat="42.9778" lon="0.48916">
        <ele>1315.22</ele>
        <time>2015-06-09T12:45:21Z</time>
      </trkpt>
      <trkpt lat="42.97771" lon="0.48913">
        <ele>1314.36</ele>
        <time>2015-06-09T12:45:29Z</time>
      </trkpt>
      <trkpt lat="42.97761" lon="0.48912">
        <ele>1314.33</ele>
        <time>2015-06-09T12:45:39Z</time>
      </trkpt>
      <trkpt lat="42.97751" lon="0.48911">
        <ele>1311.8</ele>
        <time>2015-06-09T12:45:45Z</time>
      </trkpt>
      <trkpt lat="42.97742" lon="0.48908">
        <ele>1311.08</ele>
        <time>2015-06-09T12:45:52Z</time>
      </trkpt>
      <trkpt lat="42.97734" lon="0.48903">
        <ele>1312.14</ele>
        <time>2015-06-09T12:45:58Z</time>
      </trkpt>
      <trkpt lat="42.97725" lon="0.489">
        <ele>1307.92</ele>
        <time>2015-06-09T12:46:07Z</time>
      </trkpt>
      <trkpt lat="42.97716" lon="0.48892">
        <ele>1308.19</ele>
        <time>2015-06-09T12:46:17Z</time>
      </trkpt>
      <trkpt lat="42.9771" lon="0.48884">
        <ele>1307.73</ele>
        <time>2015-06-09T12:46:27Z</time>
      </trkpt>
      <trkpt lat="42.97704" lon="0.48874">
        <ele>1310.55</ele>
        <time>2015-06-09T12:46:38Z</time>
      </trkpt>
      <trkpt lat="42.97696" lon="0.48865">
        <ele>1307.59</ele>
        <time>2015-06-09T12:46:48Z</time>
      </trkpt>
      <trkpt lat="42.97691" lon="0.48854">
        <ele>1308.52</ele>
        <time>2015-06-09T12:46:57Z</time>
      </trkpt>
      <trkpt lat="42.97684" lon="0.48844">
        <ele>1309</ele>
        <time>2015-06-09T12:47:08Z</time>
      </trkpt>
      <trkpt lat="42.97674" lon="0.48839">
        <ele>1304.79</ele>
        <time>2015-06-09T12:47:14Z</time>
      </trkpt>
      <trkpt lat="42.97665" lon="0.48837">
        <ele>1295.99</ele>
        <time>2015-06-09T12:47:21Z</time>
      </trkpt>
      <trkpt lat="42.97659" lon="0.48827">
        <ele>1298.79</ele>
        <time>2015-06-09T12:47:30Z</time>
      </trkpt>
      <trkpt lat="42.97654" lon="0.48815">
        <ele>1299.89</ele>
        <time>2015-06-09T12:47:39Z</time>
      </trkpt>
      <trkpt lat="42.97649" lon="0.48803">
        <ele>1300.01</ele>
        <time>2015-06-09T12:47:48Z</time>
      </trkpt>
      <trkpt lat="42.9764" lon="0.48796">
        <ele>1297.1</ele>
        <time>2015-06-09T12:47:56Z</time>
      </trkpt>
      <trkpt lat="42.97632" lon="0.4879">
        <ele>1295.51</ele>
        <time>2015-06-09T12:48:03Z</time>
      </trkpt>
      <trkpt lat="42.97624" lon="0.48785">
        <ele>1292.62</ele>
        <time>2015-06-09T12:48:11Z</time>
      </trkpt>
      <trkpt lat="42.97614" lon="0.48783">
        <ele>1290.89</ele>
        <time>2015-06-09T12:48:28Z</time>
      </trkpt>
      <trkpt lat="42.97606" lon="0.48781">
        <ele>1291.02</ele>
        <time>2015-06-09T12:48:39Z</time>
      </trkpt>
      <trkpt lat="42.97597" lon="0.48776">
        <ele>1291.62</ele>
        <time>2015-06-09T12:48:45Z</time>
      </trkpt>
      <trkpt lat="42.97588" lon="0.48775">
        <ele>1283.43</ele>
        <time>2015-06-09T12:48:55Z</time>
      </trkpt>
      <trkpt lat="42.97578" lon="0.48771">
        <ele>1285.43</ele>
        <time>2015-06-09T12:49:01Z</time>
      </trkpt>
      <trkpt lat="42.97569" lon="0.48768">
        <ele>1280.47</ele>
        <time>2015-06-09T12:49:09Z</time>
      </trkpt>
      <trkpt lat="42.97561" lon="0.48762">
        <ele>1284.85</ele>
        <time>2015-06-09T12:49:16Z</time>
      </trkpt>
      <trkpt lat="42.97552" lon="0.48757">
        <ele>1282.86</ele>
        <time>2015-06-09T12:49:24Z</time>
      </trkpt>
      <trkpt lat="42.97543" lon="0.48755">
        <ele>1285.63</ele>
        <time>2015-06-09T12:49:31Z</time>
      </trkpt>
      <trkpt lat="42.97534" lon="0.48749">
        <ele>1288.71</ele>
        <time>2015-06-09T12:49:43Z</time>
      </trkpt>
      <trkpt lat="42.97525" lon="0.48748">
        <ele>1288.26</ele>
        <time>2015-06-09T12:49:51Z</time>
      </trkpt>
      <trkpt lat="42.97515" lon="0.48747">
        <ele>1285.95</ele>
        <time>2015-06-09T12:49:58Z</time>
      </trkpt>
      <trkpt lat="42.97507" lon="0.48742">
        <ele>1291.05</ele>
        <time>2015-06-09T12:50:05Z</time>
      </trkpt>
      <trkpt lat="42.97497" lon="0.48738">
        <ele>1293.15</ele>
        <time>2015-06-09T12:50:13Z</time>
      </trkpt>
      <trkpt lat="42.97489" lon="0.48732">
        <ele>1293.95</ele>
        <time>2015-06-09T12:50:22Z</time>
      </trkpt>
      <trkpt lat="42.9748" lon="0.48731">
        <ele>1292.09</ele>
        <time>2015-06-09T12:50:33Z</time>
      </trkpt>
      <trkpt lat="42.97471" lon="0.48728">
        <ele>1291.04</ele>
        <time>2015-06-09T12:50:40Z</time>
      </trkpt>
      <trkpt lat="42.97461" lon="0.4873">
        <ele>1287.64</ele>
        <time>2015-06-09T12:50:51Z</time>
      </trkpt>
      <trkpt lat="42.97451" lon="0.48733">
        <ele>1286.04</ele>
        <time>2015-06-09T12:50:57Z</time>
      </trkpt>
      <trkpt lat="42.97442" lon="0.48731">
        <ele>1287.67</ele>
        <time>2015-06-09T12:51:04Z</time>
      </trkpt>
      <trkpt lat="42.97433" lon="0.48732">
        <ele>1285.94</ele>
        <time>2015-06-09T12:51:16Z</time>
      </trkpt>
      <trkpt lat="42.97424" lon="0.48734">
        <ele>1284.86</ele>
        <time>2015-06-09T12:51:25Z</time>
      </trkpt>
      <trkpt lat="42.97414" lon="0.48736">
        <ele>1282.44</ele>
        <time>2015-06-09T12:51:33Z</time>
      </trkpt>
      <trkpt lat="42.97405" lon="0.4874">
        <ele>1280.92</ele>
        <time>2015-06-09T12:51:41Z</time>
      </trkpt>
      <trkpt lat="42.97396" lon="0.48744">
        <ele>1282.15</ele>
        <time>2015-06-09T12:51:49Z</time>
      </trkpt>
      <trkpt lat="42.97386" lon="0.48747">
        <ele>1280.97</ele>
        <time>2015-06-09T12:51:57Z</time>
      </trkpt>
      <trkpt lat="42.97379" lon="0.48755">
        <ele>1282.19</ele>
        <time>2015-06-09T12:52:04Z</time>
      </trkpt>
      <trkpt lat="42.97371" lon="0.4876">
        <ele>1281.29</ele>
        <time>2015-06-09T12:52:17Z</time>
      </trkpt>
      <trkpt lat="42.97361" lon="0.48761">
        <ele>1281.38</ele>
        <time>2015-06-09T12:52:27Z</time>
      </trkpt>
      <trkpt lat="42.97351" lon="0.48765">
        <ele>1278.23</ele>
        <time>2015-06-09T12:52:37Z</time>
      </trkpt>
      <trkpt lat="42.97343" lon="0.48773">
        <ele>1274.34</ele>
        <time>2015-06-09T12:52:43Z</time>
      </trkpt>
      <trkpt lat="42.97335" lon="0.4878">
        <ele>1272.43</ele>
        <time>2015-06-09T12:52:53Z</time>
      </trkpt>
      <trkpt lat="42.97326" lon="0.4878">
        <ele>1272.03</ele>
        <time>2015-06-09T12:53:02Z</time>
      </trkpt>
      <trkpt lat="42.97316" lon="0.48778">
        <ele>1272.03</ele>
        <time>2015-06-09T12:53:11Z</time>
      </trkpt>
      <trkpt lat="42.97307" lon="0.48781">
        <ele>1271.39</ele>
        <time>2015-06-09T12:53:34Z</time>
      </trkpt>
      <trkpt lat="42.97297" lon="0.48785">
        <ele>1268.22</ele>
        <time>2015-06-09T12:53:42Z</time>
      </trkpt>
      <trkpt lat="42.97288" lon="0.48786">
        <ele>1269.26</ele>
        <time>2015-06-09T12:53:54Z</time>
      </trkpt>
      <trkpt lat="42.97278" lon="0.48784">
        <ele>1270.27</ele>
        <time>2015-06-09T12:54:04Z</time>
      </trkpt>
      <trkpt lat="42.97268" lon="0.48788">
        <ele>1267.49</ele>
        <time>2015-06-09T12:54:09Z</time>
      </trkpt>
      <trkpt lat="42.97258" lon="0.48787">
        <ele>1267.85</ele>
        <time>2015-06-09T12:54:15Z</time>
      </trkpt>
      <trkpt lat="42.97249" lon="0.48788">
        <ele>1266.77</ele>
        <time>2015-06-09T12:54:27Z</time>
      </trkpt>
      <trkpt lat="42.97239" lon="0.48787">
        <ele>1263.1</ele>
        <time>2015-06-09T12:54:34Z</time>
      </trkpt>
      <trkpt lat="42.9723" lon="0.48785">
        <ele>1261.02</ele>
        <time>2015-06-09T12:54:49Z</time>
      </trkpt>
      <trkpt lat="42.97222" lon="0.48782">
        <ele>1262.44</ele>
        <time>2015-06-09T12:54:56Z</time>
      </trkpt>
      <trkpt lat="42.97213" lon="0.48774">
        <ele>1261.48</ele>
        <time>2015-06-09T12:55:08Z</time>
      </trkpt>
      <trkpt lat="42.97208" lon="0.48764">
        <ele>1255.44</ele>
        <time>2015-06-09T12:55:21Z</time>
      </trkpt>
      <trkpt lat="42.972" lon="0.48755">
        <ele>1255.26</ele>
        <time>2015-06-09T12:55:30Z</time>
      </trkpt>
      <trkpt lat="42.97194" lon="0.48745">
        <ele>1261.67</ele>
        <time>2015-06-09T12:55:38Z</time>
      </trkpt>
      <trkpt lat="42.97196" lon="0.48732">
        <ele>1259.31</ele>
        <time>2015-06-09T12:55:46Z</time>
      </trkpt>
      <trkpt lat="42.97192" lon="0.4872">
        <ele>1258.19</ele>
        <time>2015-06-09T12:55:55Z</time>
      </trkpt>
      <trkpt lat="42.97191" lon="0.48707">
        <ele>1259.95</ele>
        <time>2015-06-09T12:56:03Z</time>
      </trkpt>
      <trkpt lat="42.97191" lon="0.48694">
        <ele>1256.53</ele>
        <time>2015-06-09T12:56:11Z</time>
      </trkpt>
      <trkpt lat="42.97189" lon="0.48681">
        <ele>1255.71</ele>
        <time>2015-06-09T12:56:19Z</time>
      </trkpt>
      <trkpt lat="42.97186" lon="0.48669">
        <ele>1255.21</ele>
        <time>2015-06-09T12:56:27Z</time>
      </trkpt>
      <trkpt lat="42.97182" lon="0.48658">
        <ele>1252.29</ele>
        <time>2015-06-09T12:56:34Z</time>
      </trkpt>
      <trkpt lat="42.97181" lon="0.48644">
        <ele>1250.77</ele>
        <time>2015-06-09T12:56:43Z</time>
      </trkpt>
      <trkpt lat="42.97185" lon="0.48633">
        <ele>1250.32</ele>
        <time>2015-06-09T12:56:51Z</time>
      </trkpt>
      <trkpt lat="42.97184" lon="0.4862">
        <ele>1249.28</ele>
        <time>2015-06-09T12:57:00Z</time>
      </trkpt>
      <trkpt lat="42.97183" lon="0.48608">
        <ele>1249.12</ele>
        <time>2015-06-09T12:57:09Z</time>
      </trkpt>
      <trkpt lat="42.97176" lon="0.486">
        <ele>1247.25</ele>
        <time>2015-06-09T12:57:15Z</time>
      </trkpt>
      <trkpt lat="42.97172" lon="0.48587">
        <ele>1246.79</ele>
        <time>2015-06-09T12:57:23Z</time>
      </trkpt>
      <trkpt lat="42.97171" lon="0.48574">
        <ele>1248.82</ele>
        <time>2015-06-09T12:57:32Z</time>
      </trkpt>
      <trkpt lat="42.97165" lon="0.48564">
        <ele>1246.96</ele>
        <time>2015-06-09T12:57:40Z</time>
      </trkpt>
      <trkpt lat="42.97157" lon="0.48558">
        <ele>1244.55</ele>
        <time>2015-06-09T12:57:47Z</time>
      </trkpt>
      <trkpt lat="42.97149" lon="0.48549">
        <ele>1240.83</ele>
        <time>2015-06-09T12:57:58Z</time>
      </trkpt>
      <trkpt lat="42.97141" lon="0.48542">
        <ele>1237.18</ele>
        <time>2015-06-09T12:58:06Z</time>
      </trkpt>
      <trkpt lat="42.97134" lon="0.48533">
        <ele>1239.23</ele>
        <time>2015-06-09T12:58:13Z</time>
      </trkpt>
      <trkpt lat="42.97126" lon="0.48525">
        <ele>1238.89</ele>
        <time>2015-06-09T12:58:23Z</time>
      </trkpt>
      <trkpt lat="42.97117" lon="0.48521">
        <ele>1235.51</ele>
        <time>2015-06-09T12:58:32Z</time>
      </trkpt>
      <trkpt lat="42.9711" lon="0.48513">
        <ele>1238.91</ele>
        <time>2015-06-09T12:58:40Z</time>
      </trkpt>
      <trkpt lat="42.97108" lon="0.485">
        <ele>1244.42</ele>
        <time>2015-06-09T12:58:52Z</time>
      </trkpt>
      <trkpt lat="42.97113" lon="0.48488">
        <ele>1244.73</ele>
        <time>2015-06-09T12:58:59Z</time>
      </trkpt>
      <trkpt lat="42.97116" lon="0.48476">
        <ele>1240.4</ele>
        <time>2015-06-09T12:59:09Z</time>
      </trkpt>
      <trkpt lat="42.97119" lon="0.48463">
        <ele>1239.04</ele>
        <time>2015-06-09T12:59:19Z</time>
      </trkpt>
      <trkpt lat="42.9712" lon="0.48451">
        <ele>1238.4</ele>
        <time>2015-06-09T12:59:27Z</time>
      </trkpt>
      <trkpt lat="42.97125" lon="0.4844">
        <ele>1241.13</ele>
        <time>2015-06-09T12:59:35Z</time>
      </trkpt>
      <trkpt lat="42.97133" lon="0.48431">
        <ele>1240.09</ele>
        <time>2015-06-09T12:59:43Z</time>
      </trkpt>
      <trkpt lat="42.97139" lon="0.4842">
        <ele>1239.31</ele>
        <time>2015-06-09T12:59:51Z</time>
      </trkpt>
      <trkpt lat="42.97144" lon="0.48408">
        <ele>1238.28</ele>
        <time>2015-06-09T12:59:59Z</time>
      </trkpt>
    </trkseg>
  </trk>
</gpx>